<?xml version="1.0" encoding="UTF-8" standalone="no" ?>
<gpx xmlns="http://www.topografix.com/GPX/1/1" xmlns:xsi="http://www.w3.org/2001/XMLSchema-instance" xsi:schemaLocation="http://www.topografix.com/GPX/1/1 http://www.topografix.com/GPX/1/1/gpx.xsd" version="1.1" creator="VisuGPX - https://www.visugpx.com">
  <metadata>
    <name>SAINTE VICTOIRE</name>
    <desc><![CDATA[Parcours sportif.]]></desc>
  </metadata>
  <trk>
    <name><![CDATA[2012-03-28-01]]></name>
    <trkseg>
      <trkpt lat="43.55509" lon="5.60571">
        <ele>410.2</ele>
        <time>2012-03-28T07:27:00Z</time>
      </trkpt>
      <trkpt lat="43.55509" lon="5.60571">
        <ele>409.8</ele>
        <time>2012-03-28T07:27:01Z</time>
      </trkpt>
      <trkpt lat="43.555" lon="5.6059">
        <ele>410.7</ele>
        <time>2012-03-28T07:27:36Z</time>
      </trkpt>
      <trkpt lat="43.55502" lon="5.60602">
        <ele>418.6</ele>
        <time>2012-03-28T07:28:43Z</time>
      </trkpt>
      <trkpt lat="43.55501" lon="5.60603">
        <ele>418.5</ele>
        <time>2012-03-28T07:28:44Z</time>
      </trkpt>
      <trkpt lat="43.55487" lon="5.60615">
        <ele>415.7</ele>
        <time>2012-03-28T07:29:00Z</time>
      </trkpt>
      <trkpt lat="43.55479" lon="5.60618">
        <ele>415.7</ele>
        <time>2012-03-28T07:29:08Z</time>
      </trkpt>
      <trkpt lat="43.55471" lon="5.60622">
        <ele>415.2</ele>
        <time>2012-03-28T07:29:17Z</time>
      </trkpt>
      <trkpt lat="43.55463" lon="5.60625">
        <ele>414.1</ele>
        <time>2012-03-28T07:29:24Z</time>
      </trkpt>
      <trkpt lat="43.55455" lon="5.60629">
        <ele>412.7</ele>
        <time>2012-03-28T07:29:32Z</time>
      </trkpt>
      <trkpt lat="43.55446" lon="5.60633">
        <ele>411.7</ele>
        <time>2012-03-28T07:29:40Z</time>
      </trkpt>
      <trkpt lat="43.55438" lon="5.60636">
        <ele>410.7</ele>
        <time>2012-03-28T07:29:48Z</time>
      </trkpt>
      <trkpt lat="43.55437" lon="5.60637">
        <ele>410.6</ele>
        <time>2012-03-28T07:29:49Z</time>
      </trkpt>
      <trkpt lat="43.55422" lon="5.6064">
        <ele>409.2</ele>
        <time>2012-03-28T07:30:03Z</time>
      </trkpt>
      <trkpt lat="43.55415" lon="5.60633">
        <ele>403.7</ele>
        <time>2012-03-28T07:30:11Z</time>
      </trkpt>
      <trkpt lat="43.5541" lon="5.60624">
        <ele>395.7</ele>
        <time>2012-03-28T07:30:21Z</time>
      </trkpt>
      <trkpt lat="43.55403" lon="5.60617">
        <ele>392.6</ele>
        <time>2012-03-28T07:30:30Z</time>
      </trkpt>
      <trkpt lat="43.55396" lon="5.60609">
        <ele>391.2</ele>
        <time>2012-03-28T07:30:39Z</time>
      </trkpt>
      <trkpt lat="43.5539" lon="5.60601">
        <ele>392</ele>
        <time>2012-03-28T07:30:47Z</time>
      </trkpt>
      <trkpt lat="43.55383" lon="5.60594">
        <ele>391.5</ele>
        <time>2012-03-28T07:30:55Z</time>
      </trkpt>
      <trkpt lat="43.55382" lon="5.60594">
        <ele>391.2</ele>
        <time>2012-03-28T07:30:56Z</time>
      </trkpt>
      <trkpt lat="43.55366" lon="5.60597">
        <ele>394.7</ele>
        <time>2012-03-28T07:31:10Z</time>
      </trkpt>
      <trkpt lat="43.55359" lon="5.606">
        <ele>399.5</ele>
        <time>2012-03-28T07:31:16Z</time>
      </trkpt>
      <trkpt lat="43.5535" lon="5.60599">
        <ele>398.5</ele>
        <time>2012-03-28T07:31:24Z</time>
      </trkpt>
      <trkpt lat="43.55342" lon="5.60599">
        <ele>398.2</ele>
        <time>2012-03-28T07:31:31Z</time>
      </trkpt>
      <trkpt lat="43.55333" lon="5.60597">
        <ele>398.7</ele>
        <time>2012-03-28T07:31:38Z</time>
      </trkpt>
      <trkpt lat="43.55325" lon="5.60599">
        <ele>398</ele>
        <time>2012-03-28T07:31:45Z</time>
      </trkpt>
      <trkpt lat="43.55318" lon="5.60592">
        <ele>400.2</ele>
        <time>2012-03-28T07:31:55Z</time>
      </trkpt>
      <trkpt lat="43.55309" lon="5.6059">
        <ele>402.1</ele>
        <time>2012-03-28T07:32:05Z</time>
      </trkpt>
      <trkpt lat="43.55308" lon="5.60591">
        <ele>402.1</ele>
        <time>2012-03-28T07:32:06Z</time>
      </trkpt>
      <trkpt lat="43.553" lon="5.60612">
        <ele>404.6</ele>
        <time>2012-03-28T07:32:36Z</time>
      </trkpt>
      <trkpt lat="43.55294" lon="5.60618">
        <ele>404.7</ele>
        <time>2012-03-28T07:32:47Z</time>
      </trkpt>
      <trkpt lat="43.55286" lon="5.60624">
        <ele>408.2</ele>
        <time>2012-03-28T07:32:54Z</time>
      </trkpt>
      <trkpt lat="43.55278" lon="5.60628">
        <ele>409.2</ele>
        <time>2012-03-28T07:33:04Z</time>
      </trkpt>
      <trkpt lat="43.5527" lon="5.60633">
        <ele>413.2</ele>
        <time>2012-03-28T07:33:12Z</time>
      </trkpt>
      <trkpt lat="43.55269" lon="5.60634">
        <ele>413.2</ele>
        <time>2012-03-28T07:33:13Z</time>
      </trkpt>
      <trkpt lat="43.55257" lon="5.60648">
        <ele>417.7</ele>
        <time>2012-03-28T07:33:36Z</time>
      </trkpt>
      <trkpt lat="43.5525" lon="5.60654">
        <ele>409.7</ele>
        <time>2012-03-28T07:33:46Z</time>
      </trkpt>
      <trkpt lat="43.55242" lon="5.60659">
        <ele>408.2</ele>
        <time>2012-03-28T07:33:54Z</time>
      </trkpt>
      <trkpt lat="43.55238" lon="5.60668">
        <ele>413.6</ele>
        <time>2012-03-28T07:34:02Z</time>
      </trkpt>
      <trkpt lat="43.5523" lon="5.60674">
        <ele>413.2</ele>
        <time>2012-03-28T07:34:09Z</time>
      </trkpt>
      <trkpt lat="43.55223" lon="5.6068">
        <ele>412.6</ele>
        <time>2012-03-28T07:34:19Z</time>
      </trkpt>
      <trkpt lat="43.55223" lon="5.60682">
        <ele>413.5</ele>
        <time>2012-03-28T07:34:20Z</time>
      </trkpt>
      <trkpt lat="43.55209" lon="5.60693">
        <ele>405.7</ele>
        <time>2012-03-28T07:34:42Z</time>
      </trkpt>
      <trkpt lat="43.55206" lon="5.60705">
        <ele>405.2</ele>
        <time>2012-03-28T07:34:55Z</time>
      </trkpt>
      <trkpt lat="43.55204" lon="5.60715">
        <ele>407.7</ele>
        <time>2012-03-28T07:35:07Z</time>
      </trkpt>
      <trkpt lat="43.55203" lon="5.60727">
        <ele>411.7</ele>
        <time>2012-03-28T07:35:17Z</time>
      </trkpt>
      <trkpt lat="43.55199" lon="5.60738">
        <ele>413.7</ele>
        <time>2012-03-28T07:35:26Z</time>
      </trkpt>
      <trkpt lat="43.55199" lon="5.60739">
        <ele>413.7</ele>
        <time>2012-03-28T07:35:27Z</time>
      </trkpt>
      <trkpt lat="43.55198" lon="5.6076">
        <ele>421.7</ele>
        <time>2012-03-28T07:35:42Z</time>
      </trkpt>
      <trkpt lat="43.55194" lon="5.60771">
        <ele>423.7</ele>
        <time>2012-03-28T07:35:52Z</time>
      </trkpt>
      <trkpt lat="43.55192" lon="5.60782">
        <ele>418.2</ele>
        <time>2012-03-28T07:36:04Z</time>
      </trkpt>
      <trkpt lat="43.55192" lon="5.60794">
        <ele>417.2</ele>
        <time>2012-03-28T07:36:14Z</time>
      </trkpt>
      <trkpt lat="43.55196" lon="5.60805">
        <ele>420.6</ele>
        <time>2012-03-28T07:36:21Z</time>
      </trkpt>
      <trkpt lat="43.55197" lon="5.60816">
        <ele>422.7</ele>
        <time>2012-03-28T07:36:30Z</time>
      </trkpt>
      <trkpt lat="43.55197" lon="5.60818">
        <ele>423.2</ele>
        <time>2012-03-28T07:36:31Z</time>
      </trkpt>
      <trkpt lat="43.55194" lon="5.6084">
        <ele>431.7</ele>
        <time>2012-03-28T07:36:58Z</time>
      </trkpt>
      <trkpt lat="43.55198" lon="5.60851">
        <ele>434.5</ele>
        <time>2012-03-28T07:37:08Z</time>
      </trkpt>
      <trkpt lat="43.55197" lon="5.60863">
        <ele>433.1</ele>
        <time>2012-03-28T07:37:24Z</time>
      </trkpt>
      <trkpt lat="43.55189" lon="5.60868">
        <ele>430.2</ele>
        <time>2012-03-28T07:37:51Z</time>
      </trkpt>
      <trkpt lat="43.55188" lon="5.60868">
        <ele>429.7</ele>
        <time>2012-03-28T07:37:52Z</time>
      </trkpt>
      <trkpt lat="43.5518" lon="5.60888">
        <ele>429.6</ele>
        <time>2012-03-28T07:38:13Z</time>
      </trkpt>
      <trkpt lat="43.55177" lon="5.60899">
        <ele>433.5</ele>
        <time>2012-03-28T07:38:22Z</time>
      </trkpt>
      <trkpt lat="43.55172" lon="5.60909">
        <ele>434.1</ele>
        <time>2012-03-28T07:38:32Z</time>
      </trkpt>
      <trkpt lat="43.55167" lon="5.60919">
        <ele>433.2</ele>
        <time>2012-03-28T07:38:49Z</time>
      </trkpt>
      <trkpt lat="43.55162" lon="5.60928">
        <ele>434.7</ele>
        <time>2012-03-28T07:39:00Z</time>
      </trkpt>
      <trkpt lat="43.55162" lon="5.60929">
        <ele>434.7</ele>
        <time>2012-03-28T07:39:01Z</time>
      </trkpt>
      <trkpt lat="43.55157" lon="5.60951">
        <ele>439.1</ele>
        <time>2012-03-28T07:39:23Z</time>
      </trkpt>
      <trkpt lat="43.5515" lon="5.60957">
        <ele>442.2</ele>
        <time>2012-03-28T07:39:33Z</time>
      </trkpt>
      <trkpt lat="43.55144" lon="5.60964">
        <ele>445</ele>
        <time>2012-03-28T07:39:42Z</time>
      </trkpt>
      <trkpt lat="43.55136" lon="5.60969">
        <ele>446.5</ele>
        <time>2012-03-28T07:39:51Z</time>
      </trkpt>
      <trkpt lat="43.55128" lon="5.60972">
        <ele>446.2</ele>
        <time>2012-03-28T07:40:01Z</time>
      </trkpt>
      <trkpt lat="43.55119" lon="5.60974">
        <ele>447.1</ele>
        <time>2012-03-28T07:40:10Z</time>
      </trkpt>
      <trkpt lat="43.55118" lon="5.60975">
        <ele>447.2</ele>
        <time>2012-03-28T07:40:11Z</time>
      </trkpt>
      <trkpt lat="43.55102" lon="5.60972">
        <ele>435.2</ele>
        <time>2012-03-28T07:40:36Z</time>
      </trkpt>
      <trkpt lat="43.55094" lon="5.60972">
        <ele>435.7</ele>
        <time>2012-03-28T07:40:44Z</time>
      </trkpt>
      <trkpt lat="43.55086" lon="5.60975">
        <ele>438.1</ele>
        <time>2012-03-28T07:40:51Z</time>
      </trkpt>
      <trkpt lat="43.55078" lon="5.60977">
        <ele>440.2</ele>
        <time>2012-03-28T07:41:00Z</time>
      </trkpt>
      <trkpt lat="43.55069" lon="5.60977">
        <ele>439.2</ele>
        <time>2012-03-28T07:41:14Z</time>
      </trkpt>
      <trkpt lat="43.55069" lon="5.60977">
        <ele>438.7</ele>
        <time>2012-03-28T07:41:15Z</time>
      </trkpt>
      <trkpt lat="43.55057" lon="5.60992">
        <ele>441.6</ele>
        <time>2012-03-28T07:41:54Z</time>
      </trkpt>
      <trkpt lat="43.55054" lon="5.61004">
        <ele>442.6</ele>
        <time>2012-03-28T07:42:04Z</time>
      </trkpt>
      <trkpt lat="43.55046" lon="5.61003">
        <ele>437.2</ele>
        <time>2012-03-28T07:42:34Z</time>
      </trkpt>
      <trkpt lat="43.55045" lon="5.61002">
        <ele>440.7</ele>
        <time>2012-03-28T07:42:35Z</time>
      </trkpt>
      <trkpt lat="43.55031" lon="5.61013">
        <ele>445.7</ele>
        <time>2012-03-28T07:42:54Z</time>
      </trkpt>
      <trkpt lat="43.55025" lon="5.61022">
        <ele>447</ele>
        <time>2012-03-28T07:43:09Z</time>
      </trkpt>
      <trkpt lat="43.55016" lon="5.61025">
        <ele>448.7</ele>
        <time>2012-03-28T07:43:28Z</time>
      </trkpt>
      <trkpt lat="43.5501" lon="5.61033">
        <ele>451.2</ele>
        <time>2012-03-28T07:43:46Z</time>
      </trkpt>
      <trkpt lat="43.55009" lon="5.61033">
        <ele>452</ele>
        <time>2012-03-28T07:43:47Z</time>
      </trkpt>
      <trkpt lat="43.54996" lon="5.61045">
        <ele>456.1</ele>
        <time>2012-03-28T07:44:09Z</time>
      </trkpt>
      <trkpt lat="43.54987" lon="5.61049">
        <ele>457.6</ele>
        <time>2012-03-28T07:44:29Z</time>
      </trkpt>
      <trkpt lat="43.5498" lon="5.61044">
        <ele>461</ele>
        <time>2012-03-28T07:44:56Z</time>
      </trkpt>
      <trkpt lat="43.54979" lon="5.61043">
        <ele>461.1</ele>
        <time>2012-03-28T07:44:57Z</time>
      </trkpt>
      <trkpt lat="43.54964" lon="5.61034">
        <ele>459.7</ele>
        <time>2012-03-28T07:45:18Z</time>
      </trkpt>
      <trkpt lat="43.54956" lon="5.61036">
        <ele>458.7</ele>
        <time>2012-03-28T07:45:30Z</time>
      </trkpt>
      <trkpt lat="43.54948" lon="5.61041">
        <ele>458</ele>
        <time>2012-03-28T07:45:42Z</time>
      </trkpt>
      <trkpt lat="43.54939" lon="5.6104">
        <ele>464.7</ele>
        <time>2012-03-28T07:45:56Z</time>
      </trkpt>
      <trkpt lat="43.54931" lon="5.61035">
        <ele>466.5</ele>
        <time>2012-03-28T07:46:08Z</time>
      </trkpt>
      <trkpt lat="43.54931" lon="5.61036">
        <ele>466.2</ele>
        <time>2012-03-28T07:46:09Z</time>
      </trkpt>
      <trkpt lat="43.54916" lon="5.61043">
        <ele>478.1</ele>
        <time>2012-03-28T07:46:25Z</time>
      </trkpt>
      <trkpt lat="43.54907" lon="5.61046">
        <ele>474.7</ele>
        <time>2012-03-28T07:46:42Z</time>
      </trkpt>
      <trkpt lat="43.54899" lon="5.61051">
        <ele>472.7</ele>
        <time>2012-03-28T07:46:59Z</time>
      </trkpt>
      <trkpt lat="43.54891" lon="5.61052">
        <ele>477.1</ele>
        <time>2012-03-28T07:47:18Z</time>
      </trkpt>
      <trkpt lat="43.5489" lon="5.61052">
        <ele>477.2</ele>
        <time>2012-03-28T07:47:19Z</time>
      </trkpt>
      <trkpt lat="43.54875" lon="5.61062">
        <ele>484.7</ele>
        <time>2012-03-28T07:47:39Z</time>
      </trkpt>
      <trkpt lat="43.54868" lon="5.61065">
        <ele>484.2</ele>
        <time>2012-03-28T07:47:49Z</time>
      </trkpt>
      <trkpt lat="43.54859" lon="5.61067">
        <ele>484.6</ele>
        <time>2012-03-28T07:48:00Z</time>
      </trkpt>
      <trkpt lat="43.54851" lon="5.61069">
        <ele>486.1</ele>
        <time>2012-03-28T07:48:12Z</time>
      </trkpt>
      <trkpt lat="43.54843" lon="5.61074">
        <ele>488.7</ele>
        <time>2012-03-28T07:48:22Z</time>
      </trkpt>
      <trkpt lat="43.54842" lon="5.61075">
        <ele>488.7</ele>
        <time>2012-03-28T07:48:23Z</time>
      </trkpt>
      <trkpt lat="43.54828" lon="5.61087">
        <ele>496.5</ele>
        <time>2012-03-28T07:51:15Z</time>
      </trkpt>
      <trkpt lat="43.54828" lon="5.61087">
        <ele>496.7</ele>
        <time>2012-03-28T07:51:16Z</time>
      </trkpt>
      <trkpt lat="43.54816" lon="5.61101">
        <ele>491.2</ele>
        <time>2012-03-28T07:52:11Z</time>
      </trkpt>
      <trkpt lat="43.54815" lon="5.61113">
        <ele>492.7</ele>
        <time>2012-03-28T07:52:23Z</time>
      </trkpt>
      <trkpt lat="43.54815" lon="5.61114">
        <ele>493</ele>
        <time>2012-03-28T07:52:24Z</time>
      </trkpt>
      <trkpt lat="43.54813" lon="5.61138">
        <ele>494.5</ele>
        <time>2012-03-28T07:53:04Z</time>
      </trkpt>
      <trkpt lat="43.54811" lon="5.6115">
        <ele>494.7</ele>
        <time>2012-03-28T07:53:15Z</time>
      </trkpt>
      <trkpt lat="43.54808" lon="5.61161">
        <ele>494.2</ele>
        <time>2012-03-28T07:53:33Z</time>
      </trkpt>
      <trkpt lat="43.54807" lon="5.61162">
        <ele>494.2</ele>
        <time>2012-03-28T07:53:34Z</time>
      </trkpt>
      <trkpt lat="43.54801" lon="5.61183">
        <ele>492.7</ele>
        <time>2012-03-28T07:53:54Z</time>
      </trkpt>
      <trkpt lat="43.54798" lon="5.61194">
        <ele>491.7</ele>
        <time>2012-03-28T07:54:03Z</time>
      </trkpt>
      <trkpt lat="43.54792" lon="5.61203">
        <ele>491.5</ele>
        <time>2012-03-28T07:54:12Z</time>
      </trkpt>
      <trkpt lat="43.54786" lon="5.61211">
        <ele>490.7</ele>
        <time>2012-03-28T07:54:21Z</time>
      </trkpt>
      <trkpt lat="43.5478" lon="5.6122">
        <ele>490.2</ele>
        <time>2012-03-28T07:54:30Z</time>
      </trkpt>
      <trkpt lat="43.54775" lon="5.6123">
        <ele>489.2</ele>
        <time>2012-03-28T07:54:38Z</time>
      </trkpt>
      <trkpt lat="43.54774" lon="5.61231">
        <ele>489.2</ele>
        <time>2012-03-28T07:54:39Z</time>
      </trkpt>
      <trkpt lat="43.54764" lon="5.61248">
        <ele>487.7</ele>
        <time>2012-03-28T07:54:56Z</time>
      </trkpt>
      <trkpt lat="43.5476" lon="5.61258">
        <ele>487.7</ele>
        <time>2012-03-28T07:55:04Z</time>
      </trkpt>
      <trkpt lat="43.54757" lon="5.6127">
        <ele>487.7</ele>
        <time>2012-03-28T07:55:20Z</time>
      </trkpt>
      <trkpt lat="43.54758" lon="5.61257">
        <ele>480.2</ele>
        <time>2012-03-28T07:55:57Z</time>
      </trkpt>
      <trkpt lat="43.54758" lon="5.61257">
        <ele>480</ele>
        <time>2012-03-28T07:55:58Z</time>
      </trkpt>
      <trkpt lat="43.5476" lon="5.61234">
        <ele>476.2</ele>
        <time>2012-03-28T07:56:26Z</time>
      </trkpt>
      <trkpt lat="43.54753" lon="5.61226">
        <ele>476.1</ele>
        <time>2012-03-28T07:56:42Z</time>
      </trkpt>
      <trkpt lat="43.54747" lon="5.61234">
        <ele>477</ele>
        <time>2012-03-28T07:56:51Z</time>
      </trkpt>
      <trkpt lat="43.54742" lon="5.61244">
        <ele>475.7</ele>
        <time>2012-03-28T07:57:00Z</time>
      </trkpt>
      <trkpt lat="43.54741" lon="5.61245">
        <ele>475.6</ele>
        <time>2012-03-28T07:57:01Z</time>
      </trkpt>
      <trkpt lat="43.54734" lon="5.61264">
        <ele>473.7</ele>
        <time>2012-03-28T07:57:18Z</time>
      </trkpt>
      <trkpt lat="43.54734" lon="5.61276">
        <ele>472</ele>
        <time>2012-03-28T07:57:28Z</time>
      </trkpt>
      <trkpt lat="43.54734" lon="5.61288">
        <ele>469.7</ele>
        <time>2012-03-28T07:57:39Z</time>
      </trkpt>
      <trkpt lat="43.54733" lon="5.613">
        <ele>468.2</ele>
        <time>2012-03-28T07:57:51Z</time>
      </trkpt>
      <trkpt lat="43.54733" lon="5.61312">
        <ele>464.2</ele>
        <time>2012-03-28T07:58:01Z</time>
      </trkpt>
      <trkpt lat="43.54731" lon="5.61323">
        <ele>463.2</ele>
        <time>2012-03-28T07:58:09Z</time>
      </trkpt>
      <trkpt lat="43.54731" lon="5.61325">
        <ele>463.7</ele>
        <time>2012-03-28T07:58:10Z</time>
      </trkpt>
      <trkpt lat="43.54725" lon="5.61343">
        <ele>463.2</ele>
        <time>2012-03-28T07:58:25Z</time>
      </trkpt>
      <trkpt lat="43.54718" lon="5.61351">
        <ele>461.6</ele>
        <time>2012-03-28T07:58:36Z</time>
      </trkpt>
      <trkpt lat="43.5471" lon="5.61355">
        <ele>462.5</ele>
        <time>2012-03-28T07:58:45Z</time>
      </trkpt>
      <trkpt lat="43.54702" lon="5.61356">
        <ele>465.2</ele>
        <time>2012-03-28T07:58:56Z</time>
      </trkpt>
      <trkpt lat="43.54694" lon="5.61358">
        <ele>467.6</ele>
        <time>2012-03-28T07:59:04Z</time>
      </trkpt>
      <trkpt lat="43.54686" lon="5.61364">
        <ele>467</ele>
        <time>2012-03-28T07:59:11Z</time>
      </trkpt>
      <trkpt lat="43.54685" lon="5.61364">
        <ele>467.1</ele>
        <time>2012-03-28T07:59:12Z</time>
      </trkpt>
      <trkpt lat="43.54673" lon="5.61379">
        <ele>468.7</ele>
        <time>2012-03-28T07:59:35Z</time>
      </trkpt>
      <trkpt lat="43.54665" lon="5.61386">
        <ele>467.2</ele>
        <time>2012-03-28T07:59:47Z</time>
      </trkpt>
      <trkpt lat="43.54657" lon="5.61386">
        <ele>469</ele>
        <time>2012-03-28T07:59:57Z</time>
      </trkpt>
      <trkpt lat="43.5465" lon="5.61378">
        <ele>468</ele>
        <time>2012-03-28T08:00:08Z</time>
      </trkpt>
      <trkpt lat="43.54642" lon="5.61379">
        <ele>469.2</ele>
        <time>2012-03-28T08:00:21Z</time>
      </trkpt>
      <trkpt lat="43.54641" lon="5.61379">
        <ele>469.7</ele>
        <time>2012-03-28T08:00:22Z</time>
      </trkpt>
      <trkpt lat="43.54625" lon="5.61374">
        <ele>468.7</ele>
        <time>2012-03-28T08:00:46Z</time>
      </trkpt>
      <trkpt lat="43.54617" lon="5.61377">
        <ele>470.1</ele>
        <time>2012-03-28T08:00:54Z</time>
      </trkpt>
      <trkpt lat="43.54608" lon="5.61378">
        <ele>475.7</ele>
        <time>2012-03-28T08:01:03Z</time>
      </trkpt>
      <trkpt lat="43.546" lon="5.61379">
        <ele>484</ele>
        <time>2012-03-28T08:01:13Z</time>
      </trkpt>
      <trkpt lat="43.54591" lon="5.6138">
        <ele>485.6</ele>
        <time>2012-03-28T08:01:22Z</time>
      </trkpt>
      <trkpt lat="43.54583" lon="5.61378">
        <ele>484.6</ele>
        <time>2012-03-28T08:01:30Z</time>
      </trkpt>
      <trkpt lat="43.54582" lon="5.61378">
        <ele>484.6</ele>
        <time>2012-03-28T08:01:31Z</time>
      </trkpt>
      <trkpt lat="43.54566" lon="5.6138">
        <ele>488.2</ele>
        <time>2012-03-28T08:01:48Z</time>
      </trkpt>
      <trkpt lat="43.54558" lon="5.61383">
        <ele>489.7</ele>
        <time>2012-03-28T08:01:57Z</time>
      </trkpt>
      <trkpt lat="43.5455" lon="5.61385">
        <ele>489.2</ele>
        <time>2012-03-28T08:02:04Z</time>
      </trkpt>
      <trkpt lat="43.54542" lon="5.61387">
        <ele>486.7</ele>
        <time>2012-03-28T08:02:11Z</time>
      </trkpt>
      <trkpt lat="43.54533" lon="5.61388">
        <ele>484.7</ele>
        <time>2012-03-28T08:02:23Z</time>
      </trkpt>
      <trkpt lat="43.54527" lon="5.61397">
        <ele>484.6</ele>
        <time>2012-03-28T08:02:33Z</time>
      </trkpt>
      <trkpt lat="43.54526" lon="5.61398">
        <ele>484.7</ele>
        <time>2012-03-28T08:02:34Z</time>
      </trkpt>
      <trkpt lat="43.54515" lon="5.61414">
        <ele>483</ele>
        <time>2012-03-28T08:02:53Z</time>
      </trkpt>
      <trkpt lat="43.54511" lon="5.61424">
        <ele>483</ele>
        <time>2012-03-28T08:03:02Z</time>
      </trkpt>
      <trkpt lat="43.54505" lon="5.61431">
        <ele>485.5</ele>
        <time>2012-03-28T08:03:09Z</time>
      </trkpt>
      <trkpt lat="43.54497" lon="5.61436">
        <ele>490.2</ele>
        <time>2012-03-28T08:03:18Z</time>
      </trkpt>
      <trkpt lat="43.54489" lon="5.61433">
        <ele>485.7</ele>
        <time>2012-03-28T08:03:28Z</time>
      </trkpt>
      <trkpt lat="43.54481" lon="5.61437">
        <ele>486.7</ele>
        <time>2012-03-28T08:03:37Z</time>
      </trkpt>
      <trkpt lat="43.5448" lon="5.61437">
        <ele>486.5</ele>
        <time>2012-03-28T08:03:38Z</time>
      </trkpt>
      <trkpt lat="43.54465" lon="5.61446">
        <ele>485.7</ele>
        <time>2012-03-28T08:04:04Z</time>
      </trkpt>
      <trkpt lat="43.5446" lon="5.61456">
        <ele>491.2</ele>
        <time>2012-03-28T08:04:17Z</time>
      </trkpt>
      <trkpt lat="43.54459" lon="5.61468">
        <ele>491.5</ele>
        <time>2012-03-28T08:04:28Z</time>
      </trkpt>
      <trkpt lat="43.54465" lon="5.61477">
        <ele>493.2</ele>
        <time>2012-03-28T08:04:40Z</time>
      </trkpt>
      <trkpt lat="43.54465" lon="5.61478">
        <ele>492.2</ele>
        <time>2012-03-28T08:04:41Z</time>
      </trkpt>
      <trkpt lat="43.54466" lon="5.615">
        <ele>495.2</ele>
        <time>2012-03-28T08:05:00Z</time>
      </trkpt>
      <trkpt lat="43.54463" lon="5.6151">
        <ele>492.7</ele>
        <time>2012-03-28T08:05:21Z</time>
      </trkpt>
      <trkpt lat="43.54461" lon="5.61521">
        <ele>493.7</ele>
        <time>2012-03-28T08:05:31Z</time>
      </trkpt>
      <trkpt lat="43.54459" lon="5.61533">
        <ele>496.2</ele>
        <time>2012-03-28T08:05:41Z</time>
      </trkpt>
      <trkpt lat="43.54456" lon="5.61544">
        <ele>500.1</ele>
        <time>2012-03-28T08:05:49Z</time>
      </trkpt>
      <trkpt lat="43.54456" lon="5.61545">
        <ele>500.6</ele>
        <time>2012-03-28T08:05:50Z</time>
      </trkpt>
      <trkpt lat="43.54446" lon="5.61562">
        <ele>508.7</ele>
        <time>2012-03-28T08:06:10Z</time>
      </trkpt>
      <trkpt lat="43.54438" lon="5.61568">
        <ele>505.2</ele>
        <time>2012-03-28T08:06:33Z</time>
      </trkpt>
      <trkpt lat="43.54431" lon="5.61575">
        <ele>511.7</ele>
        <time>2012-03-28T08:06:54Z</time>
      </trkpt>
      <trkpt lat="43.54431" lon="5.61575">
        <ele>512.2</ele>
        <time>2012-03-28T08:06:55Z</time>
      </trkpt>
      <trkpt lat="43.54423" lon="5.61595">
        <ele>516.9</ele>
        <time>2012-03-28T08:07:33Z</time>
      </trkpt>
      <trkpt lat="43.54416" lon="5.61603">
        <ele>516</ele>
        <time>2012-03-28T08:07:56Z</time>
      </trkpt>
      <trkpt lat="43.54415" lon="5.61603">
        <ele>515.2</ele>
        <time>2012-03-28T08:07:57Z</time>
      </trkpt>
      <trkpt lat="43.54413" lon="5.61626">
        <ele>521.7</ele>
        <time>2012-03-28T08:08:20Z</time>
      </trkpt>
      <trkpt lat="43.54407" lon="5.61634">
        <ele>520.7</ele>
        <time>2012-03-28T08:08:38Z</time>
      </trkpt>
      <trkpt lat="43.54401" lon="5.61641">
        <ele>522.7</ele>
        <time>2012-03-28T08:08:55Z</time>
      </trkpt>
      <trkpt lat="43.54403" lon="5.61653">
        <ele>525</ele>
        <time>2012-03-28T08:09:11Z</time>
      </trkpt>
      <trkpt lat="43.54403" lon="5.61654">
        <ele>526.2</ele>
        <time>2012-03-28T08:09:12Z</time>
      </trkpt>
      <trkpt lat="43.54397" lon="5.61675">
        <ele>536.5</ele>
        <time>2012-03-28T08:09:40Z</time>
      </trkpt>
      <trkpt lat="43.54399" lon="5.61686">
        <ele>541</ele>
        <time>2012-03-28T08:09:55Z</time>
      </trkpt>
      <trkpt lat="43.54401" lon="5.61697">
        <ele>542.2</ele>
        <time>2012-03-28T08:10:07Z</time>
      </trkpt>
      <trkpt lat="43.54402" lon="5.61709">
        <ele>541.5</ele>
        <time>2012-03-28T08:10:15Z</time>
      </trkpt>
      <trkpt lat="43.54402" lon="5.6171">
        <ele>540.9</ele>
        <time>2012-03-28T08:10:16Z</time>
      </trkpt>
      <trkpt lat="43.54412" lon="5.61728">
        <ele>533.2</ele>
        <time>2012-03-28T08:10:34Z</time>
      </trkpt>
      <trkpt lat="43.54411" lon="5.61739">
        <ele>533.9</ele>
        <time>2012-03-28T08:10:43Z</time>
      </trkpt>
      <trkpt lat="43.54413" lon="5.61751">
        <ele>535.7</ele>
        <time>2012-03-28T08:10:51Z</time>
      </trkpt>
      <trkpt lat="43.54415" lon="5.61762">
        <ele>531.2</ele>
        <time>2012-03-28T08:11:05Z</time>
      </trkpt>
      <trkpt lat="43.54414" lon="5.61774">
        <ele>530.7</ele>
        <time>2012-03-28T08:11:13Z</time>
      </trkpt>
      <trkpt lat="43.54413" lon="5.61785">
        <ele>529.2</ele>
        <time>2012-03-28T08:11:23Z</time>
      </trkpt>
      <trkpt lat="43.54413" lon="5.61786">
        <ele>529.2</ele>
        <time>2012-03-28T08:11:24Z</time>
      </trkpt>
      <trkpt lat="43.54417" lon="5.61807">
        <ele>528</ele>
        <time>2012-03-28T08:11:52Z</time>
      </trkpt>
      <trkpt lat="43.54415" lon="5.61819">
        <ele>524.2</ele>
        <time>2012-03-28T08:12:04Z</time>
      </trkpt>
      <trkpt lat="43.54413" lon="5.61831">
        <ele>525.5</ele>
        <time>2012-03-28T08:12:27Z</time>
      </trkpt>
      <trkpt lat="43.54414" lon="5.61831">
        <ele>525.7</ele>
        <time>2012-03-28T08:12:28Z</time>
      </trkpt>
      <trkpt lat="43.54417" lon="5.61854">
        <ele>516.4</ele>
        <time>2012-03-28T08:13:12Z</time>
      </trkpt>
      <trkpt lat="43.54417" lon="5.61865">
        <ele>518</ele>
        <time>2012-03-28T08:13:27Z</time>
      </trkpt>
      <trkpt lat="43.54413" lon="5.61876">
        <ele>518.5</ele>
        <time>2012-03-28T08:13:36Z</time>
      </trkpt>
      <trkpt lat="43.54413" lon="5.61876">
        <ele>518.5</ele>
        <time>2012-03-28T08:13:37Z</time>
      </trkpt>
      <trkpt lat="43.54406" lon="5.61894">
        <ele>519.9</ele>
        <time>2012-03-28T08:14:11Z</time>
      </trkpt>
      <trkpt lat="43.54411" lon="5.61904">
        <ele>526.7</ele>
        <time>2012-03-28T08:14:43Z</time>
      </trkpt>
      <trkpt lat="43.54411" lon="5.61905">
        <ele>526.7</ele>
        <time>2012-03-28T08:14:44Z</time>
      </trkpt>
      <trkpt lat="43.5442" lon="5.61924">
        <ele>526.4</ele>
        <time>2012-03-28T08:15:12Z</time>
      </trkpt>
      <trkpt lat="43.54414" lon="5.61932">
        <ele>530</ele>
        <time>2012-03-28T08:15:41Z</time>
      </trkpt>
      <trkpt lat="43.54412" lon="5.61944">
        <ele>535.4</ele>
        <time>2012-03-28T08:15:55Z</time>
      </trkpt>
      <trkpt lat="43.54412" lon="5.61946">
        <ele>535.7</ele>
        <time>2012-03-28T08:15:56Z</time>
      </trkpt>
      <trkpt lat="43.54418" lon="5.61965">
        <ele>529.2</ele>
        <time>2012-03-28T08:16:18Z</time>
      </trkpt>
      <trkpt lat="43.54414" lon="5.61975">
        <ele>534.9</ele>
        <time>2012-03-28T08:16:35Z</time>
      </trkpt>
      <trkpt lat="43.54413" lon="5.61986">
        <ele>541.2</ele>
        <time>2012-03-28T08:16:44Z</time>
      </trkpt>
      <trkpt lat="43.54418" lon="5.61996">
        <ele>538.5</ele>
        <time>2012-03-28T08:16:56Z</time>
      </trkpt>
      <trkpt lat="43.54418" lon="5.61996">
        <ele>538.2</ele>
        <time>2012-03-28T08:16:57Z</time>
      </trkpt>
      <trkpt lat="43.54422" lon="5.62019">
        <ele>540.2</ele>
        <time>2012-03-28T08:17:20Z</time>
      </trkpt>
      <trkpt lat="43.54425" lon="5.6203">
        <ele>545</ele>
        <time>2012-03-28T08:17:32Z</time>
      </trkpt>
      <trkpt lat="43.5442" lon="5.6204">
        <ele>545</ele>
        <time>2012-03-28T08:17:53Z</time>
      </trkpt>
      <trkpt lat="43.5442" lon="5.62052">
        <ele>545.4</ele>
        <time>2012-03-28T08:18:06Z</time>
      </trkpt>
      <trkpt lat="43.54419" lon="5.62053">
        <ele>545</ele>
        <time>2012-03-28T08:18:07Z</time>
      </trkpt>
      <trkpt lat="43.54416" lon="5.62076">
        <ele>545.5</ele>
        <time>2012-03-28T08:18:42Z</time>
      </trkpt>
      <trkpt lat="43.5441" lon="5.62084">
        <ele>551.9</ele>
        <time>2012-03-28T08:18:59Z</time>
      </trkpt>
      <trkpt lat="43.54402" lon="5.62085">
        <ele>554.7</ele>
        <time>2012-03-28T08:19:24Z</time>
      </trkpt>
      <trkpt lat="43.54401" lon="5.62085">
        <ele>555.2</ele>
        <time>2012-03-28T08:19:25Z</time>
      </trkpt>
      <trkpt lat="43.54385" lon="5.62079">
        <ele>565.2</ele>
        <time>2012-03-28T08:20:25Z</time>
      </trkpt>
      <trkpt lat="43.54381" lon="5.62089">
        <ele>564.9</ele>
        <time>2012-03-28T08:20:39Z</time>
      </trkpt>
      <trkpt lat="43.54381" lon="5.6209">
        <ele>564.7</ele>
        <time>2012-03-28T08:20:40Z</time>
      </trkpt>
      <trkpt lat="43.54372" lon="5.62111">
        <ele>571.2</ele>
        <time>2012-03-28T08:21:33Z</time>
      </trkpt>
      <trkpt lat="43.54369" lon="5.62122">
        <ele>572.2</ele>
        <time>2012-03-28T08:22:17Z</time>
      </trkpt>
      <trkpt lat="43.5437" lon="5.62123">
        <ele>573.2</ele>
        <time>2012-03-28T08:22:18Z</time>
      </trkpt>
      <trkpt lat="43.54363" lon="5.62144">
        <ele>583.7</ele>
        <time>2012-03-28T08:23:25Z</time>
      </trkpt>
      <trkpt lat="43.54363" lon="5.62144">
        <ele>583.7</ele>
        <time>2012-03-28T08:23:26Z</time>
      </trkpt>
      <trkpt lat="43.54348" lon="5.62151">
        <ele>589</ele>
        <time>2012-03-28T08:24:29Z</time>
      </trkpt>
      <trkpt lat="43.54348" lon="5.62151">
        <ele>588.9</ele>
        <time>2012-03-28T08:24:30Z</time>
      </trkpt>
      <trkpt lat="43.5434" lon="5.62132">
        <ele>598.7</ele>
        <time>2012-03-28T08:25:18Z</time>
      </trkpt>
      <trkpt lat="43.54333" lon="5.62124">
        <ele>601.9</ele>
        <time>2012-03-28T08:25:51Z</time>
      </trkpt>
      <trkpt lat="43.54333" lon="5.62124">
        <ele>602.5</ele>
        <time>2012-03-28T08:25:52Z</time>
      </trkpt>
      <trkpt lat="43.54319" lon="5.62134">
        <ele>606</ele>
        <time>2012-03-28T08:26:51Z</time>
      </trkpt>
      <trkpt lat="43.54315" lon="5.62144">
        <ele>605.7</ele>
        <time>2012-03-28T08:27:08Z</time>
      </trkpt>
      <trkpt lat="43.54315" lon="5.62145">
        <ele>605.7</ele>
        <time>2012-03-28T08:27:09Z</time>
      </trkpt>
      <trkpt lat="43.54303" lon="5.62162">
        <ele>610.9</ele>
        <time>2012-03-28T08:27:51Z</time>
      </trkpt>
      <trkpt lat="43.54294" lon="5.62159">
        <ele>614.7</ele>
        <time>2012-03-28T08:28:22Z</time>
      </trkpt>
      <trkpt lat="43.54294" lon="5.62159">
        <ele>615</ele>
        <time>2012-03-28T08:28:23Z</time>
      </trkpt>
      <trkpt lat="43.54286" lon="5.62153">
        <ele>628.2</ele>
        <time>2012-03-28T08:29:57Z</time>
      </trkpt>
      <trkpt lat="43.54281" lon="5.62143">
        <ele>633.5</ele>
        <time>2012-03-28T08:31:41Z</time>
      </trkpt>
      <trkpt lat="43.54272" lon="5.62141">
        <ele>631.7</ele>
        <time>2012-03-28T08:37:06Z</time>
      </trkpt>
      <trkpt lat="43.54258" lon="5.62141">
        <ele>646.2</ele>
        <time>2012-03-28T08:38:24Z</time>
      </trkpt>
      <trkpt lat="43.54257" lon="5.62141">
        <ele>646.2</ele>
        <time>2012-03-28T08:38:25Z</time>
      </trkpt>
      <trkpt lat="43.54241" lon="5.62144">
        <ele>649</ele>
        <time>2012-03-28T08:39:13Z</time>
      </trkpt>
      <trkpt lat="43.54233" lon="5.62139">
        <ele>658.4</ele>
        <time>2012-03-28T08:39:53Z</time>
      </trkpt>
      <trkpt lat="43.54233" lon="5.62139">
        <ele>658.7</ele>
        <time>2012-03-28T08:39:54Z</time>
      </trkpt>
      <trkpt lat="43.54216" lon="5.62135">
        <ele>665.4</ele>
        <time>2012-03-28T08:41:43Z</time>
      </trkpt>
      <trkpt lat="43.54216" lon="5.62135">
        <ele>665</ele>
        <time>2012-03-28T08:41:44Z</time>
      </trkpt>
      <trkpt lat="43.542" lon="5.62144">
        <ele>668.9</ele>
        <time>2012-03-28T08:42:49Z</time>
      </trkpt>
      <trkpt lat="43.542" lon="5.62144">
        <ele>669</ele>
        <time>2012-03-28T08:42:50Z</time>
      </trkpt>
      <trkpt lat="43.54185" lon="5.62151">
        <ele>678.2</ele>
        <time>2012-03-28T08:51:49Z</time>
      </trkpt>
      <trkpt lat="43.54184" lon="5.62151">
        <ele>678.4</ele>
        <time>2012-03-28T08:51:50Z</time>
      </trkpt>
      <trkpt lat="43.54169" lon="5.62158">
        <ele>681</ele>
        <time>2012-03-28T08:52:36Z</time>
      </trkpt>
      <trkpt lat="43.5416" lon="5.62159">
        <ele>683.4</ele>
        <time>2012-03-28T08:52:57Z</time>
      </trkpt>
      <trkpt lat="43.5416" lon="5.62158">
        <ele>683.7</ele>
        <time>2012-03-28T08:52:58Z</time>
      </trkpt>
      <trkpt lat="43.54152" lon="5.62139">
        <ele>693</ele>
        <time>2012-03-28T08:53:37Z</time>
      </trkpt>
      <trkpt lat="43.5415" lon="5.62127">
        <ele>694.2</ele>
        <time>2012-03-28T08:53:51Z</time>
      </trkpt>
      <trkpt lat="43.54147" lon="5.62117">
        <ele>694.9</ele>
        <time>2012-03-28T08:54:04Z</time>
      </trkpt>
      <trkpt lat="43.54147" lon="5.62116">
        <ele>695.4</ele>
        <time>2012-03-28T08:54:05Z</time>
      </trkpt>
      <trkpt lat="43.54138" lon="5.62096">
        <ele>699</ele>
        <time>2012-03-28T08:54:39Z</time>
      </trkpt>
      <trkpt lat="43.5413" lon="5.62101">
        <ele>702</ele>
        <time>2012-03-28T08:55:06Z</time>
      </trkpt>
      <trkpt lat="43.54129" lon="5.62101">
        <ele>702.2</ele>
        <time>2012-03-28T08:55:07Z</time>
      </trkpt>
      <trkpt lat="43.54119" lon="5.6212">
        <ele>706.2</ele>
        <time>2012-03-28T08:56:23Z</time>
      </trkpt>
      <trkpt lat="43.54119" lon="5.62121">
        <ele>706.2</ele>
        <time>2012-03-28T08:56:24Z</time>
      </trkpt>
      <trkpt lat="43.54105" lon="5.62134">
        <ele>718.9</ele>
        <time>2012-03-28T08:57:29Z</time>
      </trkpt>
      <trkpt lat="43.54104" lon="5.62134">
        <ele>719.2</ele>
        <time>2012-03-28T08:57:30Z</time>
      </trkpt>
      <trkpt lat="43.54091" lon="5.62121">
        <ele>723</ele>
        <time>2012-03-28T08:58:02Z</time>
      </trkpt>
      <trkpt lat="43.54084" lon="5.62113">
        <ele>730.7</ele>
        <time>2012-03-28T08:58:24Z</time>
      </trkpt>
      <trkpt lat="43.5408" lon="5.62123">
        <ele>730.4</ele>
        <time>2012-03-28T08:59:03Z</time>
      </trkpt>
      <trkpt lat="43.5408" lon="5.62124">
        <ele>730.5</ele>
        <time>2012-03-28T08:59:04Z</time>
      </trkpt>
      <trkpt lat="43.54069" lon="5.62143">
        <ele>734.7</ele>
        <time>2012-03-28T08:59:51Z</time>
      </trkpt>
      <trkpt lat="43.54066" lon="5.62154">
        <ele>737.2</ele>
        <time>2012-03-28T09:00:16Z</time>
      </trkpt>
      <trkpt lat="43.54066" lon="5.62155">
        <ele>737</ele>
        <time>2012-03-28T09:00:17Z</time>
      </trkpt>
      <trkpt lat="43.54057" lon="5.62172">
        <ele>737</ele>
        <time>2012-03-28T09:00:45Z</time>
      </trkpt>
      <trkpt lat="43.54053" lon="5.62182">
        <ele>745</ele>
        <time>2012-03-28T09:01:13Z</time>
      </trkpt>
      <trkpt lat="43.54046" lon="5.62189">
        <ele>747</ele>
        <time>2012-03-28T09:04:43Z</time>
      </trkpt>
      <trkpt lat="43.54045" lon="5.62189">
        <ele>747.2</ele>
        <time>2012-03-28T09:04:44Z</time>
      </trkpt>
      <trkpt lat="43.54036" lon="5.62189">
        <ele>752.7</ele>
        <time>2012-03-28T09:05:47Z</time>
      </trkpt>
      <trkpt lat="43.5402" lon="5.62195">
        <ele>753.7</ele>
        <time>2012-03-28T09:06:16Z</time>
      </trkpt>
      <trkpt lat="43.54011" lon="5.62192">
        <ele>757.4</ele>
        <time>2012-03-28T09:06:30Z</time>
      </trkpt>
      <trkpt lat="43.54004" lon="5.622">
        <ele>760.2</ele>
        <time>2012-03-28T09:06:46Z</time>
      </trkpt>
      <trkpt lat="43.53997" lon="5.62205">
        <ele>766.2</ele>
        <time>2012-03-28T09:07:08Z</time>
      </trkpt>
      <trkpt lat="43.53996" lon="5.62206">
        <ele>766.4</ele>
        <time>2012-03-28T09:07:09Z</time>
      </trkpt>
      <trkpt lat="43.53985" lon="5.6222">
        <ele>770.5</ele>
        <time>2012-03-28T09:07:46Z</time>
      </trkpt>
      <trkpt lat="43.53976" lon="5.62222">
        <ele>773.2</ele>
        <time>2012-03-28T09:08:03Z</time>
      </trkpt>
      <trkpt lat="43.53968" lon="5.62223">
        <ele>778.4</ele>
        <time>2012-03-28T09:15:21Z</time>
      </trkpt>
      <trkpt lat="43.53967" lon="5.62223">
        <ele>778.2</ele>
        <time>2012-03-28T09:15:22Z</time>
      </trkpt>
      <trkpt lat="43.53956" lon="5.62241">
        <ele>773.5</ele>
        <time>2012-03-28T09:16:06Z</time>
      </trkpt>
      <trkpt lat="43.5395" lon="5.62251">
        <ele>772.2</ele>
        <time>2012-03-28T09:16:20Z</time>
      </trkpt>
      <trkpt lat="43.53944" lon="5.6226">
        <ele>771.5</ele>
        <time>2012-03-28T09:16:38Z</time>
      </trkpt>
      <trkpt lat="43.53944" lon="5.62261">
        <ele>771.7</ele>
        <time>2012-03-28T09:16:39Z</time>
      </trkpt>
      <trkpt lat="43.53927" lon="5.62266">
        <ele>772</ele>
        <time>2012-03-28T09:17:02Z</time>
      </trkpt>
      <trkpt lat="43.53919" lon="5.62271">
        <ele>771.9</ele>
        <time>2012-03-28T09:17:12Z</time>
      </trkpt>
      <trkpt lat="43.53911" lon="5.62275">
        <ele>770.9</ele>
        <time>2012-03-28T09:17:20Z</time>
      </trkpt>
      <trkpt lat="43.53904" lon="5.6228">
        <ele>770.4</ele>
        <time>2012-03-28T09:17:29Z</time>
      </trkpt>
      <trkpt lat="43.53897" lon="5.62287">
        <ele>770.7</ele>
        <time>2012-03-28T09:17:44Z</time>
      </trkpt>
      <trkpt lat="43.53896" lon="5.62288">
        <ele>770.7</ele>
        <time>2012-03-28T09:17:45Z</time>
      </trkpt>
      <trkpt lat="43.53884" lon="5.623">
        <ele>774.2</ele>
        <time>2012-03-28T09:18:15Z</time>
      </trkpt>
      <trkpt lat="43.53877" lon="5.62306">
        <ele>779.9</ele>
        <time>2012-03-28T09:19:43Z</time>
      </trkpt>
      <trkpt lat="43.53876" lon="5.62306">
        <ele>779.9</ele>
        <time>2012-03-28T09:19:44Z</time>
      </trkpt>
      <trkpt lat="43.53862" lon="5.62318">
        <ele>784.2</ele>
        <time>2012-03-28T09:20:15Z</time>
      </trkpt>
      <trkpt lat="43.53853" lon="5.62322">
        <ele>785.7</ele>
        <time>2012-03-28T09:20:32Z</time>
      </trkpt>
      <trkpt lat="43.53845" lon="5.62327">
        <ele>789.5</ele>
        <time>2012-03-28T09:20:54Z</time>
      </trkpt>
      <trkpt lat="43.53845" lon="5.62327">
        <ele>789.7</ele>
        <time>2012-03-28T09:20:55Z</time>
      </trkpt>
      <trkpt lat="43.53832" lon="5.62335">
        <ele>799.2</ele>
        <time>2012-03-28T09:21:39Z</time>
      </trkpt>
      <trkpt lat="43.53825" lon="5.62343">
        <ele>803.2</ele>
        <time>2012-03-28T09:22:00Z</time>
      </trkpt>
      <trkpt lat="43.53825" lon="5.62343">
        <ele>803.2</ele>
        <time>2012-03-28T09:22:01Z</time>
      </trkpt>
      <trkpt lat="43.53812" lon="5.62354">
        <ele>812</ele>
        <time>2012-03-28T09:22:47Z</time>
      </trkpt>
      <trkpt lat="43.53805" lon="5.62361">
        <ele>816.5</ele>
        <time>2012-03-28T09:23:07Z</time>
      </trkpt>
      <trkpt lat="43.53804" lon="5.62361">
        <ele>816.7</ele>
        <time>2012-03-28T09:23:08Z</time>
      </trkpt>
      <trkpt lat="43.53788" lon="5.62364">
        <ele>825.2</ele>
        <time>2012-03-28T09:23:58Z</time>
      </trkpt>
      <trkpt lat="43.53779" lon="5.62365">
        <ele>827</ele>
        <time>2012-03-28T09:24:15Z</time>
      </trkpt>
      <trkpt lat="43.53778" lon="5.62365">
        <ele>827.2</ele>
        <time>2012-03-28T09:24:16Z</time>
      </trkpt>
      <trkpt lat="43.53762" lon="5.62369">
        <ele>836.4</ele>
        <time>2012-03-28T09:25:15Z</time>
      </trkpt>
      <trkpt lat="43.53757" lon="5.62379">
        <ele>841.5</ele>
        <time>2012-03-28T09:25:58Z</time>
      </trkpt>
      <trkpt lat="43.53757" lon="5.62379">
        <ele>841.9</ele>
        <time>2012-03-28T09:25:59Z</time>
      </trkpt>
      <trkpt lat="43.53742" lon="5.6239">
        <ele>855.4</ele>
        <time>2012-03-28T09:26:49Z</time>
      </trkpt>
      <trkpt lat="43.53733" lon="5.62392">
        <ele>854.4</ele>
        <time>2012-03-28T09:27:14Z</time>
      </trkpt>
      <trkpt lat="43.53733" lon="5.62392">
        <ele>854.7</ele>
        <time>2012-03-28T09:27:15Z</time>
      </trkpt>
      <trkpt lat="43.53716" lon="5.6239">
        <ele>866.5</ele>
        <time>2012-03-28T09:28:39Z</time>
      </trkpt>
      <trkpt lat="43.53715" lon="5.6239">
        <ele>866.5</ele>
        <time>2012-03-28T09:28:40Z</time>
      </trkpt>
      <trkpt lat="43.53699" lon="5.62384">
        <ele>873.4</ele>
        <time>2012-03-28T09:29:59Z</time>
      </trkpt>
      <trkpt lat="43.53699" lon="5.62384">
        <ele>873.4</ele>
        <time>2012-03-28T09:30:00Z</time>
      </trkpt>
      <trkpt lat="43.53681" lon="5.62382">
        <ele>879.7</ele>
        <time>2012-03-28T09:31:19Z</time>
      </trkpt>
      <trkpt lat="43.53681" lon="5.62382">
        <ele>879.7</ele>
        <time>2012-03-28T09:31:20Z</time>
      </trkpt>
      <trkpt lat="43.53672" lon="5.62381">
        <ele>888</ele>
        <time>2012-03-28T09:32:32Z</time>
      </trkpt>
      <trkpt lat="43.53656" lon="5.62378">
        <ele>896</ele>
        <time>2012-03-28T09:34:05Z</time>
      </trkpt>
      <trkpt lat="43.53656" lon="5.62378">
        <ele>896.2</ele>
        <time>2012-03-28T09:34:06Z</time>
      </trkpt>
      <trkpt lat="43.53639" lon="5.62378">
        <ele>899</ele>
        <time>2012-03-28T09:35:02Z</time>
      </trkpt>
      <trkpt lat="43.5363" lon="5.6238">
        <ele>905</ele>
        <time>2012-03-28T09:35:32Z</time>
      </trkpt>
      <trkpt lat="43.5363" lon="5.6238">
        <ele>905.4</ele>
        <time>2012-03-28T09:35:33Z</time>
      </trkpt>
      <trkpt lat="43.53613" lon="5.62382">
        <ele>913.4</ele>
        <time>2012-03-28T09:36:36Z</time>
      </trkpt>
      <trkpt lat="43.53613" lon="5.62382">
        <ele>913.4</ele>
        <time>2012-03-28T09:36:37Z</time>
      </trkpt>
      <trkpt lat="43.53597" lon="5.62386">
        <ele>924</ele>
        <time>2012-03-28T09:37:32Z</time>
      </trkpt>
      <trkpt lat="43.53593" lon="5.62397">
        <ele>927</ele>
        <time>2012-03-28T09:37:45Z</time>
      </trkpt>
      <trkpt lat="43.53593" lon="5.62398">
        <ele>927.2</ele>
        <time>2012-03-28T09:37:46Z</time>
      </trkpt>
      <trkpt lat="43.53584" lon="5.62393">
        <ele>936.7</ele>
        <time>2012-03-28T09:38:58Z</time>
      </trkpt>
      <trkpt lat="43.53573" lon="5.6239">
        <ele>935.2</ele>
        <time>2012-03-28T09:40:16Z</time>
      </trkpt>
      <trkpt lat="43.53573" lon="5.62389">
        <ele>935</ele>
        <time>2012-03-28T09:40:17Z</time>
      </trkpt>
      <trkpt lat="43.53567" lon="5.62368">
        <ele>933</ele>
        <time>2012-03-28T09:40:53Z</time>
      </trkpt>
      <trkpt lat="43.53565" lon="5.62357">
        <ele>934.2</ele>
        <time>2012-03-28T09:41:06Z</time>
      </trkpt>
      <trkpt lat="43.5356" lon="5.62346">
        <ele>936.7</ele>
        <time>2012-03-28T09:41:18Z</time>
      </trkpt>
      <trkpt lat="43.5356" lon="5.62345">
        <ele>937.4</ele>
        <time>2012-03-28T09:41:19Z</time>
      </trkpt>
      <trkpt lat="43.53555" lon="5.62323">
        <ele>944.4</ele>
        <time>2012-03-28T09:41:46Z</time>
      </trkpt>
      <trkpt lat="43.53559" lon="5.62335">
        <ele>943.7</ele>
        <time>2012-03-28T09:49:34Z</time>
      </trkpt>
      <trkpt lat="43.53559" lon="5.62335">
        <ele>943.7</ele>
        <time>2012-03-28T09:49:35Z</time>
      </trkpt>
      <trkpt lat="43.53559" lon="5.62322">
        <ele>948</ele>
        <time>2012-03-28T09:52:05Z</time>
      </trkpt>
      <trkpt lat="43.5356" lon="5.62299">
        <ele>949.2</ele>
        <time>2012-03-28T09:52:27Z</time>
      </trkpt>
      <trkpt lat="43.5356" lon="5.62288">
        <ele>949.2</ele>
        <time>2012-03-28T09:52:35Z</time>
      </trkpt>
      <trkpt lat="43.53559" lon="5.62277">
        <ele>950.5</ele>
        <time>2012-03-28T09:52:43Z</time>
      </trkpt>
      <trkpt lat="43.53556" lon="5.62266">
        <ele>952.4</ele>
        <time>2012-03-28T09:52:52Z</time>
      </trkpt>
      <trkpt lat="43.53553" lon="5.62255">
        <ele>954.4</ele>
        <time>2012-03-28T09:53:01Z</time>
      </trkpt>
      <trkpt lat="43.53545" lon="5.62249">
        <ele>956.5</ele>
        <time>2012-03-28T09:53:12Z</time>
      </trkpt>
      <trkpt lat="43.53545" lon="5.62249">
        <ele>956.7</ele>
        <time>2012-03-28T09:53:13Z</time>
      </trkpt>
      <trkpt lat="43.53537" lon="5.6223">
        <ele>962.5</ele>
        <time>2012-03-28T09:53:40Z</time>
      </trkpt>
      <trkpt lat="43.53532" lon="5.62221">
        <ele>963.5</ele>
        <time>2012-03-28T09:53:54Z</time>
      </trkpt>
      <trkpt lat="43.53529" lon="5.62209">
        <ele>965.9</ele>
        <time>2012-03-28T09:54:06Z</time>
      </trkpt>
      <trkpt lat="43.53525" lon="5.62199">
        <ele>968.4</ele>
        <time>2012-03-28T09:54:19Z</time>
      </trkpt>
      <trkpt lat="43.53524" lon="5.62198">
        <ele>968.5</ele>
        <time>2012-03-28T09:54:20Z</time>
      </trkpt>
      <trkpt lat="43.53512" lon="5.62182">
        <ele>971.5</ele>
        <time>2012-03-28T09:54:48Z</time>
      </trkpt>
      <trkpt lat="43.53506" lon="5.62175">
        <ele>973.4</ele>
        <time>2012-03-28T09:55:01Z</time>
      </trkpt>
      <trkpt lat="43.535" lon="5.62167">
        <ele>975.7</ele>
        <time>2012-03-28T09:55:13Z</time>
      </trkpt>
      <trkpt lat="43.53493" lon="5.62159">
        <ele>978.5</ele>
        <time>2012-03-28T09:55:27Z</time>
      </trkpt>
      <trkpt lat="43.53492" lon="5.62159">
        <ele>978.7</ele>
        <time>2012-03-28T09:55:28Z</time>
      </trkpt>
      <trkpt lat="43.53477" lon="5.62152">
        <ele>981</ele>
        <time>2012-03-28T09:55:55Z</time>
      </trkpt>
      <trkpt lat="43.5347" lon="5.62146">
        <ele>983.2</ele>
        <time>2012-03-28T09:56:08Z</time>
      </trkpt>
      <trkpt lat="43.53462" lon="5.6214">
        <ele>985.7</ele>
        <time>2012-03-28T09:56:20Z</time>
      </trkpt>
      <trkpt lat="43.53455" lon="5.62133">
        <ele>988.9</ele>
        <time>2012-03-28T09:56:36Z</time>
      </trkpt>
      <trkpt lat="43.53454" lon="5.62133">
        <ele>989</ele>
        <time>2012-03-28T09:56:37Z</time>
      </trkpt>
      <trkpt lat="43.53443" lon="5.62117">
        <ele>992.9</ele>
        <time>2012-03-28T09:57:04Z</time>
      </trkpt>
      <trkpt lat="43.53438" lon="5.62107">
        <ele>994.5</ele>
        <time>2012-03-28T09:57:16Z</time>
      </trkpt>
      <trkpt lat="43.53434" lon="5.62097">
        <ele>994.4</ele>
        <time>2012-03-28T09:57:56Z</time>
      </trkpt>
      <trkpt lat="43.53434" lon="5.62095">
        <ele>994.2</ele>
        <time>2012-03-28T09:57:57Z</time>
      </trkpt>
      <trkpt lat="43.53424" lon="5.62078">
        <ele>994.7</ele>
        <time>2012-03-28T09:58:15Z</time>
      </trkpt>
      <trkpt lat="43.53418" lon="5.62071">
        <ele>996.5</ele>
        <time>2012-03-28T09:58:24Z</time>
      </trkpt>
      <trkpt lat="43.53413" lon="5.62062">
        <ele>997.5</ele>
        <time>2012-03-28T09:58:33Z</time>
      </trkpt>
      <trkpt lat="43.53408" lon="5.62052">
        <ele>998.4</ele>
        <time>2012-03-28T09:58:42Z</time>
      </trkpt>
      <trkpt lat="43.53404" lon="5.62042">
        <ele>999.4</ele>
        <time>2012-03-28T09:58:50Z</time>
      </trkpt>
      <trkpt lat="43.53399" lon="5.62032">
        <ele>1001</ele>
        <time>2012-03-28T09:58:58Z</time>
      </trkpt>
      <trkpt lat="43.53399" lon="5.62032">
        <ele>1001</ele>
        <time>2012-03-28T09:58:59Z</time>
      </trkpt>
      <trkpt lat="43.53387" lon="5.62016">
        <ele>1004.7</ele>
        <time>2012-03-28T09:59:31Z</time>
      </trkpt>
      <trkpt lat="43.53395" lon="5.62011">
        <ele>1001</ele>
        <time>2012-03-28T09:59:57Z</time>
      </trkpt>
      <trkpt lat="43.53397" lon="5.62">
        <ele>1001.7</ele>
        <time>2012-03-28T10:00:10Z</time>
      </trkpt>
      <trkpt lat="43.53396" lon="5.61998">
        <ele>1002</ele>
        <time>2012-03-28T10:00:11Z</time>
      </trkpt>
      <trkpt lat="43.53391" lon="5.61978">
        <ele>1004.7</ele>
        <time>2012-03-28T10:00:32Z</time>
      </trkpt>
      <trkpt lat="43.53391" lon="5.61966">
        <ele>1005.2</ele>
        <time>2012-03-28T10:00:40Z</time>
      </trkpt>
      <trkpt lat="43.53389" lon="5.61954">
        <ele>1006</ele>
        <time>2012-03-28T10:00:48Z</time>
      </trkpt>
      <trkpt lat="43.53389" lon="5.61943">
        <ele>1006.5</ele>
        <time>2012-03-28T10:00:56Z</time>
      </trkpt>
      <trkpt lat="43.53391" lon="5.61931">
        <ele>1006.2</ele>
        <time>2012-03-28T10:01:05Z</time>
      </trkpt>
      <trkpt lat="43.53392" lon="5.61919">
        <ele>1006</ele>
        <time>2012-03-28T10:01:14Z</time>
      </trkpt>
      <trkpt lat="43.53392" lon="5.61918">
        <ele>1006</ele>
        <time>2012-03-28T10:01:15Z</time>
      </trkpt>
      <trkpt lat="43.53383" lon="5.61901">
        <ele>1005.5</ele>
        <time>2012-03-28T10:01:32Z</time>
      </trkpt>
      <trkpt lat="43.53379" lon="5.61889">
        <ele>1005.4</ele>
        <time>2012-03-28T10:01:41Z</time>
      </trkpt>
      <trkpt lat="43.53379" lon="5.61878">
        <ele>1005</ele>
        <time>2012-03-28T10:01:49Z</time>
      </trkpt>
      <trkpt lat="43.53378" lon="5.61866">
        <ele>1005.5</ele>
        <time>2012-03-28T10:02:04Z</time>
      </trkpt>
      <trkpt lat="43.53386" lon="5.6186">
        <ele>1002.7</ele>
        <time>2012-03-28T10:02:50Z</time>
      </trkpt>
      <trkpt lat="43.53387" lon="5.61861">
        <ele>1002.7</ele>
        <time>2012-03-28T10:02:51Z</time>
      </trkpt>
      <trkpt lat="43.53394" lon="5.61841">
        <ele>1006</ele>
        <time>2012-03-28T10:05:36Z</time>
      </trkpt>
      <trkpt lat="43.53394" lon="5.61841">
        <ele>1006.5</ele>
        <time>2012-03-28T10:05:37Z</time>
      </trkpt>
      <trkpt lat="43.53403" lon="5.61846">
        <ele>997.7</ele>
        <time>2012-03-28T10:18:21Z</time>
      </trkpt>
      <trkpt lat="43.53394" lon="5.61849">
        <ele>988.7</ele>
        <time>2012-03-28T10:34:18Z</time>
      </trkpt>
      <trkpt lat="43.53384" lon="5.61852">
        <ele>996.7</ele>
        <time>2012-03-28T11:08:26Z</time>
      </trkpt>
      <trkpt lat="43.53368" lon="5.61855">
        <ele>1004.7</ele>
        <time>2012-03-28T11:10:58Z</time>
      </trkpt>
      <trkpt lat="43.53367" lon="5.61854">
        <ele>1005.2</ele>
        <time>2012-03-28T11:10:59Z</time>
      </trkpt>
      <trkpt lat="43.53351" lon="5.61847">
        <ele>1009.7</ele>
        <time>2012-03-28T11:11:17Z</time>
      </trkpt>
      <trkpt lat="43.53344" lon="5.6184">
        <ele>1010</ele>
        <time>2012-03-28T11:11:29Z</time>
      </trkpt>
      <trkpt lat="43.53338" lon="5.61832">
        <ele>1009.4</ele>
        <time>2012-03-28T11:12:16Z</time>
      </trkpt>
      <trkpt lat="43.53337" lon="5.61831">
        <ele>1009.2</ele>
        <time>2012-03-28T11:12:17Z</time>
      </trkpt>
      <trkpt lat="43.5332" lon="5.61834">
        <ele>1010.5</ele>
        <time>2012-03-28T11:12:51Z</time>
      </trkpt>
      <trkpt lat="43.53312" lon="5.61836">
        <ele>1011.9</ele>
        <time>2012-03-28T11:13:00Z</time>
      </trkpt>
      <trkpt lat="43.53303" lon="5.61837">
        <ele>1012</ele>
        <time>2012-03-28T11:13:11Z</time>
      </trkpt>
      <trkpt lat="43.53295" lon="5.61834">
        <ele>1011.9</ele>
        <time>2012-03-28T11:13:20Z</time>
      </trkpt>
      <trkpt lat="43.53294" lon="5.61834">
        <ele>1012</ele>
        <time>2012-03-28T11:13:21Z</time>
      </trkpt>
      <trkpt lat="43.53278" lon="5.61832">
        <ele>1011.5</ele>
        <time>2012-03-28T11:13:37Z</time>
      </trkpt>
      <trkpt lat="43.53272" lon="5.61823">
        <ele>1010.4</ele>
        <time>2012-03-28T11:14:48Z</time>
      </trkpt>
      <trkpt lat="43.53272" lon="5.61822">
        <ele>1010.4</ele>
        <time>2012-03-28T11:14:49Z</time>
      </trkpt>
      <trkpt lat="43.53263" lon="5.61814">
        <ele>1006.7</ele>
        <time>2012-03-28T11:15:33Z</time>
      </trkpt>
      <trkpt lat="43.53259" lon="5.61825">
        <ele>1005.9</ele>
        <time>2012-03-28T11:15:46Z</time>
      </trkpt>
      <trkpt lat="43.53255" lon="5.61835">
        <ele>1006.7</ele>
        <time>2012-03-28T11:15:56Z</time>
      </trkpt>
      <trkpt lat="43.53254" lon="5.61836">
        <ele>1006.9</ele>
        <time>2012-03-28T11:15:57Z</time>
      </trkpt>
      <trkpt lat="43.53245" lon="5.61854">
        <ele>1008.2</ele>
        <time>2012-03-28T11:16:14Z</time>
      </trkpt>
      <trkpt lat="43.5324" lon="5.61862">
        <ele>1008.2</ele>
        <time>2012-03-28T11:16:22Z</time>
      </trkpt>
      <trkpt lat="43.53231" lon="5.6186">
        <ele>1008.7</ele>
        <time>2012-03-28T11:16:33Z</time>
      </trkpt>
      <trkpt lat="43.53227" lon="5.61849">
        <ele>1008.2</ele>
        <time>2012-03-28T11:16:43Z</time>
      </trkpt>
      <trkpt lat="43.53221" lon="5.61841">
        <ele>1009</ele>
        <time>2012-03-28T11:16:52Z</time>
      </trkpt>
      <trkpt lat="43.53215" lon="5.61832">
        <ele>1011.2</ele>
        <time>2012-03-28T11:17:04Z</time>
      </trkpt>
      <trkpt lat="43.53214" lon="5.61832">
        <ele>1011.2</ele>
        <time>2012-03-28T11:17:05Z</time>
      </trkpt>
      <trkpt lat="43.53205" lon="5.61813">
        <ele>1012</ele>
        <time>2012-03-28T11:17:26Z</time>
      </trkpt>
      <trkpt lat="43.53202" lon="5.61801">
        <ele>1012.4</ele>
        <time>2012-03-28T11:17:38Z</time>
      </trkpt>
      <trkpt lat="43.53197" lon="5.61791">
        <ele>1013.5</ele>
        <time>2012-03-28T11:17:50Z</time>
      </trkpt>
      <trkpt lat="43.53195" lon="5.61779">
        <ele>1015.2</ele>
        <time>2012-03-28T11:18:01Z</time>
      </trkpt>
      <trkpt lat="43.53194" lon="5.61767">
        <ele>1015.4</ele>
        <time>2012-03-28T11:18:12Z</time>
      </trkpt>
      <trkpt lat="43.53194" lon="5.61766">
        <ele>1015.2</ele>
        <time>2012-03-28T11:18:13Z</time>
      </trkpt>
      <trkpt lat="43.53191" lon="5.61745">
        <ele>1016.5</ele>
        <time>2012-03-28T11:18:59Z</time>
      </trkpt>
      <trkpt lat="43.53188" lon="5.61734">
        <ele>1017</ele>
        <time>2012-03-28T11:19:10Z</time>
      </trkpt>
      <trkpt lat="43.53186" lon="5.61722">
        <ele>1016.7</ele>
        <time>2012-03-28T11:19:19Z</time>
      </trkpt>
      <trkpt lat="43.53186" lon="5.61721">
        <ele>1016.9</ele>
        <time>2012-03-28T11:19:20Z</time>
      </trkpt>
      <trkpt lat="43.53182" lon="5.61698">
        <ele>1017.2</ele>
        <time>2012-03-28T11:19:40Z</time>
      </trkpt>
      <trkpt lat="43.53182" lon="5.61686">
        <ele>1018.2</ele>
        <time>2012-03-28T11:19:49Z</time>
      </trkpt>
      <trkpt lat="43.5318" lon="5.61674">
        <ele>1018.4</ele>
        <time>2012-03-28T11:19:58Z</time>
      </trkpt>
      <trkpt lat="43.53179" lon="5.61663">
        <ele>1014</ele>
        <time>2012-03-28T11:20:56Z</time>
      </trkpt>
      <trkpt lat="43.53179" lon="5.61661">
        <ele>1014.2</ele>
        <time>2012-03-28T11:20:57Z</time>
      </trkpt>
      <trkpt lat="43.5318" lon="5.61639">
        <ele>1015.2</ele>
        <time>2012-03-28T11:21:19Z</time>
      </trkpt>
      <trkpt lat="43.53179" lon="5.61628">
        <ele>1015.9</ele>
        <time>2012-03-28T11:21:28Z</time>
      </trkpt>
      <trkpt lat="43.53179" lon="5.61616">
        <ele>1016.2</ele>
        <time>2012-03-28T11:21:37Z</time>
      </trkpt>
      <trkpt lat="43.53181" lon="5.61605">
        <ele>1015.5</ele>
        <time>2012-03-28T11:21:46Z</time>
      </trkpt>
      <trkpt lat="43.5318" lon="5.61592">
        <ele>1014.7</ele>
        <time>2012-03-28T11:21:58Z</time>
      </trkpt>
      <trkpt lat="43.53181" lon="5.61591">
        <ele>1014.7</ele>
        <time>2012-03-28T11:21:59Z</time>
      </trkpt>
      <trkpt lat="43.53178" lon="5.61569">
        <ele>1014.7</ele>
        <time>2012-03-28T11:22:19Z</time>
      </trkpt>
      <trkpt lat="43.53178" lon="5.61556">
        <ele>1014.2</ele>
        <time>2012-03-28T11:22:29Z</time>
      </trkpt>
      <trkpt lat="43.5318" lon="5.61545">
        <ele>1013</ele>
        <time>2012-03-28T11:22:40Z</time>
      </trkpt>
      <trkpt lat="43.53183" lon="5.61534">
        <ele>1012.4</ele>
        <time>2012-03-28T11:22:51Z</time>
      </trkpt>
      <trkpt lat="43.53184" lon="5.61522">
        <ele>1012.4</ele>
        <time>2012-03-28T11:23:01Z</time>
      </trkpt>
      <trkpt lat="43.53184" lon="5.6152">
        <ele>1012.4</ele>
        <time>2012-03-28T11:23:02Z</time>
      </trkpt>
      <trkpt lat="43.53182" lon="5.61499">
        <ele>1013.4</ele>
        <time>2012-03-28T11:23:20Z</time>
      </trkpt>
      <trkpt lat="43.53177" lon="5.6149">
        <ele>1014.2</ele>
        <time>2012-03-28T11:23:29Z</time>
      </trkpt>
      <trkpt lat="43.53173" lon="5.6148">
        <ele>1014.7</ele>
        <time>2012-03-28T11:23:37Z</time>
      </trkpt>
      <trkpt lat="43.5317" lon="5.6147">
        <ele>1015</ele>
        <time>2012-03-28T11:23:45Z</time>
      </trkpt>
      <trkpt lat="43.53167" lon="5.61459">
        <ele>1015.4</ele>
        <time>2012-03-28T11:23:53Z</time>
      </trkpt>
      <trkpt lat="43.53163" lon="5.61449">
        <ele>1015.4</ele>
        <time>2012-03-28T11:24:02Z</time>
      </trkpt>
      <trkpt lat="43.53163" lon="5.61448">
        <ele>1015.2</ele>
        <time>2012-03-28T11:24:03Z</time>
      </trkpt>
      <trkpt lat="43.53156" lon="5.61428">
        <ele>1015.5</ele>
        <time>2012-03-28T11:24:20Z</time>
      </trkpt>
      <trkpt lat="43.53153" lon="5.61417">
        <ele>1015.9</ele>
        <time>2012-03-28T11:24:29Z</time>
      </trkpt>
      <trkpt lat="43.53148" lon="5.61407">
        <ele>1015.5</ele>
        <time>2012-03-28T11:24:38Z</time>
      </trkpt>
      <trkpt lat="43.53143" lon="5.61398">
        <ele>1014.7</ele>
        <time>2012-03-28T11:24:47Z</time>
      </trkpt>
      <trkpt lat="43.53141" lon="5.61387">
        <ele>1014.5</ele>
        <time>2012-03-28T11:24:56Z</time>
      </trkpt>
      <trkpt lat="43.53139" lon="5.61376">
        <ele>1013.7</ele>
        <time>2012-03-28T11:25:05Z</time>
      </trkpt>
      <trkpt lat="43.53138" lon="5.61375">
        <ele>1013.5</ele>
        <time>2012-03-28T11:25:06Z</time>
      </trkpt>
      <trkpt lat="43.53136" lon="5.61354">
        <ele>1011.7</ele>
        <time>2012-03-28T11:25:22Z</time>
      </trkpt>
      <trkpt lat="43.53135" lon="5.61343">
        <ele>1011.7</ele>
        <time>2012-03-28T11:25:30Z</time>
      </trkpt>
      <trkpt lat="43.53134" lon="5.61332">
        <ele>1012.2</ele>
        <time>2012-03-28T11:25:38Z</time>
      </trkpt>
      <trkpt lat="43.53134" lon="5.6132">
        <ele>1011.7</ele>
        <time>2012-03-28T11:25:47Z</time>
      </trkpt>
      <trkpt lat="43.53135" lon="5.61308">
        <ele>1010.7</ele>
        <time>2012-03-28T11:25:58Z</time>
      </trkpt>
      <trkpt lat="43.53136" lon="5.61297">
        <ele>1009.5</ele>
        <time>2012-03-28T11:26:08Z</time>
      </trkpt>
      <trkpt lat="43.53136" lon="5.61296">
        <ele>1009.5</ele>
        <time>2012-03-28T11:26:09Z</time>
      </trkpt>
      <trkpt lat="43.53131" lon="5.61274">
        <ele>1010.5</ele>
        <time>2012-03-28T11:26:32Z</time>
      </trkpt>
      <trkpt lat="43.53128" lon="5.61263">
        <ele>1011</ele>
        <time>2012-03-28T11:26:42Z</time>
      </trkpt>
      <trkpt lat="43.53124" lon="5.61253">
        <ele>1011.4</ele>
        <time>2012-03-28T11:26:52Z</time>
      </trkpt>
      <trkpt lat="43.5312" lon="5.61243">
        <ele>1011</ele>
        <time>2012-03-28T11:27:03Z</time>
      </trkpt>
      <trkpt lat="43.53119" lon="5.61231">
        <ele>1011.5</ele>
        <time>2012-03-28T11:27:13Z</time>
      </trkpt>
      <trkpt lat="43.53119" lon="5.6123">
        <ele>1011.5</ele>
        <time>2012-03-28T11:27:14Z</time>
      </trkpt>
      <trkpt lat="43.53126" lon="5.61209">
        <ele>1008.2</ele>
        <time>2012-03-28T11:27:38Z</time>
      </trkpt>
      <trkpt lat="43.53133" lon="5.61203">
        <ele>1006.9</ele>
        <time>2012-03-28T11:27:50Z</time>
      </trkpt>
      <trkpt lat="43.53133" lon="5.61192">
        <ele>1008.2</ele>
        <time>2012-03-28T11:28:02Z</time>
      </trkpt>
      <trkpt lat="43.53132" lon="5.6118">
        <ele>1008.7</ele>
        <time>2012-03-28T11:28:12Z</time>
      </trkpt>
      <trkpt lat="43.53132" lon="5.61168">
        <ele>1010</ele>
        <time>2012-03-28T11:28:23Z</time>
      </trkpt>
      <trkpt lat="43.53132" lon="5.61167">
        <ele>1010</ele>
        <time>2012-03-28T11:28:24Z</time>
      </trkpt>
      <trkpt lat="43.53128" lon="5.61146">
        <ele>1008</ele>
        <time>2012-03-28T11:28:48Z</time>
      </trkpt>
      <trkpt lat="43.5313" lon="5.61134">
        <ele>1007.5</ele>
        <time>2012-03-28T11:29:00Z</time>
      </trkpt>
      <trkpt lat="43.53132" lon="5.61122">
        <ele>1008.7</ele>
        <time>2012-03-28T11:29:10Z</time>
      </trkpt>
      <trkpt lat="43.53137" lon="5.61112">
        <ele>1016.7</ele>
        <time>2012-03-28T11:30:15Z</time>
      </trkpt>
      <trkpt lat="43.53137" lon="5.61112">
        <ele>1016.7</ele>
        <time>2012-03-28T11:30:16Z</time>
      </trkpt>
      <trkpt lat="43.53133" lon="5.611">
        <ele>1017.5</ele>
        <time>2012-03-28T11:31:40Z</time>
      </trkpt>
      <trkpt lat="43.5314" lon="5.61079">
        <ele>1017</ele>
        <time>2012-03-28T11:31:58Z</time>
      </trkpt>
      <trkpt lat="43.53144" lon="5.61069">
        <ele>1016.2</ele>
        <time>2012-03-28T11:32:06Z</time>
      </trkpt>
      <trkpt lat="43.53144" lon="5.61058">
        <ele>1016.9</ele>
        <time>2012-03-28T11:32:16Z</time>
      </trkpt>
      <trkpt lat="43.53147" lon="5.61046">
        <ele>1016.2</ele>
        <time>2012-03-28T11:32:26Z</time>
      </trkpt>
      <trkpt lat="43.53148" lon="5.61035">
        <ele>1015.5</ele>
        <time>2012-03-28T11:32:35Z</time>
      </trkpt>
      <trkpt lat="43.53148" lon="5.61022">
        <ele>1015</ele>
        <time>2012-03-28T11:32:44Z</time>
      </trkpt>
      <trkpt lat="43.53148" lon="5.61021">
        <ele>1015</ele>
        <time>2012-03-28T11:32:45Z</time>
      </trkpt>
      <trkpt lat="43.53148" lon="5.60999">
        <ele>1014.9</ele>
        <time>2012-03-28T11:33:02Z</time>
      </trkpt>
      <trkpt lat="43.53146" lon="5.60987">
        <ele>1014.7</ele>
        <time>2012-03-28T11:33:11Z</time>
      </trkpt>
      <trkpt lat="43.53144" lon="5.60976">
        <ele>1014.9</ele>
        <time>2012-03-28T11:33:21Z</time>
      </trkpt>
      <trkpt lat="43.53142" lon="5.60965">
        <ele>1014.5</ele>
        <time>2012-03-28T11:33:29Z</time>
      </trkpt>
      <trkpt lat="43.53138" lon="5.60955">
        <ele>1014.5</ele>
        <time>2012-03-28T11:33:38Z</time>
      </trkpt>
      <trkpt lat="43.53137" lon="5.60944">
        <ele>1013.7</ele>
        <time>2012-03-28T11:33:46Z</time>
      </trkpt>
      <trkpt lat="43.53137" lon="5.60942">
        <ele>1013.5</ele>
        <time>2012-03-28T11:33:47Z</time>
      </trkpt>
      <trkpt lat="43.53131" lon="5.60921">
        <ele>1012.7</ele>
        <time>2012-03-28T11:34:06Z</time>
      </trkpt>
      <trkpt lat="43.53128" lon="5.6091">
        <ele>1013.4</ele>
        <time>2012-03-28T11:34:17Z</time>
      </trkpt>
      <trkpt lat="43.53125" lon="5.60898">
        <ele>1012.4</ele>
        <time>2012-03-28T11:34:28Z</time>
      </trkpt>
      <trkpt lat="43.53125" lon="5.60886">
        <ele>1011.4</ele>
        <time>2012-03-28T11:34:38Z</time>
      </trkpt>
      <trkpt lat="43.53121" lon="5.60876">
        <ele>1011</ele>
        <time>2012-03-28T11:34:49Z</time>
      </trkpt>
      <trkpt lat="43.53121" lon="5.60875">
        <ele>1011</ele>
        <time>2012-03-28T11:34:50Z</time>
      </trkpt>
      <trkpt lat="43.53112" lon="5.60856">
        <ele>1011.5</ele>
        <time>2012-03-28T11:35:10Z</time>
      </trkpt>
      <trkpt lat="43.53108" lon="5.60845">
        <ele>1012</ele>
        <time>2012-03-28T11:35:20Z</time>
      </trkpt>
      <trkpt lat="43.53104" lon="5.60834">
        <ele>1011.7</ele>
        <time>2012-03-28T11:35:29Z</time>
      </trkpt>
      <trkpt lat="43.531" lon="5.60824">
        <ele>1011.2</ele>
        <time>2012-03-28T11:35:38Z</time>
      </trkpt>
      <trkpt lat="43.53096" lon="5.60815">
        <ele>1011.4</ele>
        <time>2012-03-28T11:35:47Z</time>
      </trkpt>
      <trkpt lat="43.53092" lon="5.60804">
        <ele>1010.7</ele>
        <time>2012-03-28T11:35:56Z</time>
      </trkpt>
      <trkpt lat="43.53092" lon="5.60802">
        <ele>1010.5</ele>
        <time>2012-03-28T11:35:57Z</time>
      </trkpt>
      <trkpt lat="43.5309" lon="5.60781">
        <ele>1009</ele>
        <time>2012-03-28T11:36:12Z</time>
      </trkpt>
      <trkpt lat="43.53089" lon="5.6077">
        <ele>1007.2</ele>
        <time>2012-03-28T11:36:35Z</time>
      </trkpt>
      <trkpt lat="43.53092" lon="5.60759">
        <ele>1006.5</ele>
        <time>2012-03-28T11:36:44Z</time>
      </trkpt>
      <trkpt lat="43.53091" lon="5.60747">
        <ele>1005.9</ele>
        <time>2012-03-28T11:36:53Z</time>
      </trkpt>
      <trkpt lat="43.53088" lon="5.60736">
        <ele>1006</ele>
        <time>2012-03-28T11:37:03Z</time>
      </trkpt>
      <trkpt lat="43.53088" lon="5.60735">
        <ele>1006</ele>
        <time>2012-03-28T11:37:04Z</time>
      </trkpt>
      <trkpt lat="43.53079" lon="5.60716">
        <ele>1004.9</ele>
        <time>2012-03-28T11:37:22Z</time>
      </trkpt>
      <trkpt lat="43.5308" lon="5.60703">
        <ele>1003.9</ele>
        <time>2012-03-28T11:37:31Z</time>
      </trkpt>
      <trkpt lat="43.53075" lon="5.60694">
        <ele>1003.5</ele>
        <time>2012-03-28T11:37:43Z</time>
      </trkpt>
      <trkpt lat="43.53071" lon="5.60684">
        <ele>1002</ele>
        <time>2012-03-28T11:37:53Z</time>
      </trkpt>
      <trkpt lat="43.53068" lon="5.60673">
        <ele>1001.2</ele>
        <time>2012-03-28T11:38:04Z</time>
      </trkpt>
      <trkpt lat="43.53069" lon="5.60661">
        <ele>1000.9</ele>
        <time>2012-03-28T11:38:14Z</time>
      </trkpt>
      <trkpt lat="43.53069" lon="5.6066">
        <ele>1000.7</ele>
        <time>2012-03-28T11:38:15Z</time>
      </trkpt>
      <trkpt lat="43.53061" lon="5.60641">
        <ele>999.5</ele>
        <time>2012-03-28T11:38:31Z</time>
      </trkpt>
      <trkpt lat="43.53056" lon="5.60632">
        <ele>1000.5</ele>
        <time>2012-03-28T11:38:40Z</time>
      </trkpt>
      <trkpt lat="43.53053" lon="5.60621">
        <ele>1001.2</ele>
        <time>2012-03-28T11:38:50Z</time>
      </trkpt>
      <trkpt lat="43.53053" lon="5.6061">
        <ele>1002.2</ele>
        <time>2012-03-28T11:39:00Z</time>
      </trkpt>
      <trkpt lat="43.53054" lon="5.60597">
        <ele>1002.2</ele>
        <time>2012-03-28T11:39:09Z</time>
      </trkpt>
      <trkpt lat="43.53052" lon="5.60585">
        <ele>1003.5</ele>
        <time>2012-03-28T11:39:19Z</time>
      </trkpt>
      <trkpt lat="43.53052" lon="5.60584">
        <ele>1003.5</ele>
        <time>2012-03-28T11:39:20Z</time>
      </trkpt>
      <trkpt lat="43.53046" lon="5.60563">
        <ele>1005.2</ele>
        <time>2012-03-28T11:39:38Z</time>
      </trkpt>
      <trkpt lat="43.53045" lon="5.60551">
        <ele>1005</ele>
        <time>2012-03-28T11:39:47Z</time>
      </trkpt>
      <trkpt lat="43.53043" lon="5.6054">
        <ele>1004.5</ele>
        <time>2012-03-28T11:39:55Z</time>
      </trkpt>
      <trkpt lat="43.53043" lon="5.60529">
        <ele>1005.2</ele>
        <time>2012-03-28T11:40:03Z</time>
      </trkpt>
      <trkpt lat="43.53044" lon="5.60518">
        <ele>1005.2</ele>
        <time>2012-03-28T11:40:11Z</time>
      </trkpt>
      <trkpt lat="43.53045" lon="5.60505">
        <ele>1005</ele>
        <time>2012-03-28T11:40:19Z</time>
      </trkpt>
      <trkpt lat="43.53046" lon="5.60494">
        <ele>1003.7</ele>
        <time>2012-03-28T11:40:28Z</time>
      </trkpt>
      <trkpt lat="43.53046" lon="5.60492">
        <ele>1003.7</ele>
        <time>2012-03-28T11:40:29Z</time>
      </trkpt>
      <trkpt lat="43.5304" lon="5.60472">
        <ele>1003</ele>
        <time>2012-03-28T11:40:46Z</time>
      </trkpt>
      <trkpt lat="43.53037" lon="5.6046">
        <ele>1001.9</ele>
        <time>2012-03-28T11:40:56Z</time>
      </trkpt>
      <trkpt lat="43.53034" lon="5.60449">
        <ele>1001.5</ele>
        <time>2012-03-28T11:41:06Z</time>
      </trkpt>
      <trkpt lat="43.53033" lon="5.60437">
        <ele>1000.9</ele>
        <time>2012-03-28T11:41:17Z</time>
      </trkpt>
      <trkpt lat="43.53031" lon="5.60427">
        <ele>1000</ele>
        <time>2012-03-28T11:41:25Z</time>
      </trkpt>
      <trkpt lat="43.53032" lon="5.60414">
        <ele>998.7</ele>
        <time>2012-03-28T11:41:34Z</time>
      </trkpt>
      <trkpt lat="43.53032" lon="5.60413">
        <ele>998.5</ele>
        <time>2012-03-28T11:41:35Z</time>
      </trkpt>
      <trkpt lat="43.53032" lon="5.60392">
        <ele>998.7</ele>
        <time>2012-03-28T11:41:54Z</time>
      </trkpt>
      <trkpt lat="43.5303" lon="5.6038">
        <ele>998</ele>
        <time>2012-03-28T11:42:03Z</time>
      </trkpt>
      <trkpt lat="43.53031" lon="5.60368">
        <ele>997.2</ele>
        <time>2012-03-28T11:42:11Z</time>
      </trkpt>
      <trkpt lat="43.53032" lon="5.60357">
        <ele>996.5</ele>
        <time>2012-03-28T11:42:21Z</time>
      </trkpt>
      <trkpt lat="43.53031" lon="5.60345">
        <ele>995.4</ele>
        <time>2012-03-28T11:42:29Z</time>
      </trkpt>
      <trkpt lat="43.53029" lon="5.60334">
        <ele>996.4</ele>
        <time>2012-03-28T11:42:38Z</time>
      </trkpt>
      <trkpt lat="43.53029" lon="5.60332">
        <ele>996.5</ele>
        <time>2012-03-28T11:42:39Z</time>
      </trkpt>
      <trkpt lat="43.53024" lon="5.60311">
        <ele>995.7</ele>
        <time>2012-03-28T11:42:57Z</time>
      </trkpt>
      <trkpt lat="43.53019" lon="5.60302">
        <ele>994.2</ele>
        <time>2012-03-28T11:43:06Z</time>
      </trkpt>
      <trkpt lat="43.53013" lon="5.60293">
        <ele>993.2</ele>
        <time>2012-03-28T11:43:15Z</time>
      </trkpt>
      <trkpt lat="43.53008" lon="5.60284">
        <ele>993.2</ele>
        <time>2012-03-28T11:43:24Z</time>
      </trkpt>
      <trkpt lat="43.53001" lon="5.60276">
        <ele>994</ele>
        <time>2012-03-28T11:43:34Z</time>
      </trkpt>
      <trkpt lat="43.52995" lon="5.60268">
        <ele>994.2</ele>
        <time>2012-03-28T11:43:45Z</time>
      </trkpt>
      <trkpt lat="43.52995" lon="5.60267">
        <ele>994</ele>
        <time>2012-03-28T11:43:46Z</time>
      </trkpt>
      <trkpt lat="43.52994" lon="5.60255">
        <ele>986</ele>
        <time>2012-03-28T11:48:12Z</time>
      </trkpt>
      <trkpt lat="43.53009" lon="5.60244">
        <ele>983.2</ele>
        <time>2012-03-28T11:48:44Z</time>
      </trkpt>
      <trkpt lat="43.53016" lon="5.60236">
        <ele>982.2</ele>
        <time>2012-03-28T11:48:54Z</time>
      </trkpt>
      <trkpt lat="43.53016" lon="5.60224">
        <ele>983</ele>
        <time>2012-03-28T11:49:06Z</time>
      </trkpt>
      <trkpt lat="43.53009" lon="5.60218">
        <ele>982.2</ele>
        <time>2012-03-28T11:49:52Z</time>
      </trkpt>
      <trkpt lat="43.53009" lon="5.60217">
        <ele>981.7</ele>
        <time>2012-03-28T11:49:53Z</time>
      </trkpt>
      <trkpt lat="43.53004" lon="5.60196">
        <ele>981</ele>
        <time>2012-03-28T11:50:10Z</time>
      </trkpt>
      <trkpt lat="43.53" lon="5.60186">
        <ele>980.7</ele>
        <time>2012-03-28T11:50:19Z</time>
      </trkpt>
      <trkpt lat="43.52999" lon="5.60175">
        <ele>980</ele>
        <time>2012-03-28T11:50:28Z</time>
      </trkpt>
      <trkpt lat="43.52995" lon="5.60164">
        <ele>980</ele>
        <time>2012-03-28T11:50:36Z</time>
      </trkpt>
      <trkpt lat="43.52989" lon="5.60155">
        <ele>979</ele>
        <time>2012-03-28T11:50:45Z</time>
      </trkpt>
      <trkpt lat="43.52986" lon="5.60144">
        <ele>977.4</ele>
        <time>2012-03-28T11:50:53Z</time>
      </trkpt>
      <trkpt lat="43.52981" lon="5.60135">
        <ele>976</ele>
        <time>2012-03-28T11:51:01Z</time>
      </trkpt>
      <trkpt lat="43.5298" lon="5.60133">
        <ele>975.9</ele>
        <time>2012-03-28T11:51:02Z</time>
      </trkpt>
      <trkpt lat="43.52971" lon="5.60117">
        <ele>977.2</ele>
        <time>2012-03-28T11:51:18Z</time>
      </trkpt>
      <trkpt lat="43.52965" lon="5.60107">
        <ele>976.7</ele>
        <time>2012-03-28T11:51:27Z</time>
      </trkpt>
      <trkpt lat="43.52968" lon="5.60096">
        <ele>975</ele>
        <time>2012-03-28T11:51:37Z</time>
      </trkpt>
      <trkpt lat="43.52965" lon="5.60086">
        <ele>971.4</ele>
        <time>2012-03-28T11:51:47Z</time>
      </trkpt>
      <trkpt lat="43.52962" lon="5.60075">
        <ele>970.5</ele>
        <time>2012-03-28T11:51:56Z</time>
      </trkpt>
      <trkpt lat="43.52961" lon="5.60063">
        <ele>971.9</ele>
        <time>2012-03-28T11:52:04Z</time>
      </trkpt>
      <trkpt lat="43.52961" lon="5.60062">
        <ele>972.2</ele>
        <time>2012-03-28T11:52:05Z</time>
      </trkpt>
      <trkpt lat="43.52957" lon="5.60041">
        <ele>973.5</ele>
        <time>2012-03-28T11:52:20Z</time>
      </trkpt>
      <trkpt lat="43.52956" lon="5.60029">
        <ele>974.7</ele>
        <time>2012-03-28T11:52:29Z</time>
      </trkpt>
      <trkpt lat="43.5296" lon="5.60018">
        <ele>975.5</ele>
        <time>2012-03-28T11:52:39Z</time>
      </trkpt>
      <trkpt lat="43.52962" lon="5.60007">
        <ele>976.9</ele>
        <time>2012-03-28T11:52:47Z</time>
      </trkpt>
      <trkpt lat="43.52964" lon="5.59995">
        <ele>977.5</ele>
        <time>2012-03-28T11:52:56Z</time>
      </trkpt>
      <trkpt lat="43.52967" lon="5.59984">
        <ele>976.2</ele>
        <time>2012-03-28T11:53:06Z</time>
      </trkpt>
      <trkpt lat="43.52967" lon="5.59983">
        <ele>976.2</ele>
        <time>2012-03-28T11:53:07Z</time>
      </trkpt>
      <trkpt lat="43.52971" lon="5.59962">
        <ele>978</ele>
        <time>2012-03-28T11:53:26Z</time>
      </trkpt>
      <trkpt lat="43.52977" lon="5.59954">
        <ele>976.7</ele>
        <time>2012-03-28T11:53:36Z</time>
      </trkpt>
      <trkpt lat="43.52983" lon="5.59945">
        <ele>976.7</ele>
        <time>2012-03-28T11:53:45Z</time>
      </trkpt>
      <trkpt lat="43.52987" lon="5.59934">
        <ele>977</ele>
        <time>2012-03-28T11:53:56Z</time>
      </trkpt>
      <trkpt lat="43.52992" lon="5.59925">
        <ele>976.5</ele>
        <time>2012-03-28T11:54:03Z</time>
      </trkpt>
      <trkpt lat="43.52995" lon="5.59915">
        <ele>976.7</ele>
        <time>2012-03-28T11:54:11Z</time>
      </trkpt>
      <trkpt lat="43.52996" lon="5.59914">
        <ele>976.2</ele>
        <time>2012-03-28T11:54:12Z</time>
      </trkpt>
      <trkpt lat="43.53003" lon="5.59893">
        <ele>976.7</ele>
        <time>2012-03-28T11:54:28Z</time>
      </trkpt>
      <trkpt lat="43.53003" lon="5.59882">
        <ele>978.5</ele>
        <time>2012-03-28T11:54:38Z</time>
      </trkpt>
      <trkpt lat="43.53008" lon="5.59871">
        <ele>976.7</ele>
        <time>2012-03-28T11:54:47Z</time>
      </trkpt>
      <trkpt lat="43.53009" lon="5.59859">
        <ele>976.5</ele>
        <time>2012-03-28T11:54:57Z</time>
      </trkpt>
      <trkpt lat="43.53012" lon="5.59848">
        <ele>976.5</ele>
        <time>2012-03-28T11:55:06Z</time>
      </trkpt>
      <trkpt lat="43.53014" lon="5.59836">
        <ele>974.4</ele>
        <time>2012-03-28T11:55:19Z</time>
      </trkpt>
      <trkpt lat="43.53015" lon="5.59835">
        <ele>974.4</ele>
        <time>2012-03-28T11:55:20Z</time>
      </trkpt>
      <trkpt lat="43.53016" lon="5.59813">
        <ele>975</ele>
        <time>2012-03-28T11:55:36Z</time>
      </trkpt>
      <trkpt lat="43.53014" lon="5.59802">
        <ele>974.7</ele>
        <time>2012-03-28T11:55:45Z</time>
      </trkpt>
      <trkpt lat="43.53017" lon="5.59791">
        <ele>977.2</ele>
        <time>2012-03-28T11:55:54Z</time>
      </trkpt>
      <trkpt lat="43.53016" lon="5.5978">
        <ele>978.4</ele>
        <time>2012-03-28T11:56:03Z</time>
      </trkpt>
      <trkpt lat="43.53013" lon="5.59769">
        <ele>979.2</ele>
        <time>2012-03-28T11:56:13Z</time>
      </trkpt>
      <trkpt lat="43.53012" lon="5.59757">
        <ele>980.2</ele>
        <time>2012-03-28T11:56:24Z</time>
      </trkpt>
      <trkpt lat="43.53012" lon="5.59756">
        <ele>980.2</ele>
        <time>2012-03-28T11:56:25Z</time>
      </trkpt>
      <trkpt lat="43.53018" lon="5.59735">
        <ele>981.4</ele>
        <time>2012-03-28T11:56:49Z</time>
      </trkpt>
      <trkpt lat="43.53015" lon="5.59724">
        <ele>980.5</ele>
        <time>2012-03-28T11:57:00Z</time>
      </trkpt>
      <trkpt lat="43.53013" lon="5.59712">
        <ele>981.2</ele>
        <time>2012-03-28T11:57:14Z</time>
      </trkpt>
      <trkpt lat="43.53015" lon="5.597">
        <ele>982.4</ele>
        <time>2012-03-28T11:57:29Z</time>
      </trkpt>
      <trkpt lat="43.53015" lon="5.59699">
        <ele>982.5</ele>
        <time>2012-03-28T11:57:30Z</time>
      </trkpt>
      <trkpt lat="43.53016" lon="5.59676">
        <ele>985.2</ele>
        <time>2012-03-28T11:57:52Z</time>
      </trkpt>
      <trkpt lat="43.53018" lon="5.59665">
        <ele>983.7</ele>
        <time>2012-03-28T11:58:03Z</time>
      </trkpt>
      <trkpt lat="43.53023" lon="5.59655">
        <ele>981.2</ele>
        <time>2012-03-28T11:58:16Z</time>
      </trkpt>
      <trkpt lat="43.53026" lon="5.59644">
        <ele>983.4</ele>
        <time>2012-03-28T11:59:19Z</time>
      </trkpt>
      <trkpt lat="43.53026" lon="5.59643">
        <ele>983.2</ele>
        <time>2012-03-28T11:59:20Z</time>
      </trkpt>
      <trkpt lat="43.53024" lon="5.5962">
        <ele>980.7</ele>
        <time>2012-03-28T11:59:44Z</time>
      </trkpt>
      <trkpt lat="43.53026" lon="5.59608">
        <ele>978</ele>
        <time>2012-03-28T11:59:55Z</time>
      </trkpt>
      <trkpt lat="43.53024" lon="5.59596">
        <ele>978.4</ele>
        <time>2012-03-28T12:00:06Z</time>
      </trkpt>
      <trkpt lat="43.53019" lon="5.59587">
        <ele>979.4</ele>
        <time>2012-03-28T12:00:20Z</time>
      </trkpt>
      <trkpt lat="43.53016" lon="5.59576">
        <ele>980.2</ele>
        <time>2012-03-28T12:00:30Z</time>
      </trkpt>
      <trkpt lat="43.53016" lon="5.59575">
        <ele>980.2</ele>
        <time>2012-03-28T12:00:31Z</time>
      </trkpt>
      <trkpt lat="43.53005" lon="5.59558">
        <ele>984.7</ele>
        <time>2012-03-28T12:00:50Z</time>
      </trkpt>
      <trkpt lat="43.53013" lon="5.59553">
        <ele>979</ele>
        <time>2012-03-28T12:05:02Z</time>
      </trkpt>
      <trkpt lat="43.53014" lon="5.59553">
        <ele>979</ele>
        <time>2012-03-28T12:05:03Z</time>
      </trkpt>
      <trkpt lat="43.53013" lon="5.5954">
        <ele>978.5</ele>
        <time>2012-03-28T12:07:27Z</time>
      </trkpt>
      <trkpt lat="43.53005" lon="5.59523">
        <ele>979.2</ele>
        <time>2012-03-28T12:07:42Z</time>
      </trkpt>
      <trkpt lat="43.53006" lon="5.59511">
        <ele>980.2</ele>
        <time>2012-03-28T12:07:49Z</time>
      </trkpt>
      <trkpt lat="43.53009" lon="5.59501">
        <ele>980.7</ele>
        <time>2012-03-28T12:07:57Z</time>
      </trkpt>
      <trkpt lat="43.53013" lon="5.5949">
        <ele>980.5</ele>
        <time>2012-03-28T12:08:05Z</time>
      </trkpt>
      <trkpt lat="43.53016" lon="5.59479">
        <ele>980.2</ele>
        <time>2012-03-28T12:08:14Z</time>
      </trkpt>
      <trkpt lat="43.53019" lon="5.59468">
        <ele>980.2</ele>
        <time>2012-03-28T12:08:24Z</time>
      </trkpt>
      <trkpt lat="43.5302" lon="5.59457">
        <ele>980.5</ele>
        <time>2012-03-28T12:08:32Z</time>
      </trkpt>
      <trkpt lat="43.5302" lon="5.59456">
        <ele>980.5</ele>
        <time>2012-03-28T12:08:33Z</time>
      </trkpt>
      <trkpt lat="43.53023" lon="5.59434">
        <ele>980.4</ele>
        <time>2012-03-28T12:08:51Z</time>
      </trkpt>
      <trkpt lat="43.53023" lon="5.59422">
        <ele>981</ele>
        <time>2012-03-28T12:09:01Z</time>
      </trkpt>
      <trkpt lat="43.53022" lon="5.5941">
        <ele>979.7</ele>
        <time>2012-03-28T12:09:11Z</time>
      </trkpt>
      <trkpt lat="43.53021" lon="5.59398">
        <ele>978.2</ele>
        <time>2012-03-28T12:09:22Z</time>
      </trkpt>
      <trkpt lat="43.53022" lon="5.59386">
        <ele>976.7</ele>
        <time>2012-03-28T12:09:32Z</time>
      </trkpt>
      <trkpt lat="43.53019" lon="5.59374">
        <ele>975</ele>
        <time>2012-03-28T12:09:41Z</time>
      </trkpt>
      <trkpt lat="43.53019" lon="5.59373">
        <ele>974.9</ele>
        <time>2012-03-28T12:09:42Z</time>
      </trkpt>
      <trkpt lat="43.53014" lon="5.59352">
        <ele>972.9</ele>
        <time>2012-03-28T12:10:04Z</time>
      </trkpt>
      <trkpt lat="43.53013" lon="5.5934">
        <ele>970.5</ele>
        <time>2012-03-28T12:10:17Z</time>
      </trkpt>
      <trkpt lat="43.53015" lon="5.59328">
        <ele>969.2</ele>
        <time>2012-03-28T12:10:29Z</time>
      </trkpt>
      <trkpt lat="43.53016" lon="5.59316">
        <ele>967.5</ele>
        <time>2012-03-28T12:10:47Z</time>
      </trkpt>
      <trkpt lat="43.53016" lon="5.59315">
        <ele>967.4</ele>
        <time>2012-03-28T12:10:48Z</time>
      </trkpt>
      <trkpt lat="43.53014" lon="5.59293">
        <ele>962.5</ele>
        <time>2012-03-28T12:11:20Z</time>
      </trkpt>
      <trkpt lat="43.53014" lon="5.5928">
        <ele>962.7</ele>
        <time>2012-03-28T12:11:32Z</time>
      </trkpt>
      <trkpt lat="43.53015" lon="5.59269">
        <ele>963</ele>
        <time>2012-03-28T12:11:43Z</time>
      </trkpt>
      <trkpt lat="43.53016" lon="5.59256">
        <ele>961.5</ele>
        <time>2012-03-28T12:12:03Z</time>
      </trkpt>
      <trkpt lat="43.53016" lon="5.59255">
        <ele>961.7</ele>
        <time>2012-03-28T12:12:04Z</time>
      </trkpt>
      <trkpt lat="43.53023" lon="5.59236">
        <ele>962.7</ele>
        <time>2012-03-28T12:12:34Z</time>
      </trkpt>
      <trkpt lat="43.53025" lon="5.59224">
        <ele>963.2</ele>
        <time>2012-03-28T12:12:50Z</time>
      </trkpt>
      <trkpt lat="43.53017" lon="5.59218">
        <ele>965.5</ele>
        <time>2012-03-28T12:13:04Z</time>
      </trkpt>
      <trkpt lat="43.53014" lon="5.59206">
        <ele>965.5</ele>
        <time>2012-03-28T12:13:18Z</time>
      </trkpt>
      <trkpt lat="43.53014" lon="5.59205">
        <ele>965.7</ele>
        <time>2012-03-28T12:13:19Z</time>
      </trkpt>
      <trkpt lat="43.53007" lon="5.59185">
        <ele>963.5</ele>
        <time>2012-03-28T12:13:51Z</time>
      </trkpt>
      <trkpt lat="43.53001" lon="5.59177">
        <ele>962.9</ele>
        <time>2012-03-28T12:14:02Z</time>
      </trkpt>
      <trkpt lat="43.52997" lon="5.59167">
        <ele>962.7</ele>
        <time>2012-03-28T12:14:16Z</time>
      </trkpt>
      <trkpt lat="43.52992" lon="5.59158">
        <ele>963</ele>
        <time>2012-03-28T12:14:27Z</time>
      </trkpt>
      <trkpt lat="43.52991" lon="5.59157">
        <ele>963</ele>
        <time>2012-03-28T12:14:28Z</time>
      </trkpt>
      <trkpt lat="43.5298" lon="5.5914">
        <ele>966</ele>
        <time>2012-03-28T12:14:47Z</time>
      </trkpt>
      <trkpt lat="43.52975" lon="5.59131">
        <ele>965</ele>
        <time>2012-03-28T12:14:58Z</time>
      </trkpt>
      <trkpt lat="43.52975" lon="5.59119">
        <ele>965.4</ele>
        <time>2012-03-28T12:15:08Z</time>
      </trkpt>
      <trkpt lat="43.52977" lon="5.59108">
        <ele>965</ele>
        <time>2012-03-28T12:15:16Z</time>
      </trkpt>
      <trkpt lat="43.52979" lon="5.59096">
        <ele>965.7</ele>
        <time>2012-03-28T12:15:25Z</time>
      </trkpt>
      <trkpt lat="43.52977" lon="5.59084">
        <ele>964.2</ele>
        <time>2012-03-28T12:15:33Z</time>
      </trkpt>
      <trkpt lat="43.52977" lon="5.59083">
        <ele>964.2</ele>
        <time>2012-03-28T12:15:34Z</time>
      </trkpt>
      <trkpt lat="43.52976" lon="5.59062">
        <ele>965.9</ele>
        <time>2012-03-28T12:15:50Z</time>
      </trkpt>
      <trkpt lat="43.52975" lon="5.5905">
        <ele>966.9</ele>
        <time>2012-03-28T12:15:59Z</time>
      </trkpt>
      <trkpt lat="43.52975" lon="5.59038">
        <ele>968.5</ele>
        <time>2012-03-28T12:16:10Z</time>
      </trkpt>
      <trkpt lat="43.52973" lon="5.59027">
        <ele>969.5</ele>
        <time>2012-03-28T12:16:21Z</time>
      </trkpt>
      <trkpt lat="43.52973" lon="5.59016">
        <ele>970.7</ele>
        <time>2012-03-28T12:16:29Z</time>
      </trkpt>
      <trkpt lat="43.52977" lon="5.59005">
        <ele>971.2</ele>
        <time>2012-03-28T12:16:40Z</time>
      </trkpt>
      <trkpt lat="43.52977" lon="5.59004">
        <ele>971.2</ele>
        <time>2012-03-28T12:16:41Z</time>
      </trkpt>
      <trkpt lat="43.52984" lon="5.58985">
        <ele>970.4</ele>
        <time>2012-03-28T12:17:00Z</time>
      </trkpt>
      <trkpt lat="43.52983" lon="5.58973">
        <ele>970.5</ele>
        <time>2012-03-28T12:17:10Z</time>
      </trkpt>
      <trkpt lat="43.52981" lon="5.58961">
        <ele>971.2</ele>
        <time>2012-03-28T12:17:21Z</time>
      </trkpt>
      <trkpt lat="43.5298" lon="5.58949">
        <ele>969.4</ele>
        <time>2012-03-28T12:17:35Z</time>
      </trkpt>
      <trkpt lat="43.52979" lon="5.58937">
        <ele>969.5</ele>
        <time>2012-03-28T12:17:47Z</time>
      </trkpt>
      <trkpt lat="43.52979" lon="5.58936">
        <ele>969.5</ele>
        <time>2012-03-28T12:17:48Z</time>
      </trkpt>
      <trkpt lat="43.52981" lon="5.58914">
        <ele>968.4</ele>
        <time>2012-03-28T12:18:10Z</time>
      </trkpt>
      <trkpt lat="43.5298" lon="5.58902">
        <ele>969.5</ele>
        <time>2012-03-28T12:18:24Z</time>
      </trkpt>
      <trkpt lat="43.52982" lon="5.58891">
        <ele>969</ele>
        <time>2012-03-28T12:18:36Z</time>
      </trkpt>
      <trkpt lat="43.52987" lon="5.58881">
        <ele>968.7</ele>
        <time>2012-03-28T12:18:46Z</time>
      </trkpt>
      <trkpt lat="43.52991" lon="5.58871">
        <ele>967</ele>
        <time>2012-03-28T12:18:58Z</time>
      </trkpt>
      <trkpt lat="43.52991" lon="5.58871">
        <ele>967</ele>
        <time>2012-03-28T12:18:59Z</time>
      </trkpt>
      <trkpt lat="43.53" lon="5.58851">
        <ele>965.2</ele>
        <time>2012-03-28T12:19:23Z</time>
      </trkpt>
      <trkpt lat="43.53004" lon="5.5884">
        <ele>964.7</ele>
        <time>2012-03-28T12:19:36Z</time>
      </trkpt>
      <trkpt lat="43.53007" lon="5.58828">
        <ele>964.5</ele>
        <time>2012-03-28T12:19:45Z</time>
      </trkpt>
      <trkpt lat="43.53011" lon="5.58819">
        <ele>961.9</ele>
        <time>2012-03-28T12:19:56Z</time>
      </trkpt>
      <trkpt lat="43.53016" lon="5.5881">
        <ele>959.5</ele>
        <time>2012-03-28T12:20:04Z</time>
      </trkpt>
      <trkpt lat="43.53017" lon="5.58808">
        <ele>959.5</ele>
        <time>2012-03-28T12:20:05Z</time>
      </trkpt>
      <trkpt lat="43.53026" lon="5.5879">
        <ele>955.7</ele>
        <time>2012-03-28T12:20:26Z</time>
      </trkpt>
      <trkpt lat="43.53028" lon="5.58779">
        <ele>955.2</ele>
        <time>2012-03-28T12:20:36Z</time>
      </trkpt>
      <trkpt lat="43.53031" lon="5.58768">
        <ele>954.7</ele>
        <time>2012-03-28T12:20:46Z</time>
      </trkpt>
      <trkpt lat="43.53034" lon="5.58756">
        <ele>954.5</ele>
        <time>2012-03-28T12:20:57Z</time>
      </trkpt>
      <trkpt lat="43.53037" lon="5.58745">
        <ele>952.9</ele>
        <time>2012-03-28T12:21:08Z</time>
      </trkpt>
      <trkpt lat="43.53037" lon="5.58744">
        <ele>952.7</ele>
        <time>2012-03-28T12:21:09Z</time>
      </trkpt>
      <trkpt lat="43.53044" lon="5.58724">
        <ele>948.7</ele>
        <time>2012-03-28T12:21:31Z</time>
      </trkpt>
      <trkpt lat="43.53051" lon="5.58718">
        <ele>947.4</ele>
        <time>2012-03-28T12:21:42Z</time>
      </trkpt>
      <trkpt lat="43.53056" lon="5.58708">
        <ele>948.5</ele>
        <time>2012-03-28T12:21:54Z</time>
      </trkpt>
      <trkpt lat="43.53063" lon="5.58702">
        <ele>946.9</ele>
        <time>2012-03-28T12:22:05Z</time>
      </trkpt>
      <trkpt lat="43.5307" lon="5.58698">
        <ele>944.9</ele>
        <time>2012-03-28T12:22:15Z</time>
      </trkpt>
      <trkpt lat="43.53071" lon="5.58698">
        <ele>944.5</ele>
        <time>2012-03-28T12:22:16Z</time>
      </trkpt>
      <trkpt lat="43.53081" lon="5.5868">
        <ele>943.2</ele>
        <time>2012-03-28T12:22:38Z</time>
      </trkpt>
      <trkpt lat="43.53088" lon="5.58672">
        <ele>941.7</ele>
        <time>2012-03-28T12:22:47Z</time>
      </trkpt>
      <trkpt lat="43.5309" lon="5.58661">
        <ele>941.2</ele>
        <time>2012-03-28T12:23:03Z</time>
      </trkpt>
      <trkpt lat="43.53085" lon="5.58653">
        <ele>941.2</ele>
        <time>2012-03-28T12:23:11Z</time>
      </trkpt>
      <trkpt lat="43.53086" lon="5.5864">
        <ele>941</ele>
        <time>2012-03-28T12:23:22Z</time>
      </trkpt>
      <trkpt lat="43.53086" lon="5.58639">
        <ele>941</ele>
        <time>2012-03-28T12:23:23Z</time>
      </trkpt>
      <trkpt lat="43.53083" lon="5.58618">
        <ele>934.4</ele>
        <time>2012-03-28T12:25:10Z</time>
      </trkpt>
      <trkpt lat="43.53083" lon="5.58617">
        <ele>934.2</ele>
        <time>2012-03-28T12:25:11Z</time>
      </trkpt>
      <trkpt lat="43.53081" lon="5.58605">
        <ele>935.5</ele>
        <time>2012-03-28T12:28:15Z</time>
      </trkpt>
      <trkpt lat="43.53079" lon="5.58583">
        <ele>930</ele>
        <time>2012-03-28T12:28:42Z</time>
      </trkpt>
      <trkpt lat="43.53073" lon="5.58575">
        <ele>931</ele>
        <time>2012-03-28T12:28:58Z</time>
      </trkpt>
      <trkpt lat="43.53066" lon="5.58567">
        <ele>930</ele>
        <time>2012-03-28T12:29:09Z</time>
      </trkpt>
      <trkpt lat="43.53062" lon="5.58557">
        <ele>928.5</ele>
        <time>2012-03-28T12:29:18Z</time>
      </trkpt>
      <trkpt lat="43.53062" lon="5.58556">
        <ele>928.5</ele>
        <time>2012-03-28T12:29:19Z</time>
      </trkpt>
      <trkpt lat="43.53055" lon="5.58536">
        <ele>930</ele>
        <time>2012-03-28T12:29:43Z</time>
      </trkpt>
      <trkpt lat="43.53053" lon="5.58525">
        <ele>929</ele>
        <time>2012-03-28T12:29:55Z</time>
      </trkpt>
      <trkpt lat="43.53051" lon="5.58513">
        <ele>928.7</ele>
        <time>2012-03-28T12:30:09Z</time>
      </trkpt>
      <trkpt lat="43.5305" lon="5.58501">
        <ele>928.5</ele>
        <time>2012-03-28T12:30:20Z</time>
      </trkpt>
      <trkpt lat="43.53049" lon="5.585">
        <ele>928.9</ele>
        <time>2012-03-28T12:30:21Z</time>
      </trkpt>
      <trkpt lat="43.53054" lon="5.58479">
        <ele>931.7</ele>
        <time>2012-03-28T12:30:43Z</time>
      </trkpt>
      <trkpt lat="43.53056" lon="5.58467">
        <ele>932.7</ele>
        <time>2012-03-28T12:30:54Z</time>
      </trkpt>
      <trkpt lat="43.53058" lon="5.58456">
        <ele>931.7</ele>
        <time>2012-03-28T12:31:05Z</time>
      </trkpt>
      <trkpt lat="43.53062" lon="5.58445">
        <ele>931.4</ele>
        <time>2012-03-28T12:31:16Z</time>
      </trkpt>
      <trkpt lat="43.53063" lon="5.58434">
        <ele>930.5</ele>
        <time>2012-03-28T12:31:26Z</time>
      </trkpt>
      <trkpt lat="43.53062" lon="5.58433">
        <ele>930.4</ele>
        <time>2012-03-28T12:31:27Z</time>
      </trkpt>
      <trkpt lat="43.53062" lon="5.5841">
        <ele>929.2</ele>
        <time>2012-03-28T12:31:50Z</time>
      </trkpt>
      <trkpt lat="43.53063" lon="5.58398">
        <ele>928.7</ele>
        <time>2012-03-28T12:32:00Z</time>
      </trkpt>
      <trkpt lat="43.53067" lon="5.58387">
        <ele>927.9</ele>
        <time>2012-03-28T12:32:09Z</time>
      </trkpt>
      <trkpt lat="43.5307" lon="5.58376">
        <ele>929.2</ele>
        <time>2012-03-28T12:32:18Z</time>
      </trkpt>
      <trkpt lat="43.53074" lon="5.58366">
        <ele>930.2</ele>
        <time>2012-03-28T12:32:28Z</time>
      </trkpt>
      <trkpt lat="43.53075" lon="5.58365">
        <ele>930.2</ele>
        <time>2012-03-28T12:32:29Z</time>
      </trkpt>
      <trkpt lat="43.53081" lon="5.58344">
        <ele>930</ele>
        <time>2012-03-28T12:32:47Z</time>
      </trkpt>
      <trkpt lat="43.53085" lon="5.58333">
        <ele>928.7</ele>
        <time>2012-03-28T12:33:02Z</time>
      </trkpt>
      <trkpt lat="43.53085" lon="5.58321">
        <ele>926.7</ele>
        <time>2012-03-28T12:33:12Z</time>
      </trkpt>
      <trkpt lat="43.53083" lon="5.5831">
        <ele>927.7</ele>
        <time>2012-03-28T12:33:21Z</time>
      </trkpt>
      <trkpt lat="43.53082" lon="5.58298">
        <ele>927.2</ele>
        <time>2012-03-28T12:33:30Z</time>
      </trkpt>
      <trkpt lat="43.53082" lon="5.58297">
        <ele>927</ele>
        <time>2012-03-28T12:33:31Z</time>
      </trkpt>
      <trkpt lat="43.53084" lon="5.58275">
        <ele>924.5</ele>
        <time>2012-03-28T12:33:48Z</time>
      </trkpt>
      <trkpt lat="43.53087" lon="5.58264">
        <ele>922.5</ele>
        <time>2012-03-28T12:33:59Z</time>
      </trkpt>
      <trkpt lat="43.53088" lon="5.58252">
        <ele>917.2</ele>
        <time>2012-03-28T12:34:09Z</time>
      </trkpt>
      <trkpt lat="43.53087" lon="5.5824">
        <ele>917.2</ele>
        <time>2012-03-28T12:34:19Z</time>
      </trkpt>
      <trkpt lat="43.53085" lon="5.58229">
        <ele>915</ele>
        <time>2012-03-28T12:34:29Z</time>
      </trkpt>
      <trkpt lat="43.53081" lon="5.58218">
        <ele>916.5</ele>
        <time>2012-03-28T12:34:39Z</time>
      </trkpt>
      <trkpt lat="43.53081" lon="5.58217">
        <ele>916.4</ele>
        <time>2012-03-28T12:34:40Z</time>
      </trkpt>
      <trkpt lat="43.53083" lon="5.58196">
        <ele>917.2</ele>
        <time>2012-03-28T12:35:16Z</time>
      </trkpt>
      <trkpt lat="43.53088" lon="5.58186">
        <ele>918</ele>
        <time>2012-03-28T12:35:26Z</time>
      </trkpt>
      <trkpt lat="43.5308" lon="5.58181">
        <ele>915.7</ele>
        <time>2012-03-28T12:36:19Z</time>
      </trkpt>
      <trkpt lat="43.5308" lon="5.58181">
        <ele>915.2</ele>
        <time>2012-03-28T12:36:20Z</time>
      </trkpt>
      <trkpt lat="43.53085" lon="5.58171">
        <ele>919</ele>
        <time>2012-03-28T12:39:28Z</time>
      </trkpt>
      <trkpt lat="43.53085" lon="5.5817">
        <ele>918.5</ele>
        <time>2012-03-28T12:39:29Z</time>
      </trkpt>
      <trkpt lat="43.53102" lon="5.58178">
        <ele>934.9</ele>
        <time>2012-03-28T12:41:36Z</time>
      </trkpt>
      <trkpt lat="43.53102" lon="5.58178">
        <ele>934.5</ele>
        <time>2012-03-28T12:41:37Z</time>
      </trkpt>
      <trkpt lat="43.5311" lon="5.58171">
        <ele>929.2</ele>
        <time>2012-03-28T12:42:43Z</time>
      </trkpt>
      <trkpt lat="43.53122" lon="5.58155">
        <ele>925.5</ele>
        <time>2012-03-28T12:43:03Z</time>
      </trkpt>
      <trkpt lat="43.53127" lon="5.58147">
        <ele>923.5</ele>
        <time>2012-03-28T12:43:16Z</time>
      </trkpt>
      <trkpt lat="43.53131" lon="5.58136">
        <ele>927</ele>
        <time>2012-03-28T12:43:30Z</time>
      </trkpt>
      <trkpt lat="43.5313" lon="5.58125">
        <ele>930.7</ele>
        <time>2012-03-28T12:43:49Z</time>
      </trkpt>
      <trkpt lat="43.5313" lon="5.58124">
        <ele>931</ele>
        <time>2012-03-28T12:43:50Z</time>
      </trkpt>
      <trkpt lat="43.53129" lon="5.58101">
        <ele>931.2</ele>
        <time>2012-03-28T12:44:28Z</time>
      </trkpt>
      <trkpt lat="43.53128" lon="5.58089">
        <ele>931.9</ele>
        <time>2012-03-28T12:44:42Z</time>
      </trkpt>
      <trkpt lat="43.53124" lon="5.58078">
        <ele>930.7</ele>
        <time>2012-03-28T12:44:59Z</time>
      </trkpt>
      <trkpt lat="43.53124" lon="5.58077">
        <ele>930.7</ele>
        <time>2012-03-28T12:45:00Z</time>
      </trkpt>
      <trkpt lat="43.53117" lon="5.58057">
        <ele>930.5</ele>
        <time>2012-03-28T12:45:23Z</time>
      </trkpt>
      <trkpt lat="43.53121" lon="5.58047">
        <ele>926.5</ele>
        <time>2012-03-28T12:49:00Z</time>
      </trkpt>
      <trkpt lat="43.53122" lon="5.58047">
        <ele>926.7</ele>
        <time>2012-03-28T12:49:01Z</time>
      </trkpt>
      <trkpt lat="43.53112" lon="5.58053">
        <ele>925.4</ele>
        <time>2012-03-28T12:51:31Z</time>
      </trkpt>
      <trkpt lat="43.53099" lon="5.58057">
        <ele>913.7</ele>
        <time>2012-03-28T12:52:33Z</time>
      </trkpt>
      <trkpt lat="43.53098" lon="5.58057">
        <ele>914.2</ele>
        <time>2012-03-28T12:52:34Z</time>
      </trkpt>
      <trkpt lat="43.53116" lon="5.58056">
        <ele>935</ele>
        <time>2012-03-28T12:54:28Z</time>
      </trkpt>
      <trkpt lat="43.53116" lon="5.58055">
        <ele>934</ele>
        <time>2012-03-28T12:54:29Z</time>
      </trkpt>
      <trkpt lat="43.53131" lon="5.58046">
        <ele>937</ele>
        <time>2012-03-28T12:54:42Z</time>
      </trkpt>
      <trkpt lat="43.53122" lon="5.58048">
        <ele>925</ele>
        <time>2012-03-28T12:55:44Z</time>
      </trkpt>
      <trkpt lat="43.53121" lon="5.58049">
        <ele>923.9</ele>
        <time>2012-03-28T12:55:45Z</time>
      </trkpt>
      <trkpt lat="43.53119" lon="5.58043">
        <ele>928</ele>
        <time>2012-03-28T12:56:45Z</time>
      </trkpt>
      <trkpt lat="43.53119" lon="5.58031">
        <ele>929.9</ele>
        <time>2012-03-28T12:56:54Z</time>
      </trkpt>
      <trkpt lat="43.53119" lon="5.5803">
        <ele>929.7</ele>
        <time>2012-03-28T12:56:55Z</time>
      </trkpt>
      <trkpt lat="43.53123" lon="5.58008">
        <ele>926.4</ele>
        <time>2012-03-28T12:57:14Z</time>
      </trkpt>
      <trkpt lat="43.53125" lon="5.57996">
        <ele>926</ele>
        <time>2012-03-28T12:57:27Z</time>
      </trkpt>
      <trkpt lat="43.53122" lon="5.57985">
        <ele>929.2</ele>
        <time>2012-03-28T12:57:41Z</time>
      </trkpt>
      <trkpt lat="43.53122" lon="5.57973">
        <ele>925.5</ele>
        <time>2012-03-28T12:57:56Z</time>
      </trkpt>
      <trkpt lat="43.53123" lon="5.57971">
        <ele>925.2</ele>
        <time>2012-03-28T12:57:57Z</time>
      </trkpt>
      <trkpt lat="43.53128" lon="5.5795">
        <ele>926.9</ele>
        <time>2012-03-28T12:58:21Z</time>
      </trkpt>
      <trkpt lat="43.53133" lon="5.57941">
        <ele>931.9</ele>
        <time>2012-03-28T12:59:03Z</time>
      </trkpt>
      <trkpt lat="43.53133" lon="5.5794">
        <ele>931.9</ele>
        <time>2012-03-28T12:59:04Z</time>
      </trkpt>
      <trkpt lat="43.5314" lon="5.57918">
        <ele>922.9</ele>
        <time>2012-03-28T13:00:35Z</time>
      </trkpt>
      <trkpt lat="43.5314" lon="5.57918">
        <ele>922.7</ele>
        <time>2012-03-28T13:00:36Z</time>
      </trkpt>
      <trkpt lat="43.5315" lon="5.579">
        <ele>915.5</ele>
        <time>2012-03-28T13:01:16Z</time>
      </trkpt>
      <trkpt lat="43.5315" lon="5.57888">
        <ele>910.2</ele>
        <time>2012-03-28T13:01:40Z</time>
      </trkpt>
      <trkpt lat="43.5315" lon="5.57887">
        <ele>910.4</ele>
        <time>2012-03-28T13:01:41Z</time>
      </trkpt>
      <trkpt lat="43.53156" lon="5.57884">
        <ele>909.5</ele>
        <time>2012-03-28T13:03:09Z</time>
      </trkpt>
      <trkpt lat="43.53156" lon="5.57884">
        <ele>909.5</ele>
        <time>2012-03-28T13:03:10Z</time>
      </trkpt>
      <trkpt lat="43.53164" lon="5.5788">
        <ele>895.2</ele>
        <time>2012-03-28T13:05:15Z</time>
      </trkpt>
      <trkpt lat="43.53171" lon="5.57859">
        <ele>889.5</ele>
        <time>2012-03-28T13:05:55Z</time>
      </trkpt>
      <trkpt lat="43.53165" lon="5.5785">
        <ele>888.7</ele>
        <time>2012-03-28T13:06:12Z</time>
      </trkpt>
      <trkpt lat="43.53159" lon="5.57844">
        <ele>883.4</ele>
        <time>2012-03-28T13:06:26Z</time>
      </trkpt>
      <trkpt lat="43.53158" lon="5.57842">
        <ele>885.5</ele>
        <time>2012-03-28T13:06:27Z</time>
      </trkpt>
      <trkpt lat="43.53143" lon="5.5785">
        <ele>899.2</ele>
        <time>2012-03-28T13:10:05Z</time>
      </trkpt>
      <trkpt lat="43.53142" lon="5.57851">
        <ele>898.9</ele>
        <time>2012-03-28T13:10:06Z</time>
      </trkpt>
      <trkpt lat="43.53141" lon="5.57845">
        <ele>891.9</ele>
        <time>2012-03-28T13:11:20Z</time>
      </trkpt>
      <trkpt lat="43.53142" lon="5.57845">
        <ele>892.2</ele>
        <time>2012-03-28T13:11:21Z</time>
      </trkpt>
      <trkpt lat="43.53157" lon="5.5784">
        <ele>905</ele>
        <time>2012-03-28T13:12:28Z</time>
      </trkpt>
      <trkpt lat="43.53158" lon="5.57839">
        <ele>904.7</ele>
        <time>2012-03-28T13:12:29Z</time>
      </trkpt>
      <trkpt lat="43.53169" lon="5.57826">
        <ele>895.7</ele>
        <time>2012-03-28T13:12:45Z</time>
      </trkpt>
      <trkpt lat="43.53175" lon="5.57817">
        <ele>893</ele>
        <time>2012-03-28T13:12:58Z</time>
      </trkpt>
      <trkpt lat="43.53178" lon="5.57806">
        <ele>888.2</ele>
        <time>2012-03-28T13:14:51Z</time>
      </trkpt>
      <trkpt lat="43.53178" lon="5.57805">
        <ele>888.2</ele>
        <time>2012-03-28T13:14:52Z</time>
      </trkpt>
      <trkpt lat="43.53182" lon="5.57784">
        <ele>890.2</ele>
        <time>2012-03-28T13:15:12Z</time>
      </trkpt>
      <trkpt lat="43.53182" lon="5.57771">
        <ele>887.7</ele>
        <time>2012-03-28T13:15:21Z</time>
      </trkpt>
      <trkpt lat="43.53182" lon="5.5776">
        <ele>887.7</ele>
        <time>2012-03-28T13:15:31Z</time>
      </trkpt>
      <trkpt lat="43.53182" lon="5.57749">
        <ele>886.2</ele>
        <time>2012-03-28T13:15:41Z</time>
      </trkpt>
      <trkpt lat="43.53183" lon="5.57737">
        <ele>884.2</ele>
        <time>2012-03-28T13:15:49Z</time>
      </trkpt>
      <trkpt lat="43.53183" lon="5.57725">
        <ele>884</ele>
        <time>2012-03-28T13:16:00Z</time>
      </trkpt>
      <trkpt lat="43.53184" lon="5.57724">
        <ele>883.7</ele>
        <time>2012-03-28T13:16:01Z</time>
      </trkpt>
      <trkpt lat="43.53192" lon="5.57704">
        <ele>881.7</ele>
        <time>2012-03-28T13:16:21Z</time>
      </trkpt>
      <trkpt lat="43.53195" lon="5.57693">
        <ele>881.5</ele>
        <time>2012-03-28T13:16:29Z</time>
      </trkpt>
      <trkpt lat="43.53197" lon="5.57681">
        <ele>881.5</ele>
        <time>2012-03-28T13:16:41Z</time>
      </trkpt>
      <trkpt lat="43.53199" lon="5.5767">
        <ele>880.5</ele>
        <time>2012-03-28T13:16:52Z</time>
      </trkpt>
      <trkpt lat="43.53204" lon="5.5766">
        <ele>880.5</ele>
        <time>2012-03-28T13:17:05Z</time>
      </trkpt>
      <trkpt lat="43.53204" lon="5.57659">
        <ele>880.2</ele>
        <time>2012-03-28T13:17:06Z</time>
      </trkpt>
      <trkpt lat="43.53211" lon="5.57638">
        <ele>875.5</ele>
        <time>2012-03-28T13:17:27Z</time>
      </trkpt>
      <trkpt lat="43.53214" lon="5.57627">
        <ele>875.7</ele>
        <time>2012-03-28T13:17:38Z</time>
      </trkpt>
      <trkpt lat="43.53214" lon="5.57615">
        <ele>874.7</ele>
        <time>2012-03-28T13:17:51Z</time>
      </trkpt>
      <trkpt lat="43.53217" lon="5.57603">
        <ele>871</ele>
        <time>2012-03-28T13:18:02Z</time>
      </trkpt>
      <trkpt lat="43.53224" lon="5.5761">
        <ele>868.5</ele>
        <time>2012-03-28T13:18:39Z</time>
      </trkpt>
      <trkpt lat="43.53224" lon="5.57611">
        <ele>868.7</ele>
        <time>2012-03-28T13:18:40Z</time>
      </trkpt>
      <trkpt lat="43.53231" lon="5.57631">
        <ele>864</ele>
        <time>2012-03-28T13:19:01Z</time>
      </trkpt>
      <trkpt lat="43.53233" lon="5.57643">
        <ele>862</ele>
        <time>2012-03-28T13:19:12Z</time>
      </trkpt>
      <trkpt lat="43.53235" lon="5.57655">
        <ele>861.5</ele>
        <time>2012-03-28T13:19:21Z</time>
      </trkpt>
      <trkpt lat="43.53234" lon="5.57665">
        <ele>861.9</ele>
        <time>2012-03-28T13:19:28Z</time>
      </trkpt>
      <trkpt lat="43.53235" lon="5.57677">
        <ele>861.7</ele>
        <time>2012-03-28T13:19:36Z</time>
      </trkpt>
      <trkpt lat="43.53236" lon="5.57688">
        <ele>859</ele>
        <time>2012-03-28T13:19:45Z</time>
      </trkpt>
      <trkpt lat="43.53236" lon="5.57689">
        <ele>858.7</ele>
        <time>2012-03-28T13:19:46Z</time>
      </trkpt>
      <trkpt lat="43.53238" lon="5.57711">
        <ele>856.2</ele>
        <time>2012-03-28T13:20:06Z</time>
      </trkpt>
      <trkpt lat="43.53238" lon="5.57723">
        <ele>854.5</ele>
        <time>2012-03-28T13:20:15Z</time>
      </trkpt>
      <trkpt lat="43.53239" lon="5.57733">
        <ele>855.2</ele>
        <time>2012-03-28T13:20:24Z</time>
      </trkpt>
      <trkpt lat="43.53239" lon="5.57745">
        <ele>856.7</ele>
        <time>2012-03-28T13:20:32Z</time>
      </trkpt>
      <trkpt lat="43.53243" lon="5.57755">
        <ele>857</ele>
        <time>2012-03-28T13:20:41Z</time>
      </trkpt>
      <trkpt lat="43.53245" lon="5.57767">
        <ele>856</ele>
        <time>2012-03-28T13:20:55Z</time>
      </trkpt>
      <trkpt lat="43.53245" lon="5.57768">
        <ele>855.9</ele>
        <time>2012-03-28T13:20:56Z</time>
      </trkpt>
      <trkpt lat="43.53251" lon="5.5779">
        <ele>853.2</ele>
        <time>2012-03-28T13:21:43Z</time>
      </trkpt>
      <trkpt lat="43.53252" lon="5.57801">
        <ele>853</ele>
        <time>2012-03-28T13:21:51Z</time>
      </trkpt>
      <trkpt lat="43.5325" lon="5.57813">
        <ele>851.2</ele>
        <time>2012-03-28T13:22:02Z</time>
      </trkpt>
      <trkpt lat="43.5325" lon="5.57814">
        <ele>851.4</ele>
        <time>2012-03-28T13:22:03Z</time>
      </trkpt>
      <trkpt lat="43.53258" lon="5.57795">
        <ele>850.5</ele>
        <time>2012-03-28T13:22:32Z</time>
      </trkpt>
      <trkpt lat="43.5326" lon="5.57784">
        <ele>851.2</ele>
        <time>2012-03-28T13:22:42Z</time>
      </trkpt>
      <trkpt lat="43.53263" lon="5.57772">
        <ele>851.5</ele>
        <time>2012-03-28T13:22:53Z</time>
      </trkpt>
      <trkpt lat="43.53265" lon="5.57761">
        <ele>850.9</ele>
        <time>2012-03-28T13:23:02Z</time>
      </trkpt>
      <trkpt lat="43.53274" lon="5.57762">
        <ele>845.5</ele>
        <time>2012-03-28T13:23:25Z</time>
      </trkpt>
      <trkpt lat="43.53274" lon="5.57763">
        <ele>845.2</ele>
        <time>2012-03-28T13:23:26Z</time>
      </trkpt>
      <trkpt lat="43.53278" lon="5.57784">
        <ele>842.5</ele>
        <time>2012-03-28T13:23:43Z</time>
      </trkpt>
      <trkpt lat="43.53281" lon="5.57774">
        <ele>839.5</ele>
        <time>2012-03-28T13:24:13Z</time>
      </trkpt>
      <trkpt lat="43.53285" lon="5.57764">
        <ele>838.2</ele>
        <time>2012-03-28T13:24:21Z</time>
      </trkpt>
      <trkpt lat="43.5329" lon="5.57754">
        <ele>838.5</ele>
        <time>2012-03-28T13:24:32Z</time>
      </trkpt>
      <trkpt lat="43.5329" lon="5.57753">
        <ele>838.5</ele>
        <time>2012-03-28T13:24:33Z</time>
      </trkpt>
      <trkpt lat="43.53295" lon="5.57732">
        <ele>834.2</ele>
        <time>2012-03-28T13:24:53Z</time>
      </trkpt>
      <trkpt lat="43.53298" lon="5.57722">
        <ele>832.9</ele>
        <time>2012-03-28T13:25:02Z</time>
      </trkpt>
      <trkpt lat="43.53306" lon="5.57727">
        <ele>827.5</ele>
        <time>2012-03-28T13:25:25Z</time>
      </trkpt>
      <trkpt lat="43.53308" lon="5.57738">
        <ele>826.2</ele>
        <time>2012-03-28T13:25:33Z</time>
      </trkpt>
      <trkpt lat="43.5331" lon="5.5775">
        <ele>825.7</ele>
        <time>2012-03-28T13:25:41Z</time>
      </trkpt>
      <trkpt lat="43.5331" lon="5.57752">
        <ele>825.9</ele>
        <time>2012-03-28T13:25:42Z</time>
      </trkpt>
      <trkpt lat="43.53309" lon="5.57773">
        <ele>824</ele>
        <time>2012-03-28T13:25:58Z</time>
      </trkpt>
      <trkpt lat="43.53309" lon="5.57785">
        <ele>823.5</ele>
        <time>2012-03-28T13:26:07Z</time>
      </trkpt>
      <trkpt lat="43.53312" lon="5.57796">
        <ele>827.7</ele>
        <time>2012-03-28T13:26:25Z</time>
      </trkpt>
      <trkpt lat="43.53315" lon="5.57785">
        <ele>825.4</ele>
        <time>2012-03-28T13:26:35Z</time>
      </trkpt>
      <trkpt lat="43.53318" lon="5.57775">
        <ele>822.2</ele>
        <time>2012-03-28T13:26:43Z</time>
      </trkpt>
      <trkpt lat="43.53319" lon="5.57774">
        <ele>822</ele>
        <time>2012-03-28T13:26:44Z</time>
      </trkpt>
      <trkpt lat="43.53324" lon="5.57776">
        <ele>814.4</ele>
        <time>2012-03-28T13:27:06Z</time>
      </trkpt>
      <trkpt lat="43.53321" lon="5.57787">
        <ele>814.2</ele>
        <time>2012-03-28T13:27:16Z</time>
      </trkpt>
      <trkpt lat="43.5333" lon="5.57787">
        <ele>816</ele>
        <time>2012-03-28T13:27:37Z</time>
      </trkpt>
      <trkpt lat="43.5333" lon="5.57799">
        <ele>813.4</ele>
        <time>2012-03-28T13:27:51Z</time>
      </trkpt>
      <trkpt lat="43.53331" lon="5.578">
        <ele>813.7</ele>
        <time>2012-03-28T13:27:52Z</time>
      </trkpt>
      <trkpt lat="43.53328" lon="5.57821">
        <ele>810.2</ele>
        <time>2012-03-28T13:28:11Z</time>
      </trkpt>
      <trkpt lat="43.53325" lon="5.57832">
        <ele>808.5</ele>
        <time>2012-03-28T13:28:19Z</time>
      </trkpt>
      <trkpt lat="43.53321" lon="5.57842">
        <ele>806.9</ele>
        <time>2012-03-28T13:28:28Z</time>
      </trkpt>
      <trkpt lat="43.53318" lon="5.57853">
        <ele>807.5</ele>
        <time>2012-03-28T13:28:36Z</time>
      </trkpt>
      <trkpt lat="43.53317" lon="5.57864">
        <ele>809</ele>
        <time>2012-03-28T13:28:44Z</time>
      </trkpt>
      <trkpt lat="43.53312" lon="5.57873">
        <ele>808.5</ele>
        <time>2012-03-28T13:28:54Z</time>
      </trkpt>
      <trkpt lat="43.53312" lon="5.57874">
        <ele>808</ele>
        <time>2012-03-28T13:28:55Z</time>
      </trkpt>
      <trkpt lat="43.53328" lon="5.57863">
        <ele>811.4</ele>
        <time>2012-03-28T13:29:19Z</time>
      </trkpt>
      <trkpt lat="43.53334" lon="5.57855">
        <ele>808.9</ele>
        <time>2012-03-28T13:29:30Z</time>
      </trkpt>
      <trkpt lat="43.5334" lon="5.57846">
        <ele>805.4</ele>
        <time>2012-03-28T13:29:39Z</time>
      </trkpt>
      <trkpt lat="43.53344" lon="5.57836">
        <ele>797.7</ele>
        <time>2012-03-28T13:29:52Z</time>
      </trkpt>
      <trkpt lat="43.53349" lon="5.57828">
        <ele>795.2</ele>
        <time>2012-03-28T13:30:01Z</time>
      </trkpt>
      <trkpt lat="43.5335" lon="5.57827">
        <ele>795.5</ele>
        <time>2012-03-28T13:30:02Z</time>
      </trkpt>
      <trkpt lat="43.53361" lon="5.57813">
        <ele>793.4</ele>
        <time>2012-03-28T13:30:16Z</time>
      </trkpt>
      <trkpt lat="43.53366" lon="5.57803">
        <ele>790.5</ele>
        <time>2012-03-28T13:30:27Z</time>
      </trkpt>
      <trkpt lat="43.53369" lon="5.57815">
        <ele>782.2</ele>
        <time>2012-03-28T13:30:55Z</time>
      </trkpt>
      <trkpt lat="43.53368" lon="5.57827">
        <ele>782.4</ele>
        <time>2012-03-28T13:31:03Z</time>
      </trkpt>
      <trkpt lat="43.53368" lon="5.57828">
        <ele>782</ele>
        <time>2012-03-28T13:31:04Z</time>
      </trkpt>
      <trkpt lat="43.53367" lon="5.57849">
        <ele>783.2</ele>
        <time>2012-03-28T13:31:17Z</time>
      </trkpt>
      <trkpt lat="43.53364" lon="5.5786">
        <ele>783</ele>
        <time>2012-03-28T13:31:24Z</time>
      </trkpt>
      <trkpt lat="43.53361" lon="5.57871">
        <ele>781.5</ele>
        <time>2012-03-28T13:31:33Z</time>
      </trkpt>
      <trkpt lat="43.53355" lon="5.5788">
        <ele>774.9</ele>
        <time>2012-03-28T13:31:43Z</time>
      </trkpt>
      <trkpt lat="43.53351" lon="5.5789">
        <ele>770.7</ele>
        <time>2012-03-28T13:31:54Z</time>
      </trkpt>
      <trkpt lat="43.53346" lon="5.57897">
        <ele>771</ele>
        <time>2012-03-28T13:32:03Z</time>
      </trkpt>
      <trkpt lat="43.53346" lon="5.57908">
        <ele>780.4</ele>
        <time>2012-03-28T13:32:08Z</time>
      </trkpt>
      <trkpt lat="43.53346" lon="5.5791">
        <ele>781.9</ele>
        <time>2012-03-28T13:32:09Z</time>
      </trkpt>
      <trkpt lat="43.53348" lon="5.57931">
        <ele>784.2</ele>
        <time>2012-03-28T13:32:25Z</time>
      </trkpt>
      <trkpt lat="43.53357" lon="5.57931">
        <ele>779</ele>
        <time>2012-03-28T13:32:42Z</time>
      </trkpt>
      <trkpt lat="43.53365" lon="5.57932">
        <ele>778.5</ele>
        <time>2012-03-28T13:32:51Z</time>
      </trkpt>
      <trkpt lat="43.53374" lon="5.57933">
        <ele>779.2</ele>
        <time>2012-03-28T13:32:59Z</time>
      </trkpt>
      <trkpt lat="43.53382" lon="5.57933">
        <ele>779.5</ele>
        <time>2012-03-28T13:33:06Z</time>
      </trkpt>
      <trkpt lat="43.53391" lon="5.57935">
        <ele>777.2</ele>
        <time>2012-03-28T13:33:15Z</time>
      </trkpt>
      <trkpt lat="43.53392" lon="5.57935">
        <ele>777</ele>
        <time>2012-03-28T13:33:16Z</time>
      </trkpt>
      <trkpt lat="43.53408" lon="5.57937">
        <ele>772</ele>
        <time>2012-03-28T13:33:33Z</time>
      </trkpt>
      <trkpt lat="43.53416" lon="5.57938">
        <ele>771.9</ele>
        <time>2012-03-28T13:33:41Z</time>
      </trkpt>
      <trkpt lat="43.53424" lon="5.57937">
        <ele>765.7</ele>
        <time>2012-03-28T13:34:03Z</time>
      </trkpt>
      <trkpt lat="43.53432" lon="5.57936">
        <ele>763.4</ele>
        <time>2012-03-28T13:34:10Z</time>
      </trkpt>
      <trkpt lat="43.53441" lon="5.57937">
        <ele>762</ele>
        <time>2012-03-28T13:34:18Z</time>
      </trkpt>
      <trkpt lat="43.53442" lon="5.57937">
        <ele>761.7</ele>
        <time>2012-03-28T13:34:19Z</time>
      </trkpt>
      <trkpt lat="43.53458" lon="5.57939">
        <ele>762.7</ele>
        <time>2012-03-28T13:34:34Z</time>
      </trkpt>
      <trkpt lat="43.53466" lon="5.57941">
        <ele>758.5</ele>
        <time>2012-03-28T13:34:43Z</time>
      </trkpt>
      <trkpt lat="43.53473" lon="5.57946">
        <ele>754.5</ele>
        <time>2012-03-28T13:34:52Z</time>
      </trkpt>
      <trkpt lat="43.53482" lon="5.57947">
        <ele>752.4</ele>
        <time>2012-03-28T13:35:01Z</time>
      </trkpt>
      <trkpt lat="43.5349" lon="5.5795">
        <ele>750.2</ele>
        <time>2012-03-28T13:35:10Z</time>
      </trkpt>
      <trkpt lat="43.53498" lon="5.5795">
        <ele>750.2</ele>
        <time>2012-03-28T13:35:19Z</time>
      </trkpt>
      <trkpt lat="43.53507" lon="5.57948">
        <ele>745.5</ele>
        <time>2012-03-28T13:35:26Z</time>
      </trkpt>
      <trkpt lat="43.53507" lon="5.57947">
        <ele>745.2</ele>
        <time>2012-03-28T13:35:27Z</time>
      </trkpt>
      <trkpt lat="43.53523" lon="5.57942">
        <ele>742</ele>
        <time>2012-03-28T13:35:46Z</time>
      </trkpt>
      <trkpt lat="43.53529" lon="5.57934">
        <ele>742.2</ele>
        <time>2012-03-28T13:36:00Z</time>
      </trkpt>
      <trkpt lat="43.53537" lon="5.57931">
        <ele>742.7</ele>
        <time>2012-03-28T13:36:08Z</time>
      </trkpt>
      <trkpt lat="43.53545" lon="5.57927">
        <ele>743.5</ele>
        <time>2012-03-28T13:36:19Z</time>
      </trkpt>
      <trkpt lat="43.53553" lon="5.57926">
        <ele>741.7</ele>
        <time>2012-03-28T13:36:27Z</time>
      </trkpt>
      <trkpt lat="43.53554" lon="5.57926">
        <ele>742</ele>
        <time>2012-03-28T13:36:28Z</time>
      </trkpt>
      <trkpt lat="43.53569" lon="5.57928">
        <ele>735.5</ele>
        <time>2012-03-28T13:36:43Z</time>
      </trkpt>
      <trkpt lat="43.53578" lon="5.5793">
        <ele>734.5</ele>
        <time>2012-03-28T13:36:53Z</time>
      </trkpt>
      <trkpt lat="43.53585" lon="5.57923">
        <ele>732.7</ele>
        <time>2012-03-28T13:37:06Z</time>
      </trkpt>
      <trkpt lat="43.53593" lon="5.57921">
        <ele>729.4</ele>
        <time>2012-03-28T13:37:18Z</time>
      </trkpt>
      <trkpt lat="43.536" lon="5.57928">
        <ele>729.4</ele>
        <time>2012-03-28T13:37:28Z</time>
      </trkpt>
      <trkpt lat="43.53608" lon="5.57931">
        <ele>724</ele>
        <time>2012-03-28T13:38:01Z</time>
      </trkpt>
      <trkpt lat="43.53609" lon="5.57932">
        <ele>723.5</ele>
        <time>2012-03-28T13:38:02Z</time>
      </trkpt>
    </trkseg>
  </trk>
  <trk>
    <name><![CDATA[2012-03-28-02]]></name>
    <trkseg>
      <trkpt lat="43.53614" lon="5.57934">
        <ele>705.7</ele>
        <time>2012-03-28T13:43:13Z</time>
      </trkpt>
      <trkpt lat="43.53622" lon="5.57933">
        <ele>711.2</ele>
        <time>2012-03-28T13:44:34Z</time>
      </trkpt>
      <trkpt lat="43.53628" lon="5.57943">
        <ele>729.7</ele>
        <time>2012-03-28T13:47:01Z</time>
      </trkpt>
      <trkpt lat="43.53634" lon="5.5795">
        <ele>728.2</ele>
        <time>2012-03-28T13:47:10Z</time>
      </trkpt>
      <trkpt lat="43.53642" lon="5.57944">
        <ele>719.2</ele>
        <time>2012-03-28T13:47:22Z</time>
      </trkpt>
      <trkpt lat="43.53645" lon="5.57933">
        <ele>714</ele>
        <time>2012-03-28T13:47:30Z</time>
      </trkpt>
      <trkpt lat="43.5365" lon="5.57923">
        <ele>708</ele>
        <time>2012-03-28T13:47:39Z</time>
      </trkpt>
      <trkpt lat="43.53657" lon="5.57916">
        <ele>706.7</ele>
        <time>2012-03-28T13:47:48Z</time>
      </trkpt>
      <trkpt lat="43.53661" lon="5.57907">
        <ele>702.9</ele>
        <time>2012-03-28T13:47:59Z</time>
      </trkpt>
      <trkpt lat="43.53668" lon="5.579">
        <ele>701.4</ele>
        <time>2012-03-28T13:48:07Z</time>
      </trkpt>
      <trkpt lat="43.53677" lon="5.57897">
        <ele>699.9</ele>
        <time>2012-03-28T13:48:14Z</time>
      </trkpt>
      <trkpt lat="43.53685" lon="5.57894">
        <ele>697.7</ele>
        <time>2012-03-28T13:48:21Z</time>
      </trkpt>
      <trkpt lat="43.53693" lon="5.57889">
        <ele>695.2</ele>
        <time>2012-03-28T13:48:29Z</time>
      </trkpt>
      <trkpt lat="43.53701" lon="5.57884">
        <ele>690.7</ele>
        <time>2012-03-28T13:48:38Z</time>
      </trkpt>
      <trkpt lat="43.53708" lon="5.57878">
        <ele>687.7</ele>
        <time>2012-03-28T13:48:46Z</time>
      </trkpt>
      <trkpt lat="43.53715" lon="5.5787">
        <ele>684.4</ele>
        <time>2012-03-28T13:48:54Z</time>
      </trkpt>
      <trkpt lat="43.53722" lon="5.57865">
        <ele>685.2</ele>
        <time>2012-03-28T13:49:01Z</time>
      </trkpt>
      <trkpt lat="43.53729" lon="5.57861">
        <ele>684.9</ele>
        <time>2012-03-28T13:49:06Z</time>
      </trkpt>
      <trkpt lat="43.53737" lon="5.57855">
        <ele>685.2</ele>
        <time>2012-03-28T13:49:12Z</time>
      </trkpt>
      <trkpt lat="43.53743" lon="5.57848">
        <ele>684.5</ele>
        <time>2012-03-28T13:49:19Z</time>
      </trkpt>
      <trkpt lat="43.53749" lon="5.57838">
        <ele>684</ele>
        <time>2012-03-28T13:49:26Z</time>
      </trkpt>
      <trkpt lat="43.53753" lon="5.57829">
        <ele>683.4</ele>
        <time>2012-03-28T13:49:34Z</time>
      </trkpt>
      <trkpt lat="43.53759" lon="5.5782">
        <ele>682</ele>
        <time>2012-03-28T13:49:41Z</time>
      </trkpt>
      <trkpt lat="43.53765" lon="5.57813">
        <ele>683</ele>
        <time>2012-03-28T13:49:47Z</time>
      </trkpt>
      <trkpt lat="43.53772" lon="5.57806">
        <ele>681.9</ele>
        <time>2012-03-28T13:49:54Z</time>
      </trkpt>
      <trkpt lat="43.53778" lon="5.57798">
        <ele>680.2</ele>
        <time>2012-03-28T13:50:01Z</time>
      </trkpt>
      <trkpt lat="43.53785" lon="5.57792">
        <ele>676.2</ele>
        <time>2012-03-28T13:50:07Z</time>
      </trkpt>
      <trkpt lat="43.53793" lon="5.57787">
        <ele>675.9</ele>
        <time>2012-03-28T13:50:15Z</time>
      </trkpt>
      <trkpt lat="43.53801" lon="5.57783">
        <ele>675.4</ele>
        <time>2012-03-28T13:50:22Z</time>
      </trkpt>
      <trkpt lat="43.53808" lon="5.5778">
        <ele>675.2</ele>
        <time>2012-03-28T13:50:28Z</time>
      </trkpt>
      <trkpt lat="43.53816" lon="5.57776">
        <ele>675.5</ele>
        <time>2012-03-28T13:50:34Z</time>
      </trkpt>
      <trkpt lat="43.53824" lon="5.57774">
        <ele>674.7</ele>
        <time>2012-03-28T13:50:39Z</time>
      </trkpt>
      <trkpt lat="43.53833" lon="5.57772">
        <ele>674</ele>
        <time>2012-03-28T13:50:46Z</time>
      </trkpt>
      <trkpt lat="43.53841" lon="5.57769">
        <ele>673</ele>
        <time>2012-03-28T13:50:52Z</time>
      </trkpt>
      <trkpt lat="43.53848" lon="5.57765">
        <ele>670.9</ele>
        <time>2012-03-28T13:50:59Z</time>
      </trkpt>
      <trkpt lat="43.53856" lon="5.5776">
        <ele>667.5</ele>
        <time>2012-03-28T13:51:07Z</time>
      </trkpt>
      <trkpt lat="43.53865" lon="5.57757">
        <ele>665.9</ele>
        <time>2012-03-28T13:51:17Z</time>
      </trkpt>
      <trkpt lat="43.53873" lon="5.57754">
        <ele>662.9</ele>
        <time>2012-03-28T13:51:28Z</time>
      </trkpt>
      <trkpt lat="43.53881" lon="5.5775">
        <ele>659.2</ele>
        <time>2012-03-28T13:51:36Z</time>
      </trkpt>
      <trkpt lat="43.53889" lon="5.57748">
        <ele>659.4</ele>
        <time>2012-03-28T13:51:42Z</time>
      </trkpt>
      <trkpt lat="43.53896" lon="5.57743">
        <ele>657.4</ele>
        <time>2012-03-28T13:51:50Z</time>
      </trkpt>
      <trkpt lat="43.53904" lon="5.57738">
        <ele>655.4</ele>
        <time>2012-03-28T13:51:59Z</time>
      </trkpt>
      <trkpt lat="43.53913" lon="5.57737">
        <ele>654.5</ele>
        <time>2012-03-28T13:52:08Z</time>
      </trkpt>
      <trkpt lat="43.53922" lon="5.57735">
        <ele>654</ele>
        <time>2012-03-28T13:52:16Z</time>
      </trkpt>
      <trkpt lat="43.5393" lon="5.57733">
        <ele>650.5</ele>
        <time>2012-03-28T13:52:24Z</time>
      </trkpt>
      <trkpt lat="43.53938" lon="5.57732">
        <ele>648.5</ele>
        <time>2012-03-28T13:52:33Z</time>
      </trkpt>
      <trkpt lat="43.53946" lon="5.57731">
        <ele>647.9</ele>
        <time>2012-03-28T13:52:41Z</time>
      </trkpt>
      <trkpt lat="43.53955" lon="5.57729">
        <ele>646</ele>
        <time>2012-03-28T13:52:48Z</time>
      </trkpt>
      <trkpt lat="43.53963" lon="5.57726">
        <ele>645</ele>
        <time>2012-03-28T13:52:56Z</time>
      </trkpt>
      <trkpt lat="43.53971" lon="5.57723">
        <ele>644.2</ele>
        <time>2012-03-28T13:53:04Z</time>
      </trkpt>
      <trkpt lat="43.53979" lon="5.57719">
        <ele>642</ele>
        <time>2012-03-28T13:53:13Z</time>
      </trkpt>
      <trkpt lat="43.53988" lon="5.57716">
        <ele>641</ele>
        <time>2012-03-28T13:53:20Z</time>
      </trkpt>
      <trkpt lat="43.53996" lon="5.57716">
        <ele>639.7</ele>
        <time>2012-03-28T13:53:29Z</time>
      </trkpt>
      <trkpt lat="43.54005" lon="5.57712">
        <ele>637.5</ele>
        <time>2012-03-28T13:53:38Z</time>
      </trkpt>
      <trkpt lat="43.54013" lon="5.5771">
        <ele>636.9</ele>
        <time>2012-03-28T13:53:46Z</time>
      </trkpt>
      <trkpt lat="43.54021" lon="5.57706">
        <ele>635.7</ele>
        <time>2012-03-28T13:53:54Z</time>
      </trkpt>
      <trkpt lat="43.54029" lon="5.57706">
        <ele>634.5</ele>
        <time>2012-03-28T13:54:01Z</time>
      </trkpt>
      <trkpt lat="43.54038" lon="5.57705">
        <ele>633.2</ele>
        <time>2012-03-28T13:54:10Z</time>
      </trkpt>
      <trkpt lat="43.54047" lon="5.57706">
        <ele>633</ele>
        <time>2012-03-28T13:54:18Z</time>
      </trkpt>
      <trkpt lat="43.54056" lon="5.57705">
        <ele>631.5</ele>
        <time>2012-03-28T13:54:27Z</time>
      </trkpt>
      <trkpt lat="43.54064" lon="5.57704">
        <ele>627.5</ele>
        <time>2012-03-28T13:54:35Z</time>
      </trkpt>
      <trkpt lat="43.54072" lon="5.57704">
        <ele>624.7</ele>
        <time>2012-03-28T13:54:42Z</time>
      </trkpt>
      <trkpt lat="43.54081" lon="5.57702">
        <ele>622.9</ele>
        <time>2012-03-28T13:54:52Z</time>
      </trkpt>
      <trkpt lat="43.54088" lon="5.577">
        <ele>622.9</ele>
        <time>2012-03-28T13:54:58Z</time>
      </trkpt>
      <trkpt lat="43.54096" lon="5.57694">
        <ele>621</ele>
        <time>2012-03-28T13:55:06Z</time>
      </trkpt>
      <trkpt lat="43.54104" lon="5.57694">
        <ele>618.7</ele>
        <time>2012-03-28T13:55:13Z</time>
      </trkpt>
      <trkpt lat="43.54111" lon="5.57688">
        <ele>614.2</ele>
        <time>2012-03-28T13:55:25Z</time>
      </trkpt>
      <trkpt lat="43.54119" lon="5.57682">
        <ele>611.5</ele>
        <time>2012-03-28T13:55:36Z</time>
      </trkpt>
      <trkpt lat="43.54127" lon="5.57682">
        <ele>608.4</ele>
        <time>2012-03-28T13:55:47Z</time>
      </trkpt>
      <trkpt lat="43.54135" lon="5.57688">
        <ele>608.7</ele>
        <time>2012-03-28T13:55:56Z</time>
      </trkpt>
      <trkpt lat="43.54143" lon="5.5769">
        <ele>604</ele>
        <time>2012-03-28T13:56:05Z</time>
      </trkpt>
      <trkpt lat="43.54152" lon="5.57694">
        <ele>602.7</ele>
        <time>2012-03-28T13:56:15Z</time>
      </trkpt>
      <trkpt lat="43.54158" lon="5.57702">
        <ele>604.9</ele>
        <time>2012-03-28T13:56:27Z</time>
      </trkpt>
      <trkpt lat="43.54164" lon="5.57709">
        <ele>608.5</ele>
        <time>2012-03-28T13:56:36Z</time>
      </trkpt>
      <trkpt lat="43.54172" lon="5.57708">
        <ele>605</ele>
        <time>2012-03-28T13:56:48Z</time>
      </trkpt>
      <trkpt lat="43.5418" lon="5.57703">
        <ele>599.4</ele>
        <time>2012-03-28T13:56:58Z</time>
      </trkpt>
      <trkpt lat="43.54185" lon="5.57694">
        <ele>595.5</ele>
        <time>2012-03-28T13:57:05Z</time>
      </trkpt>
      <trkpt lat="43.5419" lon="5.57685">
        <ele>591.4</ele>
        <time>2012-03-28T13:57:12Z</time>
      </trkpt>
      <trkpt lat="43.54194" lon="5.57675">
        <ele>587</ele>
        <time>2012-03-28T13:57:21Z</time>
      </trkpt>
      <trkpt lat="43.54198" lon="5.57665">
        <ele>584.7</ele>
        <time>2012-03-28T13:57:31Z</time>
      </trkpt>
      <trkpt lat="43.54201" lon="5.57654">
        <ele>583</ele>
        <time>2012-03-28T13:57:41Z</time>
      </trkpt>
      <trkpt lat="43.5421" lon="5.57653">
        <ele>579.7</ele>
        <time>2012-03-28T13:57:52Z</time>
      </trkpt>
      <trkpt lat="43.54218" lon="5.57658">
        <ele>576</ele>
        <time>2012-03-28T13:58:01Z</time>
      </trkpt>
      <trkpt lat="43.54225" lon="5.57662">
        <ele>574.5</ele>
        <time>2012-03-28T13:58:10Z</time>
      </trkpt>
      <trkpt lat="43.54232" lon="5.57668">
        <ele>571</ele>
        <time>2012-03-28T13:58:19Z</time>
      </trkpt>
      <trkpt lat="43.54238" lon="5.57675">
        <ele>570.5</ele>
        <time>2012-03-28T13:58:27Z</time>
      </trkpt>
      <trkpt lat="43.54245" lon="5.57683">
        <ele>569.2</ele>
        <time>2012-03-28T13:58:36Z</time>
      </trkpt>
      <trkpt lat="43.54251" lon="5.5769">
        <ele>567.7</ele>
        <time>2012-03-28T13:58:43Z</time>
      </trkpt>
      <trkpt lat="43.54255" lon="5.57701">
        <ele>565.2</ele>
        <time>2012-03-28T13:58:54Z</time>
      </trkpt>
      <trkpt lat="43.54263" lon="5.57704">
        <ele>560.2</ele>
        <time>2012-03-28T13:59:10Z</time>
      </trkpt>
      <trkpt lat="43.5427" lon="5.57696">
        <ele>558.5</ele>
        <time>2012-03-28T13:59:20Z</time>
      </trkpt>
      <trkpt lat="43.54277" lon="5.57688">
        <ele>556.7</ele>
        <time>2012-03-28T13:59:31Z</time>
      </trkpt>
      <trkpt lat="43.54285" lon="5.57682">
        <ele>556</ele>
        <time>2012-03-28T13:59:44Z</time>
      </trkpt>
      <trkpt lat="43.54291" lon="5.5769">
        <ele>552.7</ele>
        <time>2012-03-28T13:59:54Z</time>
      </trkpt>
      <trkpt lat="43.54296" lon="5.57701">
        <ele>544.4</ele>
        <time>2012-03-28T14:00:06Z</time>
      </trkpt>
      <trkpt lat="43.54298" lon="5.57712">
        <ele>536.4</ele>
        <time>2012-03-28T14:00:17Z</time>
      </trkpt>
      <trkpt lat="43.54298" lon="5.57723">
        <ele>533.5</ele>
        <time>2012-03-28T14:00:25Z</time>
      </trkpt>
      <trkpt lat="43.54297" lon="5.57735">
        <ele>536.7</ele>
        <time>2012-03-28T14:00:31Z</time>
      </trkpt>
      <trkpt lat="43.54296" lon="5.57746">
        <ele>536.9</ele>
        <time>2012-03-28T14:00:38Z</time>
      </trkpt>
      <trkpt lat="43.54296" lon="5.57756">
        <ele>535</ele>
        <time>2012-03-28T14:00:45Z</time>
      </trkpt>
      <trkpt lat="43.54297" lon="5.57768">
        <ele>534.2</ele>
        <time>2012-03-28T14:00:52Z</time>
      </trkpt>
      <trkpt lat="43.54293" lon="5.57777">
        <ele>531.7</ele>
        <time>2012-03-28T14:00:58Z</time>
      </trkpt>
      <trkpt lat="43.54288" lon="5.57788">
        <ele>531.5</ele>
        <time>2012-03-28T14:01:05Z</time>
      </trkpt>
      <trkpt lat="43.54284" lon="5.57798">
        <ele>529.9</ele>
        <time>2012-03-28T14:01:13Z</time>
      </trkpt>
      <trkpt lat="43.54285" lon="5.5781">
        <ele>530.4</ele>
        <time>2012-03-28T14:01:23Z</time>
      </trkpt>
      <trkpt lat="43.54284" lon="5.57822">
        <ele>541.5</ele>
        <time>2012-03-28T14:01:34Z</time>
      </trkpt>
      <trkpt lat="43.54284" lon="5.5781">
        <ele>532.7</ele>
        <time>2012-03-28T14:04:02Z</time>
      </trkpt>
      <trkpt lat="43.54292" lon="5.57805">
        <ele>530.2</ele>
        <time>2012-03-28T14:06:01Z</time>
      </trkpt>
      <trkpt lat="43.543" lon="5.57805">
        <ele>528.9</ele>
        <time>2012-03-28T14:06:10Z</time>
      </trkpt>
      <trkpt lat="43.54309" lon="5.57803">
        <ele>527.2</ele>
        <time>2012-03-28T14:06:18Z</time>
      </trkpt>
      <trkpt lat="43.54317" lon="5.578">
        <ele>524.9</ele>
        <time>2012-03-28T14:06:27Z</time>
      </trkpt>
      <trkpt lat="43.54325" lon="5.57797">
        <ele>523.7</ele>
        <time>2012-03-28T14:06:36Z</time>
      </trkpt>
      <trkpt lat="43.54331" lon="5.57791">
        <ele>521.7</ele>
        <time>2012-03-28T14:06:43Z</time>
      </trkpt>
      <trkpt lat="43.54339" lon="5.57785">
        <ele>519</ele>
        <time>2012-03-28T14:06:50Z</time>
      </trkpt>
      <trkpt lat="43.54347" lon="5.57783">
        <ele>515.9</ele>
        <time>2012-03-28T14:06:58Z</time>
      </trkpt>
      <trkpt lat="43.54355" lon="5.57779">
        <ele>513.7</ele>
        <time>2012-03-28T14:07:06Z</time>
      </trkpt>
      <trkpt lat="43.54363" lon="5.57776">
        <ele>511.8</ele>
        <time>2012-03-28T14:07:13Z</time>
      </trkpt>
      <trkpt lat="43.54371" lon="5.57773">
        <ele>509.6</ele>
        <time>2012-03-28T14:07:21Z</time>
      </trkpt>
      <trkpt lat="43.5438" lon="5.57771">
        <ele>507.3</ele>
        <time>2012-03-28T14:07:30Z</time>
      </trkpt>
      <trkpt lat="43.54388" lon="5.57767">
        <ele>505.7</ele>
        <time>2012-03-28T14:07:38Z</time>
      </trkpt>
      <trkpt lat="43.54397" lon="5.57764">
        <ele>504.2</ele>
        <time>2012-03-28T14:07:46Z</time>
      </trkpt>
      <trkpt lat="43.54405" lon="5.57762">
        <ele>504</ele>
        <time>2012-03-28T14:07:52Z</time>
      </trkpt>
      <trkpt lat="43.54412" lon="5.57759">
        <ele>502.7</ele>
        <time>2012-03-28T14:07:58Z</time>
      </trkpt>
      <trkpt lat="43.5442" lon="5.57756">
        <ele>501.7</ele>
        <time>2012-03-28T14:08:05Z</time>
      </trkpt>
      <trkpt lat="43.54428" lon="5.57753">
        <ele>500.2</ele>
        <time>2012-03-28T14:08:12Z</time>
      </trkpt>
      <trkpt lat="43.54435" lon="5.57749">
        <ele>499.2</ele>
        <time>2012-03-28T14:08:18Z</time>
      </trkpt>
      <trkpt lat="43.54442" lon="5.57743">
        <ele>498.6</ele>
        <time>2012-03-28T14:08:25Z</time>
      </trkpt>
      <trkpt lat="43.54449" lon="5.57737">
        <ele>498.5</ele>
        <time>2012-03-28T14:08:32Z</time>
      </trkpt>
      <trkpt lat="43.54458" lon="5.57738">
        <ele>497.2</ele>
        <time>2012-03-28T14:08:39Z</time>
      </trkpt>
      <trkpt lat="43.54467" lon="5.57739">
        <ele>494.5</ele>
        <time>2012-03-28T14:08:48Z</time>
      </trkpt>
      <trkpt lat="43.54475" lon="5.57737">
        <ele>493.7</ele>
        <time>2012-03-28T14:08:54Z</time>
      </trkpt>
      <trkpt lat="43.54483" lon="5.57733">
        <ele>491.5</ele>
        <time>2012-03-28T14:09:02Z</time>
      </trkpt>
      <trkpt lat="43.54491" lon="5.5773">
        <ele>491.2</ele>
        <time>2012-03-28T14:09:09Z</time>
      </trkpt>
      <trkpt lat="43.54499" lon="5.57729">
        <ele>490.1</ele>
        <time>2012-03-28T14:09:17Z</time>
      </trkpt>
      <trkpt lat="43.54507" lon="5.57725">
        <ele>488.6</ele>
        <time>2012-03-28T14:09:24Z</time>
      </trkpt>
      <trkpt lat="43.54515" lon="5.57728">
        <ele>486.2</ele>
        <time>2012-03-28T14:09:32Z</time>
      </trkpt>
      <trkpt lat="43.54523" lon="5.57731">
        <ele>483.2</ele>
        <time>2012-03-28T14:09:40Z</time>
      </trkpt>
      <trkpt lat="43.54531" lon="5.57735">
        <ele>480.3</ele>
        <time>2012-03-28T14:09:48Z</time>
      </trkpt>
      <trkpt lat="43.54539" lon="5.57736">
        <ele>479.8</ele>
        <time>2012-03-28T14:09:54Z</time>
      </trkpt>
      <trkpt lat="43.54548" lon="5.57738">
        <ele>479.2</ele>
        <time>2012-03-28T14:10:01Z</time>
      </trkpt>
      <trkpt lat="43.54556" lon="5.57738">
        <ele>475.2</ele>
        <time>2012-03-28T14:10:09Z</time>
      </trkpt>
      <trkpt lat="43.54564" lon="5.57739">
        <ele>474</ele>
        <time>2012-03-28T14:10:16Z</time>
      </trkpt>
      <trkpt lat="43.54572" lon="5.57737">
        <ele>473</ele>
        <time>2012-03-28T14:10:22Z</time>
      </trkpt>
      <trkpt lat="43.5458" lon="5.57732">
        <ele>471.8</ele>
        <time>2012-03-28T14:10:30Z</time>
      </trkpt>
      <trkpt lat="43.54588" lon="5.57733">
        <ele>471.8</ele>
        <time>2012-03-28T14:10:36Z</time>
      </trkpt>
      <trkpt lat="43.54596" lon="5.57736">
        <ele>470.3</ele>
        <time>2012-03-28T14:10:43Z</time>
      </trkpt>
      <trkpt lat="43.54605" lon="5.57734">
        <ele>468.2</ele>
        <time>2012-03-28T14:10:51Z</time>
      </trkpt>
      <trkpt lat="43.54612" lon="5.57731">
        <ele>467.6</ele>
        <time>2012-03-28T14:10:57Z</time>
      </trkpt>
      <trkpt lat="43.54618" lon="5.57725">
        <ele>467.1</ele>
        <time>2012-03-28T14:11:03Z</time>
      </trkpt>
      <trkpt lat="43.54624" lon="5.57718">
        <ele>466.7</ele>
        <time>2012-03-28T14:11:09Z</time>
      </trkpt>
      <trkpt lat="43.54632" lon="5.57717">
        <ele>465.7</ele>
        <time>2012-03-28T14:11:16Z</time>
      </trkpt>
      <trkpt lat="43.54641" lon="5.57717">
        <ele>464.6</ele>
        <time>2012-03-28T14:11:23Z</time>
      </trkpt>
      <trkpt lat="43.54648" lon="5.57711">
        <ele>464.7</ele>
        <time>2012-03-28T14:11:30Z</time>
      </trkpt>
      <trkpt lat="43.54654" lon="5.57702">
        <ele>464.7</ele>
        <time>2012-03-28T14:11:37Z</time>
      </trkpt>
      <trkpt lat="43.54662" lon="5.57699">
        <ele>465</ele>
        <time>2012-03-28T14:11:43Z</time>
      </trkpt>
      <trkpt lat="43.54671" lon="5.577">
        <ele>462.7</ele>
        <time>2012-03-28T14:11:51Z</time>
      </trkpt>
      <trkpt lat="43.54679" lon="5.57699">
        <ele>460.1</ele>
        <time>2012-03-28T14:11:59Z</time>
      </trkpt>
      <trkpt lat="43.54687" lon="5.57697">
        <ele>458.7</ele>
        <time>2012-03-28T14:12:06Z</time>
      </trkpt>
      <trkpt lat="43.54695" lon="5.57691">
        <ele>457.7</ele>
        <time>2012-03-28T14:12:13Z</time>
      </trkpt>
      <trkpt lat="43.54703" lon="5.57685">
        <ele>456</ele>
        <time>2012-03-28T14:12:21Z</time>
      </trkpt>
      <trkpt lat="43.54711" lon="5.57681">
        <ele>455.7</ele>
        <time>2012-03-28T14:12:27Z</time>
      </trkpt>
      <trkpt lat="43.54718" lon="5.57686">
        <ele>455</ele>
        <time>2012-03-28T14:12:32Z</time>
      </trkpt>
      <trkpt lat="43.54725" lon="5.57693">
        <ele>454</ele>
        <time>2012-03-28T14:12:38Z</time>
      </trkpt>
      <trkpt lat="43.54731" lon="5.577">
        <ele>452</ele>
        <time>2012-03-28T14:12:44Z</time>
      </trkpt>
      <trkpt lat="43.54738" lon="5.57704">
        <ele>450.8</ele>
        <time>2012-03-28T14:12:50Z</time>
      </trkpt>
      <trkpt lat="43.54745" lon="5.57709">
        <ele>448.7</ele>
        <time>2012-03-28T14:12:56Z</time>
      </trkpt>
      <trkpt lat="43.54752" lon="5.57718">
        <ele>447.5</ele>
        <time>2012-03-28T14:13:02Z</time>
      </trkpt>
      <trkpt lat="43.54757" lon="5.57726">
        <ele>446.1</ele>
        <time>2012-03-28T14:13:08Z</time>
      </trkpt>
      <trkpt lat="43.5476" lon="5.57737">
        <ele>444.7</ele>
        <time>2012-03-28T14:13:15Z</time>
      </trkpt>
      <trkpt lat="43.54758" lon="5.57748">
        <ele>444.7</ele>
        <time>2012-03-28T14:13:22Z</time>
      </trkpt>
      <trkpt lat="43.54757" lon="5.57759">
        <ele>447.1</ele>
        <time>2012-03-28T14:13:27Z</time>
      </trkpt>
      <trkpt lat="43.54755" lon="5.57771">
        <ele>450.7</ele>
        <time>2012-03-28T14:13:32Z</time>
      </trkpt>
      <trkpt lat="43.54753" lon="5.57783">
        <ele>454</ele>
        <time>2012-03-28T14:13:37Z</time>
      </trkpt>
      <trkpt lat="43.54751" lon="5.57793">
        <ele>455.2</ele>
        <time>2012-03-28T14:13:43Z</time>
      </trkpt>
      <trkpt lat="43.54748" lon="5.57804">
        <ele>452.7</ele>
        <time>2012-03-28T14:13:50Z</time>
      </trkpt>
      <trkpt lat="43.54747" lon="5.57815">
        <ele>449.8</ele>
        <time>2012-03-28T14:13:57Z</time>
      </trkpt>
      <trkpt lat="43.5475" lon="5.57826">
        <ele>446.3</ele>
        <time>2012-03-28T14:14:04Z</time>
      </trkpt>
      <trkpt lat="43.54753" lon="5.57836">
        <ele>446.2</ele>
        <time>2012-03-28T14:14:10Z</time>
      </trkpt>
      <trkpt lat="43.54758" lon="5.57846">
        <ele>444.2</ele>
        <time>2012-03-28T14:14:17Z</time>
      </trkpt>
      <trkpt lat="43.54759" lon="5.57858">
        <ele>441.7</ele>
        <time>2012-03-28T14:14:25Z</time>
      </trkpt>
      <trkpt lat="43.5476" lon="5.57871">
        <ele>442.1</ele>
        <time>2012-03-28T14:14:32Z</time>
      </trkpt>
      <trkpt lat="43.54757" lon="5.57882">
        <ele>441.7</ele>
        <time>2012-03-28T14:14:38Z</time>
      </trkpt>
      <trkpt lat="43.54754" lon="5.57893">
        <ele>441.6</ele>
        <time>2012-03-28T14:14:45Z</time>
      </trkpt>
      <trkpt lat="43.54752" lon="5.57902">
        <ele>441.8</ele>
        <time>2012-03-28T14:14:51Z</time>
      </trkpt>
      <trkpt lat="43.54751" lon="5.57914">
        <ele>440.5</ele>
        <time>2012-03-28T14:14:58Z</time>
      </trkpt>
      <trkpt lat="43.54751" lon="5.57925">
        <ele>439.7</ele>
        <time>2012-03-28T14:15:04Z</time>
      </trkpt>
      <trkpt lat="43.54752" lon="5.57937">
        <ele>440.7</ele>
        <time>2012-03-28T14:15:09Z</time>
      </trkpt>
      <trkpt lat="43.54754" lon="5.57948">
        <ele>443.3</ele>
        <time>2012-03-28T14:15:14Z</time>
      </trkpt>
      <trkpt lat="43.5476" lon="5.57956">
        <ele>443.1</ele>
        <time>2012-03-28T14:15:21Z</time>
      </trkpt>
      <trkpt lat="43.54767" lon="5.57963">
        <ele>439.3</ele>
        <time>2012-03-28T14:15:28Z</time>
      </trkpt>
      <trkpt lat="43.54775" lon="5.57968">
        <ele>434.2</ele>
        <time>2012-03-28T14:15:35Z</time>
      </trkpt>
      <trkpt lat="43.54784" lon="5.57968">
        <ele>433.7</ele>
        <time>2012-03-28T14:15:41Z</time>
      </trkpt>
      <trkpt lat="43.54793" lon="5.57966">
        <ele>435.7</ele>
        <time>2012-03-28T14:15:46Z</time>
      </trkpt>
      <trkpt lat="43.54801" lon="5.57962">
        <ele>435.2</ele>
        <time>2012-03-28T14:15:54Z</time>
      </trkpt>
      <trkpt lat="43.54809" lon="5.57961">
        <ele>435.2</ele>
        <time>2012-03-28T14:16:02Z</time>
      </trkpt>
      <trkpt lat="43.54818" lon="5.57963">
        <ele>435.5</ele>
        <time>2012-03-28T14:16:09Z</time>
      </trkpt>
      <trkpt lat="43.54826" lon="5.57961">
        <ele>434.6</ele>
        <time>2012-03-28T14:16:16Z</time>
      </trkpt>
      <trkpt lat="43.54833" lon="5.57959">
        <ele>436.5</ele>
        <time>2012-03-28T14:16:21Z</time>
      </trkpt>
      <trkpt lat="43.54841" lon="5.57956">
        <ele>435.6</ele>
        <time>2012-03-28T14:16:28Z</time>
      </trkpt>
      <trkpt lat="43.54847" lon="5.5795">
        <ele>435.2</ele>
        <time>2012-03-28T14:16:34Z</time>
      </trkpt>
      <trkpt lat="43.54855" lon="5.57946">
        <ele>436.2</ele>
        <time>2012-03-28T14:16:41Z</time>
      </trkpt>
      <trkpt lat="43.54864" lon="5.57946">
        <ele>436.5</ele>
        <time>2012-03-28T14:16:48Z</time>
      </trkpt>
      <trkpt lat="43.54872" lon="5.5795">
        <ele>436.2</ele>
        <time>2012-03-28T14:16:55Z</time>
      </trkpt>
      <trkpt lat="43.5488" lon="5.57951">
        <ele>436.5</ele>
        <time>2012-03-28T14:17:01Z</time>
      </trkpt>
      <trkpt lat="43.54888" lon="5.57951">
        <ele>436.2</ele>
        <time>2012-03-28T14:17:07Z</time>
      </trkpt>
      <trkpt lat="43.54897" lon="5.5795">
        <ele>436.6</ele>
        <time>2012-03-28T14:17:15Z</time>
      </trkpt>
      <trkpt lat="43.54905" lon="5.57952">
        <ele>437</ele>
        <time>2012-03-28T14:17:22Z</time>
      </trkpt>
      <trkpt lat="43.54911" lon="5.57961">
        <ele>432.8</ele>
        <time>2012-03-28T14:17:29Z</time>
      </trkpt>
      <trkpt lat="43.54916" lon="5.57969">
        <ele>428.3</ele>
        <time>2012-03-28T14:17:36Z</time>
      </trkpt>
      <trkpt lat="43.54921" lon="5.57978">
        <ele>425.2</ele>
        <time>2012-03-28T14:17:43Z</time>
      </trkpt>
      <trkpt lat="43.54925" lon="5.57987">
        <ele>424.2</ele>
        <time>2012-03-28T14:17:50Z</time>
      </trkpt>
      <trkpt lat="43.54929" lon="5.57997">
        <ele>423</ele>
        <time>2012-03-28T14:17:57Z</time>
      </trkpt>
      <trkpt lat="43.54932" lon="5.58007">
        <ele>422.2</ele>
        <time>2012-03-28T14:18:04Z</time>
      </trkpt>
      <trkpt lat="43.54936" lon="5.58017">
        <ele>421.5</ele>
        <time>2012-03-28T14:18:12Z</time>
      </trkpt>
      <trkpt lat="43.54941" lon="5.58027">
        <ele>420.1</ele>
        <time>2012-03-28T14:18:21Z</time>
      </trkpt>
      <trkpt lat="43.54946" lon="5.58037">
        <ele>416.7</ele>
        <time>2012-03-28T14:18:32Z</time>
      </trkpt>
      <trkpt lat="43.54951" lon="5.58047">
        <ele>414.1</ele>
        <time>2012-03-28T14:18:40Z</time>
      </trkpt>
      <trkpt lat="43.54956" lon="5.58056">
        <ele>412.3</ele>
        <time>2012-03-28T14:18:50Z</time>
      </trkpt>
      <trkpt lat="43.54962" lon="5.58064">
        <ele>412.6</ele>
        <time>2012-03-28T14:19:00Z</time>
      </trkpt>
      <trkpt lat="43.54967" lon="5.58074">
        <ele>409.3</ele>
        <time>2012-03-28T14:19:09Z</time>
      </trkpt>
      <trkpt lat="43.5497" lon="5.58084">
        <ele>408.5</ele>
        <time>2012-03-28T14:19:16Z</time>
      </trkpt>
      <trkpt lat="43.5497" lon="5.58096">
        <ele>405.3</ele>
        <time>2012-03-28T14:19:24Z</time>
      </trkpt>
      <trkpt lat="43.5497" lon="5.58107">
        <ele>401.8</ele>
        <time>2012-03-28T14:19:32Z</time>
      </trkpt>
      <trkpt lat="43.54971" lon="5.58119">
        <ele>398.7</ele>
        <time>2012-03-28T14:19:41Z</time>
      </trkpt>
      <trkpt lat="43.54974" lon="5.5813">
        <ele>397.1</ele>
        <time>2012-03-28T14:19:49Z</time>
      </trkpt>
      <trkpt lat="43.54977" lon="5.5814">
        <ele>398</ele>
        <time>2012-03-28T14:19:56Z</time>
      </trkpt>
      <trkpt lat="43.5498" lon="5.58151">
        <ele>397.5</ele>
        <time>2012-03-28T14:20:04Z</time>
      </trkpt>
      <trkpt lat="43.54981" lon="5.58163">
        <ele>397</ele>
        <time>2012-03-28T14:20:11Z</time>
      </trkpt>
      <trkpt lat="43.54986" lon="5.58173">
        <ele>395</ele>
        <time>2012-03-28T14:20:19Z</time>
      </trkpt>
      <trkpt lat="43.54994" lon="5.58176">
        <ele>390.6</ele>
        <time>2012-03-28T14:20:27Z</time>
      </trkpt>
      <trkpt lat="43.55" lon="5.58182">
        <ele>389.2</ele>
        <time>2012-03-28T14:20:34Z</time>
      </trkpt>
      <trkpt lat="43.55006" lon="5.5819">
        <ele>387.5</ele>
        <time>2012-03-28T14:20:41Z</time>
      </trkpt>
      <trkpt lat="43.55015" lon="5.58191">
        <ele>382.7</ele>
        <time>2012-03-28T14:20:51Z</time>
      </trkpt>
      <trkpt lat="43.55022" lon="5.58184">
        <ele>379.6</ele>
        <time>2012-03-28T14:21:00Z</time>
      </trkpt>
      <trkpt lat="43.55026" lon="5.58175">
        <ele>377.8</ele>
        <time>2012-03-28T14:21:07Z</time>
      </trkpt>
      <trkpt lat="43.5503" lon="5.58164">
        <ele>378.2</ele>
        <time>2012-03-28T14:21:15Z</time>
      </trkpt>
      <trkpt lat="43.55036" lon="5.58156">
        <ele>376.8</ele>
        <time>2012-03-28T14:21:22Z</time>
      </trkpt>
      <trkpt lat="43.55042" lon="5.5815">
        <ele>375.2</ele>
        <time>2012-03-28T14:21:28Z</time>
      </trkpt>
      <trkpt lat="43.55048" lon="5.58142">
        <ele>373.1</ele>
        <time>2012-03-28T14:21:35Z</time>
      </trkpt>
      <trkpt lat="43.55054" lon="5.58135">
        <ele>372</ele>
        <time>2012-03-28T14:21:42Z</time>
      </trkpt>
      <trkpt lat="43.55063" lon="5.58134">
        <ele>369.7</ele>
        <time>2012-03-28T14:21:52Z</time>
      </trkpt>
      <trkpt lat="43.55068" lon="5.58143">
        <ele>366.3</ele>
        <time>2012-03-28T14:22:00Z</time>
      </trkpt>
      <trkpt lat="43.5507" lon="5.58154">
        <ele>365.5</ele>
        <time>2012-03-28T14:22:07Z</time>
      </trkpt>
      <trkpt lat="43.55069" lon="5.58165">
        <ele>364.6</ele>
        <time>2012-03-28T14:22:13Z</time>
      </trkpt>
      <trkpt lat="43.55068" lon="5.58177">
        <ele>363.7</ele>
        <time>2012-03-28T14:22:22Z</time>
      </trkpt>
      <trkpt lat="43.5506" lon="5.58183">
        <ele>376.7</ele>
        <time>2012-03-28T14:24:22Z</time>
      </trkpt>
      <trkpt lat="43.55062" lon="5.58195">
        <ele>371.5</ele>
        <time>2012-03-28T14:24:57Z</time>
      </trkpt>
      <trkpt lat="43.5506" lon="5.58206">
        <ele>369.3</ele>
        <time>2012-03-28T14:25:08Z</time>
      </trkpt>
      <trkpt lat="43.55059" lon="5.58218">
        <ele>372.1</ele>
        <time>2012-03-28T14:25:16Z</time>
      </trkpt>
      <trkpt lat="43.55056" lon="5.5823">
        <ele>373.7</ele>
        <time>2012-03-28T14:25:24Z</time>
      </trkpt>
      <trkpt lat="43.55053" lon="5.58241">
        <ele>373.5</ele>
        <time>2012-03-28T14:25:32Z</time>
      </trkpt>
      <trkpt lat="43.55051" lon="5.58251">
        <ele>371.7</ele>
        <time>2012-03-28T14:25:39Z</time>
      </trkpt>
      <trkpt lat="43.55052" lon="5.58262">
        <ele>370.8</ele>
        <time>2012-03-28T14:25:46Z</time>
      </trkpt>
      <trkpt lat="43.55056" lon="5.58273">
        <ele>368.2</ele>
        <time>2012-03-28T14:25:54Z</time>
      </trkpt>
      <trkpt lat="43.55062" lon="5.5828">
        <ele>368.2</ele>
        <time>2012-03-28T14:26:02Z</time>
      </trkpt>
      <trkpt lat="43.55067" lon="5.5829">
        <ele>366.6</ele>
        <time>2012-03-28T14:26:10Z</time>
      </trkpt>
      <trkpt lat="43.55071" lon="5.583">
        <ele>364.7</ele>
        <time>2012-03-28T14:26:18Z</time>
      </trkpt>
      <trkpt lat="43.55075" lon="5.58311">
        <ele>364.1</ele>
        <time>2012-03-28T14:26:25Z</time>
      </trkpt>
      <trkpt lat="43.55077" lon="5.58321">
        <ele>362.7</ele>
        <time>2012-03-28T14:26:32Z</time>
      </trkpt>
      <trkpt lat="43.55078" lon="5.58333">
        <ele>360.1</ele>
        <time>2012-03-28T14:26:41Z</time>
      </trkpt>
      <trkpt lat="43.55076" lon="5.58343">
        <ele>356.8</ele>
        <time>2012-03-28T14:26:50Z</time>
      </trkpt>
      <trkpt lat="43.55076" lon="5.58355">
        <ele>353.7</ele>
        <time>2012-03-28T14:26:58Z</time>
      </trkpt>
      <trkpt lat="43.55081" lon="5.58363">
        <ele>350.5</ele>
        <time>2012-03-28T14:27:06Z</time>
      </trkpt>
      <trkpt lat="43.55086" lon="5.58372">
        <ele>348.2</ele>
        <time>2012-03-28T14:27:13Z</time>
      </trkpt>
      <trkpt lat="43.5509" lon="5.58381">
        <ele>354</ele>
        <time>2012-03-28T14:27:20Z</time>
      </trkpt>
      <trkpt lat="43.55097" lon="5.58388">
        <ele>354.6</ele>
        <time>2012-03-28T14:27:28Z</time>
      </trkpt>
      <trkpt lat="43.55104" lon="5.58395">
        <ele>355.2</ele>
        <time>2012-03-28T14:27:39Z</time>
      </trkpt>
      <trkpt lat="43.55102" lon="5.58407">
        <ele>354.1</ele>
        <time>2012-03-28T14:27:48Z</time>
      </trkpt>
      <trkpt lat="43.55102" lon="5.58419">
        <ele>354.6</ele>
        <time>2012-03-28T14:28:02Z</time>
      </trkpt>
      <trkpt lat="43.55101" lon="5.58431">
        <ele>353.7</ele>
        <time>2012-03-28T14:28:36Z</time>
      </trkpt>
      <trkpt lat="43.55108" lon="5.58427">
        <ele>361.7</ele>
        <time>2012-03-28T14:31:11Z</time>
      </trkpt>
      <trkpt lat="43.55117" lon="5.58424">
        <ele>361.7</ele>
        <time>2012-03-28T14:31:20Z</time>
      </trkpt>
      <trkpt lat="43.55125" lon="5.58422">
        <ele>361.2</ele>
        <time>2012-03-28T14:31:29Z</time>
      </trkpt>
      <trkpt lat="43.55134" lon="5.5842">
        <ele>357.2</ele>
        <time>2012-03-28T14:31:37Z</time>
      </trkpt>
      <trkpt lat="43.55142" lon="5.58417">
        <ele>358.2</ele>
        <time>2012-03-28T14:31:44Z</time>
      </trkpt>
      <trkpt lat="43.5515" lon="5.58413">
        <ele>358.2</ele>
        <time>2012-03-28T14:31:52Z</time>
      </trkpt>
      <trkpt lat="43.55157" lon="5.5841">
        <ele>356.7</ele>
        <time>2012-03-28T14:31:59Z</time>
      </trkpt>
      <trkpt lat="43.55166" lon="5.58408">
        <ele>355.5</ele>
        <time>2012-03-28T14:32:06Z</time>
      </trkpt>
      <trkpt lat="43.55174" lon="5.58406">
        <ele>356.7</ele>
        <time>2012-03-28T14:32:14Z</time>
      </trkpt>
      <trkpt lat="43.55183" lon="5.58407">
        <ele>362.2</ele>
        <time>2012-03-28T14:32:25Z</time>
      </trkpt>
      <trkpt lat="43.55189" lon="5.58413">
        <ele>360.8</ele>
        <time>2012-03-28T14:32:34Z</time>
      </trkpt>
      <trkpt lat="43.55194" lon="5.58424">
        <ele>356.1</ele>
        <time>2012-03-28T14:32:42Z</time>
      </trkpt>
      <trkpt lat="43.55198" lon="5.58433">
        <ele>354.5</ele>
        <time>2012-03-28T14:32:50Z</time>
      </trkpt>
      <trkpt lat="43.55203" lon="5.58442">
        <ele>356.2</ele>
        <time>2012-03-28T14:32:58Z</time>
      </trkpt>
      <trkpt lat="43.5521" lon="5.58449">
        <ele>357.6</ele>
        <time>2012-03-28T14:33:06Z</time>
      </trkpt>
      <trkpt lat="43.55218" lon="5.58454">
        <ele>358.7</ele>
        <time>2012-03-28T14:33:13Z</time>
      </trkpt>
      <trkpt lat="43.55226" lon="5.58459">
        <ele>360</ele>
        <time>2012-03-28T14:33:21Z</time>
      </trkpt>
      <trkpt lat="43.55232" lon="5.58468">
        <ele>359.5</ele>
        <time>2012-03-28T14:33:29Z</time>
      </trkpt>
      <trkpt lat="43.55235" lon="5.58478">
        <ele>358.1</ele>
        <time>2012-03-28T14:33:36Z</time>
      </trkpt>
      <trkpt lat="43.55239" lon="5.58489">
        <ele>357.1</ele>
        <time>2012-03-28T14:33:44Z</time>
      </trkpt>
      <trkpt lat="43.55244" lon="5.58498">
        <ele>354.8</ele>
        <time>2012-03-28T14:33:53Z</time>
      </trkpt>
      <trkpt lat="43.55252" lon="5.58498">
        <ele>353</ele>
        <time>2012-03-28T14:34:03Z</time>
      </trkpt>
      <trkpt lat="43.55259" lon="5.58491">
        <ele>351.2</ele>
        <time>2012-03-28T14:34:11Z</time>
      </trkpt>
      <trkpt lat="43.55264" lon="5.58483">
        <ele>353.2</ele>
        <time>2012-03-28T14:34:18Z</time>
      </trkpt>
      <trkpt lat="43.55267" lon="5.58473">
        <ele>352.8</ele>
        <time>2012-03-28T14:34:25Z</time>
      </trkpt>
      <trkpt lat="43.5527" lon="5.58461">
        <ele>356.6</ele>
        <time>2012-03-28T14:34:31Z</time>
      </trkpt>
      <trkpt lat="43.55269" lon="5.58449">
        <ele>355.2</ele>
        <time>2012-03-28T14:34:39Z</time>
      </trkpt>
      <trkpt lat="43.55268" lon="5.58438">
        <ele>354.7</ele>
        <time>2012-03-28T14:34:46Z</time>
      </trkpt>
      <trkpt lat="43.55264" lon="5.58427">
        <ele>355.6</ele>
        <time>2012-03-28T14:34:53Z</time>
      </trkpt>
      <trkpt lat="43.55264" lon="5.58416">
        <ele>356.5</ele>
        <time>2012-03-28T14:34:59Z</time>
      </trkpt>
      <trkpt lat="43.55264" lon="5.58405">
        <ele>356.8</ele>
        <time>2012-03-28T14:35:06Z</time>
      </trkpt>
      <trkpt lat="43.55269" lon="5.58395">
        <ele>358.2</ele>
        <time>2012-03-28T14:35:15Z</time>
      </trkpt>
      <trkpt lat="43.55277" lon="5.5839">
        <ele>357.5</ele>
        <time>2012-03-28T14:35:24Z</time>
      </trkpt>
      <trkpt lat="43.55285" lon="5.58383">
        <ele>358</ele>
        <time>2012-03-28T14:35:32Z</time>
      </trkpt>
      <trkpt lat="43.55291" lon="5.58376">
        <ele>358</ele>
        <time>2012-03-28T14:35:39Z</time>
      </trkpt>
      <trkpt lat="43.553" lon="5.58374">
        <ele>356.8</ele>
        <time>2012-03-28T14:35:48Z</time>
      </trkpt>
      <trkpt lat="43.55301" lon="5.58385">
        <ele>362.8</ele>
        <time>2012-03-28T14:36:33Z</time>
      </trkpt>
      <trkpt lat="43.55298" lon="5.58396">
        <ele>361.2</ele>
        <time>2012-03-28T14:36:42Z</time>
      </trkpt>
      <trkpt lat="43.55297" lon="5.58408">
        <ele>360.3</ele>
        <time>2012-03-28T14:36:49Z</time>
      </trkpt>
      <trkpt lat="43.55295" lon="5.58419">
        <ele>359.3</ele>
        <time>2012-03-28T14:36:57Z</time>
      </trkpt>
      <trkpt lat="43.55294" lon="5.5843">
        <ele>359.2</ele>
        <time>2012-03-28T14:37:03Z</time>
      </trkpt>
      <trkpt lat="43.55295" lon="5.58441">
        <ele>358.7</ele>
        <time>2012-03-28T14:37:09Z</time>
      </trkpt>
      <trkpt lat="43.55297" lon="5.58451">
        <ele>357.7</ele>
        <time>2012-03-28T14:37:16Z</time>
      </trkpt>
      <trkpt lat="43.55301" lon="5.58462">
        <ele>356.7</ele>
        <time>2012-03-28T14:37:21Z</time>
      </trkpt>
      <trkpt lat="43.55304" lon="5.58471">
        <ele>356.8</ele>
        <time>2012-03-28T14:37:27Z</time>
      </trkpt>
      <trkpt lat="43.55307" lon="5.58482">
        <ele>357.5</ele>
        <time>2012-03-28T14:37:33Z</time>
      </trkpt>
      <trkpt lat="43.55309" lon="5.58494">
        <ele>359</ele>
        <time>2012-03-28T14:37:40Z</time>
      </trkpt>
      <trkpt lat="43.5531" lon="5.58506">
        <ele>359.1</ele>
        <time>2012-03-28T14:37:48Z</time>
      </trkpt>
      <trkpt lat="43.55307" lon="5.58517">
        <ele>360.7</ele>
        <time>2012-03-28T14:37:55Z</time>
      </trkpt>
      <trkpt lat="43.55304" lon="5.58528">
        <ele>362.2</ele>
        <time>2012-03-28T14:38:01Z</time>
      </trkpt>
      <trkpt lat="43.55298" lon="5.58535">
        <ele>364.8</ele>
        <time>2012-03-28T14:38:08Z</time>
      </trkpt>
      <trkpt lat="43.55291" lon="5.58541">
        <ele>366.8</ele>
        <time>2012-03-28T14:38:14Z</time>
      </trkpt>
      <trkpt lat="43.55285" lon="5.58548">
        <ele>365.2</ele>
        <time>2012-03-28T14:38:20Z</time>
      </trkpt>
      <trkpt lat="43.55278" lon="5.58553">
        <ele>364.7</ele>
        <time>2012-03-28T14:38:27Z</time>
      </trkpt>
      <trkpt lat="43.5527" lon="5.58555">
        <ele>363.8</ele>
        <time>2012-03-28T14:38:33Z</time>
      </trkpt>
      <trkpt lat="43.55262" lon="5.58556">
        <ele>362.8</ele>
        <time>2012-03-28T14:38:38Z</time>
      </trkpt>
      <trkpt lat="43.55253" lon="5.58557">
        <ele>362.2</ele>
        <time>2012-03-28T14:38:44Z</time>
      </trkpt>
      <trkpt lat="43.55245" lon="5.5856">
        <ele>363.2</ele>
        <time>2012-03-28T14:38:51Z</time>
      </trkpt>
      <trkpt lat="43.55238" lon="5.58562">
        <ele>363.6</ele>
        <time>2012-03-28T14:38:57Z</time>
      </trkpt>
      <trkpt lat="43.55231" lon="5.58566">
        <ele>363.6</ele>
        <time>2012-03-28T14:39:03Z</time>
      </trkpt>
      <trkpt lat="43.55223" lon="5.58571">
        <ele>361.7</ele>
        <time>2012-03-28T14:39:09Z</time>
      </trkpt>
      <trkpt lat="43.55217" lon="5.58579">
        <ele>360.1</ele>
        <time>2012-03-28T14:39:17Z</time>
      </trkpt>
      <trkpt lat="43.55216" lon="5.58592">
        <ele>362.2</ele>
        <time>2012-03-28T14:39:30Z</time>
      </trkpt>
      <trkpt lat="43.5522" lon="5.58581">
        <ele>366</ele>
        <time>2012-03-28T14:39:54Z</time>
      </trkpt>
      <trkpt lat="43.55224" lon="5.5857">
        <ele>369.6</ele>
        <time>2012-03-28T14:40:10Z</time>
      </trkpt>
      <trkpt lat="43.55231" lon="5.58564">
        <ele>365</ele>
        <time>2012-03-28T14:40:47Z</time>
      </trkpt>
      <trkpt lat="43.5524" lon="5.58562">
        <ele>366.2</ele>
        <time>2012-03-28T14:40:55Z</time>
      </trkpt>
      <trkpt lat="43.55247" lon="5.58559">
        <ele>365.2</ele>
        <time>2012-03-28T14:41:01Z</time>
      </trkpt>
      <trkpt lat="43.55255" lon="5.58559">
        <ele>362.2</ele>
        <time>2012-03-28T14:41:06Z</time>
      </trkpt>
      <trkpt lat="43.55263" lon="5.58557">
        <ele>363.2</ele>
        <time>2012-03-28T14:41:12Z</time>
      </trkpt>
      <trkpt lat="43.55271" lon="5.58554">
        <ele>366.5</ele>
        <time>2012-03-28T14:41:19Z</time>
      </trkpt>
      <trkpt lat="43.55279" lon="5.5855">
        <ele>368.8</ele>
        <time>2012-03-28T14:41:25Z</time>
      </trkpt>
      <trkpt lat="43.55287" lon="5.58546">
        <ele>369.8</ele>
        <time>2012-03-28T14:41:32Z</time>
      </trkpt>
      <trkpt lat="43.55293" lon="5.58541">
        <ele>369.8</ele>
        <time>2012-03-28T14:41:37Z</time>
      </trkpt>
      <trkpt lat="43.55299" lon="5.58532">
        <ele>369.1</ele>
        <time>2012-03-28T14:41:44Z</time>
      </trkpt>
      <trkpt lat="43.55305" lon="5.58524">
        <ele>363.8</ele>
        <time>2012-03-28T14:41:50Z</time>
      </trkpt>
      <trkpt lat="43.55308" lon="5.58513">
        <ele>361.7</ele>
        <time>2012-03-28T14:41:58Z</time>
      </trkpt>
      <trkpt lat="43.55307" lon="5.58502">
        <ele>361.7</ele>
        <time>2012-03-28T14:42:05Z</time>
      </trkpt>
      <trkpt lat="43.55305" lon="5.58491">
        <ele>363.7</ele>
        <time>2012-03-28T14:42:10Z</time>
      </trkpt>
      <trkpt lat="43.55301" lon="5.58483">
        <ele>367</ele>
        <time>2012-03-28T14:42:14Z</time>
      </trkpt>
      <trkpt lat="43.55298" lon="5.58473">
        <ele>369.7</ele>
        <time>2012-03-28T14:42:19Z</time>
      </trkpt>
      <trkpt lat="43.55296" lon="5.58463">
        <ele>370.2</ele>
        <time>2012-03-28T14:42:23Z</time>
      </trkpt>
      <trkpt lat="43.55294" lon="5.58453">
        <ele>370.2</ele>
        <time>2012-03-28T14:42:28Z</time>
      </trkpt>
      <trkpt lat="43.55291" lon="5.58443">
        <ele>371.6</ele>
        <time>2012-03-28T14:42:33Z</time>
      </trkpt>
      <trkpt lat="43.5529" lon="5.58431">
        <ele>372.1</ele>
        <time>2012-03-28T14:42:39Z</time>
      </trkpt>
      <trkpt lat="43.55293" lon="5.5842">
        <ele>366.2</ele>
        <time>2012-03-28T14:42:48Z</time>
      </trkpt>
      <trkpt lat="43.55296" lon="5.58409">
        <ele>361.2</ele>
        <time>2012-03-28T14:42:57Z</time>
      </trkpt>
      <trkpt lat="43.55298" lon="5.58399">
        <ele>359.2</ele>
        <time>2012-03-28T14:43:05Z</time>
      </trkpt>
      <trkpt lat="43.55301" lon="5.58388">
        <ele>361.2</ele>
        <time>2012-03-28T14:43:11Z</time>
      </trkpt>
      <trkpt lat="43.55304" lon="5.58377">
        <ele>358.2</ele>
        <time>2012-03-28T14:43:17Z</time>
      </trkpt>
      <trkpt lat="43.55311" lon="5.58369">
        <ele>353.1</ele>
        <time>2012-03-28T14:43:25Z</time>
      </trkpt>
      <trkpt lat="43.55318" lon="5.58362">
        <ele>354.1</ele>
        <time>2012-03-28T14:43:32Z</time>
      </trkpt>
      <trkpt lat="43.55326" lon="5.58357">
        <ele>358.2</ele>
        <time>2012-03-28T14:43:40Z</time>
      </trkpt>
      <trkpt lat="43.55333" lon="5.58357">
        <ele>361.1</ele>
        <time>2012-03-28T14:43:49Z</time>
      </trkpt>
      <trkpt lat="43.55342" lon="5.58357">
        <ele>362.1</ele>
        <time>2012-03-28T14:43:57Z</time>
      </trkpt>
      <trkpt lat="43.5535" lon="5.58358">
        <ele>366.2</ele>
        <time>2012-03-28T14:44:05Z</time>
      </trkpt>
      <trkpt lat="43.55359" lon="5.58357">
        <ele>372.1</ele>
        <time>2012-03-28T14:44:14Z</time>
      </trkpt>
      <trkpt lat="43.55366" lon="5.5835">
        <ele>373.1</ele>
        <time>2012-03-28T14:44:21Z</time>
      </trkpt>
      <trkpt lat="43.55371" lon="5.58343">
        <ele>373.2</ele>
        <time>2012-03-28T14:44:29Z</time>
      </trkpt>
      <trkpt lat="43.55376" lon="5.58334">
        <ele>370.7</ele>
        <time>2012-03-28T14:44:36Z</time>
      </trkpt>
      <trkpt lat="43.55381" lon="5.58325">
        <ele>371.2</ele>
        <time>2012-03-28T14:44:44Z</time>
      </trkpt>
      <trkpt lat="43.5539" lon="5.58328">
        <ele>372.7</ele>
        <time>2012-03-28T14:45:10Z</time>
      </trkpt>
      <trkpt lat="43.55394" lon="5.58339">
        <ele>372</ele>
        <time>2012-03-28T14:45:22Z</time>
      </trkpt>
      <trkpt lat="43.55397" lon="5.5835">
        <ele>372.2</ele>
        <time>2012-03-28T14:45:31Z</time>
      </trkpt>
      <trkpt lat="43.55402" lon="5.5836">
        <ele>368.1</ele>
        <time>2012-03-28T14:45:43Z</time>
      </trkpt>
      <trkpt lat="43.55406" lon="5.58371">
        <ele>367.3</ele>
        <time>2012-03-28T14:45:53Z</time>
      </trkpt>
      <trkpt lat="43.55407" lon="5.58383">
        <ele>371.6</ele>
        <time>2012-03-28T14:46:01Z</time>
      </trkpt>
      <trkpt lat="43.5541" lon="5.58394">
        <ele>372.1</ele>
        <time>2012-03-28T14:46:10Z</time>
      </trkpt>
      <trkpt lat="43.55411" lon="5.58405">
        <ele>373.6</ele>
        <time>2012-03-28T14:46:18Z</time>
      </trkpt>
      <trkpt lat="43.55412" lon="5.58417">
        <ele>372.8</ele>
        <time>2012-03-28T14:46:27Z</time>
      </trkpt>
      <trkpt lat="43.55416" lon="5.58427">
        <ele>371.6</ele>
        <time>2012-03-28T14:46:34Z</time>
      </trkpt>
      <trkpt lat="43.55417" lon="5.58438">
        <ele>374.2</ele>
        <time>2012-03-28T14:46:41Z</time>
      </trkpt>
      <trkpt lat="43.55419" lon="5.5845">
        <ele>375.7</ele>
        <time>2012-03-28T14:46:50Z</time>
      </trkpt>
      <trkpt lat="43.5542" lon="5.58461">
        <ele>374.3</ele>
        <time>2012-03-28T14:46:59Z</time>
      </trkpt>
      <trkpt lat="43.55422" lon="5.58472">
        <ele>375.7</ele>
        <time>2012-03-28T14:47:08Z</time>
      </trkpt>
      <trkpt lat="43.55424" lon="5.58483">
        <ele>375</ele>
        <time>2012-03-28T14:47:17Z</time>
      </trkpt>
      <trkpt lat="43.55426" lon="5.58495">
        <ele>376.2</ele>
        <time>2012-03-28T14:47:26Z</time>
      </trkpt>
      <trkpt lat="43.55429" lon="5.58507">
        <ele>378.3</ele>
        <time>2012-03-28T14:47:35Z</time>
      </trkpt>
      <trkpt lat="43.55431" lon="5.58517">
        <ele>378.3</ele>
        <time>2012-03-28T14:47:46Z</time>
      </trkpt>
      <trkpt lat="43.55435" lon="5.58528">
        <ele>376.5</ele>
        <time>2012-03-28T14:47:54Z</time>
      </trkpt>
      <trkpt lat="43.55438" lon="5.58539">
        <ele>375.6</ele>
        <time>2012-03-28T14:48:03Z</time>
      </trkpt>
      <trkpt lat="43.55441" lon="5.5855">
        <ele>375.1</ele>
        <time>2012-03-28T14:48:11Z</time>
      </trkpt>
      <trkpt lat="43.55443" lon="5.58562">
        <ele>375.7</ele>
        <time>2012-03-28T14:48:20Z</time>
      </trkpt>
      <trkpt lat="43.55446" lon="5.58574">
        <ele>376</ele>
        <time>2012-03-28T14:48:30Z</time>
      </trkpt>
      <trkpt lat="43.55448" lon="5.58585">
        <ele>379.6</ele>
        <time>2012-03-28T14:48:38Z</time>
      </trkpt>
      <trkpt lat="43.5545" lon="5.58597">
        <ele>379.5</ele>
        <time>2012-03-28T14:48:47Z</time>
      </trkpt>
      <trkpt lat="43.55451" lon="5.58609">
        <ele>382.3</ele>
        <time>2012-03-28T14:48:57Z</time>
      </trkpt>
      <trkpt lat="43.55453" lon="5.5862">
        <ele>381.5</ele>
        <time>2012-03-28T14:49:06Z</time>
      </trkpt>
      <trkpt lat="43.55453" lon="5.58632">
        <ele>381.1</ele>
        <time>2012-03-28T14:49:14Z</time>
      </trkpt>
      <trkpt lat="43.55453" lon="5.58645">
        <ele>375.1</ele>
        <time>2012-03-28T14:49:25Z</time>
      </trkpt>
      <trkpt lat="43.55454" lon="5.58657">
        <ele>374.3</ele>
        <time>2012-03-28T14:49:33Z</time>
      </trkpt>
      <trkpt lat="43.55451" lon="5.58668">
        <ele>369.8</ele>
        <time>2012-03-28T14:49:43Z</time>
      </trkpt>
      <trkpt lat="43.55452" lon="5.58679">
        <ele>364.2</ele>
        <time>2012-03-28T14:49:52Z</time>
      </trkpt>
      <trkpt lat="43.55454" lon="5.58689">
        <ele>367.8</ele>
        <time>2012-03-28T14:49:57Z</time>
      </trkpt>
      <trkpt lat="43.55455" lon="5.58702">
        <ele>369.2</ele>
        <time>2012-03-28T14:50:03Z</time>
      </trkpt>
      <trkpt lat="43.55455" lon="5.58714">
        <ele>362.6</ele>
        <time>2012-03-28T14:50:14Z</time>
      </trkpt>
      <trkpt lat="43.55459" lon="5.58725">
        <ele>362.2</ele>
        <time>2012-03-28T14:50:24Z</time>
      </trkpt>
      <trkpt lat="43.5546" lon="5.58737">
        <ele>359.5</ele>
        <time>2012-03-28T14:50:34Z</time>
      </trkpt>
      <trkpt lat="43.55459" lon="5.58748">
        <ele>352.7</ele>
        <time>2012-03-28T14:50:44Z</time>
      </trkpt>
      <trkpt lat="43.55461" lon="5.58758">
        <ele>352.6</ele>
        <time>2012-03-28T14:50:51Z</time>
      </trkpt>
      <trkpt lat="43.55462" lon="5.5877">
        <ele>367.2</ele>
        <time>2012-03-28T14:50:59Z</time>
      </trkpt>
      <trkpt lat="43.55464" lon="5.58782">
        <ele>377.5</ele>
        <time>2012-03-28T14:51:06Z</time>
      </trkpt>
      <trkpt lat="43.55465" lon="5.58793">
        <ele>387.5</ele>
        <time>2012-03-28T14:51:14Z</time>
      </trkpt>
      <trkpt lat="43.55465" lon="5.58805">
        <ele>391.8</ele>
        <time>2012-03-28T14:51:23Z</time>
      </trkpt>
      <trkpt lat="43.55467" lon="5.58816">
        <ele>396.7</ele>
        <time>2012-03-28T14:51:32Z</time>
      </trkpt>
      <trkpt lat="43.55467" lon="5.58828">
        <ele>386.7</ele>
        <time>2012-03-28T14:51:39Z</time>
      </trkpt>
      <trkpt lat="43.5547" lon="5.58838">
        <ele>385.2</ele>
        <time>2012-03-28T14:51:46Z</time>
      </trkpt>
      <trkpt lat="43.55473" lon="5.58848">
        <ele>382</ele>
        <time>2012-03-28T14:51:52Z</time>
      </trkpt>
      <trkpt lat="43.55478" lon="5.58858">
        <ele>382.7</ele>
        <time>2012-03-28T14:51:59Z</time>
      </trkpt>
      <trkpt lat="43.5548" lon="5.58869">
        <ele>377.8</ele>
        <time>2012-03-28T14:52:06Z</time>
      </trkpt>
      <trkpt lat="43.55482" lon="5.5888">
        <ele>375.2</ele>
        <time>2012-03-28T14:52:13Z</time>
      </trkpt>
      <trkpt lat="43.55489" lon="5.58886">
        <ele>380.1</ele>
        <time>2012-03-28T14:52:21Z</time>
      </trkpt>
      <trkpt lat="43.55495" lon="5.58894">
        <ele>392.8</ele>
        <time>2012-03-28T14:52:30Z</time>
      </trkpt>
      <trkpt lat="43.55502" lon="5.58902">
        <ele>393.7</ele>
        <time>2012-03-28T14:52:37Z</time>
      </trkpt>
      <trkpt lat="43.55506" lon="5.58912">
        <ele>391.7</ele>
        <time>2012-03-28T14:52:43Z</time>
      </trkpt>
      <trkpt lat="43.5551" lon="5.58923">
        <ele>391.7</ele>
        <time>2012-03-28T14:52:50Z</time>
      </trkpt>
      <trkpt lat="43.55512" lon="5.58935">
        <ele>383.2</ele>
        <time>2012-03-28T14:52:57Z</time>
      </trkpt>
      <trkpt lat="43.55513" lon="5.58946">
        <ele>377.6</ele>
        <time>2012-03-28T14:53:03Z</time>
      </trkpt>
      <trkpt lat="43.55519" lon="5.58954">
        <ele>375.5</ele>
        <time>2012-03-28T14:53:11Z</time>
      </trkpt>
      <trkpt lat="43.55523" lon="5.58965">
        <ele>372.7</ele>
        <time>2012-03-28T14:53:19Z</time>
      </trkpt>
      <trkpt lat="43.55527" lon="5.58976">
        <ele>366.6</ele>
        <time>2012-03-28T14:53:27Z</time>
      </trkpt>
      <trkpt lat="43.55533" lon="5.58985">
        <ele>366.7</ele>
        <time>2012-03-28T14:53:36Z</time>
      </trkpt>
      <trkpt lat="43.55538" lon="5.58993">
        <ele>370.5</ele>
        <time>2012-03-28T14:53:45Z</time>
      </trkpt>
      <trkpt lat="43.55544" lon="5.59003">
        <ele>384.2</ele>
        <time>2012-03-28T14:53:51Z</time>
      </trkpt>
      <trkpt lat="43.5555" lon="5.5901">
        <ele>390</ele>
        <time>2012-03-28T14:53:58Z</time>
      </trkpt>
      <trkpt lat="43.55554" lon="5.5902">
        <ele>392.1</ele>
        <time>2012-03-28T14:54:05Z</time>
      </trkpt>
      <trkpt lat="43.55557" lon="5.59031">
        <ele>392.7</ele>
        <time>2012-03-28T14:54:14Z</time>
      </trkpt>
      <trkpt lat="43.55558" lon="5.59042">
        <ele>392.7</ele>
        <time>2012-03-28T14:54:22Z</time>
      </trkpt>
      <trkpt lat="43.55563" lon="5.59053">
        <ele>393.8</ele>
        <time>2012-03-28T14:54:31Z</time>
      </trkpt>
      <trkpt lat="43.55565" lon="5.59064">
        <ele>394.7</ele>
        <time>2012-03-28T14:54:39Z</time>
      </trkpt>
      <trkpt lat="43.55566" lon="5.59075">
        <ele>385.3</ele>
        <time>2012-03-28T14:54:46Z</time>
      </trkpt>
      <trkpt lat="43.55569" lon="5.59087">
        <ele>383.7</ele>
        <time>2012-03-28T14:54:54Z</time>
      </trkpt>
      <trkpt lat="43.5557" lon="5.59098">
        <ele>383</ele>
        <time>2012-03-28T14:55:01Z</time>
      </trkpt>
      <trkpt lat="43.55571" lon="5.5911">
        <ele>379</ele>
        <time>2012-03-28T14:55:11Z</time>
      </trkpt>
      <trkpt lat="43.5557" lon="5.59121">
        <ele>374.5</ele>
        <time>2012-03-28T14:55:18Z</time>
      </trkpt>
      <trkpt lat="43.55567" lon="5.59132">
        <ele>369.3</ele>
        <time>2012-03-28T14:55:24Z</time>
      </trkpt>
      <trkpt lat="43.55564" lon="5.59141">
        <ele>367.5</ele>
        <time>2012-03-28T14:55:30Z</time>
      </trkpt>
      <trkpt lat="43.55561" lon="5.59152">
        <ele>375.7</ele>
        <time>2012-03-28T14:55:35Z</time>
      </trkpt>
      <trkpt lat="43.55559" lon="5.59164">
        <ele>378.3</ele>
        <time>2012-03-28T14:55:42Z</time>
      </trkpt>
      <trkpt lat="43.55557" lon="5.59175">
        <ele>381.1</ele>
        <time>2012-03-28T14:55:49Z</time>
      </trkpt>
      <trkpt lat="43.55557" lon="5.59187">
        <ele>379.2</ele>
        <time>2012-03-28T14:55:56Z</time>
      </trkpt>
      <trkpt lat="43.55556" lon="5.59198">
        <ele>378.1</ele>
        <time>2012-03-28T14:56:03Z</time>
      </trkpt>
      <trkpt lat="43.55556" lon="5.5921">
        <ele>376.1</ele>
        <time>2012-03-28T14:56:10Z</time>
      </trkpt>
      <trkpt lat="43.55555" lon="5.59221">
        <ele>371.7</ele>
        <time>2012-03-28T14:56:16Z</time>
      </trkpt>
      <trkpt lat="43.55555" lon="5.59232">
        <ele>373</ele>
        <time>2012-03-28T14:56:23Z</time>
      </trkpt>
      <trkpt lat="43.55554" lon="5.59244">
        <ele>372.8</ele>
        <time>2012-03-28T14:56:30Z</time>
      </trkpt>
      <trkpt lat="43.55554" lon="5.59254">
        <ele>389.2</ele>
        <time>2012-03-28T14:56:39Z</time>
      </trkpt>
      <trkpt lat="43.55553" lon="5.59265">
        <ele>386.5</ele>
        <time>2012-03-28T14:56:46Z</time>
      </trkpt>
      <trkpt lat="43.55551" lon="5.59276">
        <ele>382.7</ele>
        <time>2012-03-28T14:56:53Z</time>
      </trkpt>
      <trkpt lat="43.5555" lon="5.59288">
        <ele>389.2</ele>
        <time>2012-03-28T14:57:00Z</time>
      </trkpt>
      <trkpt lat="43.55548" lon="5.59298">
        <ele>381.3</ele>
        <time>2012-03-28T14:57:09Z</time>
      </trkpt>
      <trkpt lat="43.55545" lon="5.5931">
        <ele>373.2</ele>
        <time>2012-03-28T14:57:19Z</time>
      </trkpt>
      <trkpt lat="43.55545" lon="5.59321">
        <ele>385.7</ele>
        <time>2012-03-28T14:57:26Z</time>
      </trkpt>
      <trkpt lat="43.55544" lon="5.59333">
        <ele>393.7</ele>
        <time>2012-03-28T14:57:35Z</time>
      </trkpt>
      <trkpt lat="43.55541" lon="5.59344">
        <ele>391.2</ele>
        <time>2012-03-28T14:57:45Z</time>
      </trkpt>
      <trkpt lat="43.55538" lon="5.59355">
        <ele>386.8</ele>
        <time>2012-03-28T14:57:54Z</time>
      </trkpt>
      <trkpt lat="43.55536" lon="5.59367">
        <ele>396.5</ele>
        <time>2012-03-28T14:58:03Z</time>
      </trkpt>
      <trkpt lat="43.55534" lon="5.59378">
        <ele>400.1</ele>
        <time>2012-03-28T14:58:13Z</time>
      </trkpt>
      <trkpt lat="43.55533" lon="5.59389">
        <ele>406.1</ele>
        <time>2012-03-28T14:58:21Z</time>
      </trkpt>
      <trkpt lat="43.55531" lon="5.594">
        <ele>406.2</ele>
        <time>2012-03-28T14:58:30Z</time>
      </trkpt>
      <trkpt lat="43.55527" lon="5.59411">
        <ele>403</ele>
        <time>2012-03-28T14:58:37Z</time>
      </trkpt>
      <trkpt lat="43.55523" lon="5.59422">
        <ele>397.7</ele>
        <time>2012-03-28T14:58:43Z</time>
      </trkpt>
      <trkpt lat="43.55519" lon="5.59433">
        <ele>396.7</ele>
        <time>2012-03-28T14:58:55Z</time>
      </trkpt>
      <trkpt lat="43.55518" lon="5.59445">
        <ele>399.1</ele>
        <time>2012-03-28T14:59:08Z</time>
      </trkpt>
      <trkpt lat="43.55515" lon="5.59456">
        <ele>407</ele>
        <time>2012-03-28T14:59:16Z</time>
      </trkpt>
      <trkpt lat="43.55513" lon="5.59466">
        <ele>400.2</ele>
        <time>2012-03-28T14:59:24Z</time>
      </trkpt>
      <trkpt lat="43.5551" lon="5.59477">
        <ele>398.8</ele>
        <time>2012-03-28T14:59:32Z</time>
      </trkpt>
      <trkpt lat="43.55507" lon="5.59489">
        <ele>395.2</ele>
        <time>2012-03-28T14:59:39Z</time>
      </trkpt>
      <trkpt lat="43.55504" lon="5.595">
        <ele>401.7</ele>
        <time>2012-03-28T14:59:46Z</time>
      </trkpt>
      <trkpt lat="43.55501" lon="5.59511">
        <ele>403.8</ele>
        <time>2012-03-28T14:59:55Z</time>
      </trkpt>
      <trkpt lat="43.55498" lon="5.59522">
        <ele>404</ele>
        <time>2012-03-28T15:00:04Z</time>
      </trkpt>
      <trkpt lat="43.55495" lon="5.59533">
        <ele>407.2</ele>
        <time>2012-03-28T15:00:13Z</time>
      </trkpt>
      <trkpt lat="43.55493" lon="5.59544">
        <ele>408.5</ele>
        <time>2012-03-28T15:00:21Z</time>
      </trkpt>
      <trkpt lat="43.55491" lon="5.59556">
        <ele>409.7</ele>
        <time>2012-03-28T15:00:28Z</time>
      </trkpt>
      <trkpt lat="43.5549" lon="5.59568">
        <ele>412.1</ele>
        <time>2012-03-28T15:00:37Z</time>
      </trkpt>
      <trkpt lat="43.55491" lon="5.5958">
        <ele>411</ele>
        <time>2012-03-28T15:00:49Z</time>
      </trkpt>
      <trkpt lat="43.5549" lon="5.59592">
        <ele>419.5</ele>
        <time>2012-03-28T15:01:03Z</time>
      </trkpt>
      <trkpt lat="43.55492" lon="5.59603">
        <ele>416.7</ele>
        <time>2012-03-28T15:01:12Z</time>
      </trkpt>
      <trkpt lat="43.55494" lon="5.59614">
        <ele>409.6</ele>
        <time>2012-03-28T15:01:20Z</time>
      </trkpt>
      <trkpt lat="43.55493" lon="5.59625">
        <ele>407.5</ele>
        <time>2012-03-28T15:01:27Z</time>
      </trkpt>
      <trkpt lat="43.55492" lon="5.59637">
        <ele>408.2</ele>
        <time>2012-03-28T15:01:34Z</time>
      </trkpt>
      <trkpt lat="43.5549" lon="5.59649">
        <ele>409.6</ele>
        <time>2012-03-28T15:01:41Z</time>
      </trkpt>
      <trkpt lat="43.55489" lon="5.59659">
        <ele>406.2</ele>
        <time>2012-03-28T15:01:47Z</time>
      </trkpt>
      <trkpt lat="43.55488" lon="5.59671">
        <ele>406.7</ele>
        <time>2012-03-28T15:01:55Z</time>
      </trkpt>
      <trkpt lat="43.55485" lon="5.59683">
        <ele>413.3</ele>
        <time>2012-03-28T15:02:06Z</time>
      </trkpt>
      <trkpt lat="43.55484" lon="5.59694">
        <ele>422.1</ele>
        <time>2012-03-28T15:02:21Z</time>
      </trkpt>
      <trkpt lat="43.55485" lon="5.59705">
        <ele>420.5</ele>
        <time>2012-03-28T15:02:29Z</time>
      </trkpt>
      <trkpt lat="43.55489" lon="5.59716">
        <ele>425.2</ele>
        <time>2012-03-28T15:02:38Z</time>
      </trkpt>
      <trkpt lat="43.55491" lon="5.59726">
        <ele>425.3</ele>
        <time>2012-03-28T15:02:45Z</time>
      </trkpt>
      <trkpt lat="43.55491" lon="5.59738">
        <ele>425.3</ele>
        <time>2012-03-28T15:02:52Z</time>
      </trkpt>
      <trkpt lat="43.55492" lon="5.59749">
        <ele>423.7</ele>
        <time>2012-03-28T15:03:00Z</time>
      </trkpt>
      <trkpt lat="43.55495" lon="5.59759">
        <ele>427</ele>
        <time>2012-03-28T15:03:08Z</time>
      </trkpt>
      <trkpt lat="43.55496" lon="5.59772">
        <ele>424</ele>
        <time>2012-03-28T15:03:15Z</time>
      </trkpt>
      <trkpt lat="43.55497" lon="5.59783">
        <ele>421.6</ele>
        <time>2012-03-28T15:03:23Z</time>
      </trkpt>
      <trkpt lat="43.55498" lon="5.59794">
        <ele>418.2</ele>
        <time>2012-03-28T15:03:30Z</time>
      </trkpt>
      <trkpt lat="43.555" lon="5.59806">
        <ele>418.2</ele>
        <time>2012-03-28T15:03:38Z</time>
      </trkpt>
      <trkpt lat="43.55502" lon="5.59817">
        <ele>417.3</ele>
        <time>2012-03-28T15:03:44Z</time>
      </trkpt>
      <trkpt lat="43.55504" lon="5.59828">
        <ele>420.2</ele>
        <time>2012-03-28T15:03:51Z</time>
      </trkpt>
      <trkpt lat="43.55508" lon="5.59839">
        <ele>429.2</ele>
        <time>2012-03-28T15:03:58Z</time>
      </trkpt>
      <trkpt lat="43.55511" lon="5.5985">
        <ele>430.7</ele>
        <time>2012-03-28T15:04:06Z</time>
      </trkpt>
      <trkpt lat="43.55513" lon="5.59861">
        <ele>430.6</ele>
        <time>2012-03-28T15:04:13Z</time>
      </trkpt>
      <trkpt lat="43.55515" lon="5.59872">
        <ele>427.5</ele>
        <time>2012-03-28T15:04:20Z</time>
      </trkpt>
      <trkpt lat="43.55518" lon="5.59882">
        <ele>424.7</ele>
        <time>2012-03-28T15:04:27Z</time>
      </trkpt>
      <trkpt lat="43.55523" lon="5.5989">
        <ele>427.2</ele>
        <time>2012-03-28T15:04:34Z</time>
      </trkpt>
      <trkpt lat="43.55524" lon="5.59902">
        <ele>424.7</ele>
        <time>2012-03-28T15:04:43Z</time>
      </trkpt>
      <trkpt lat="43.55525" lon="5.59913">
        <ele>417.7</ele>
        <time>2012-03-28T15:04:51Z</time>
      </trkpt>
      <trkpt lat="43.55526" lon="5.59924">
        <ele>424.1</ele>
        <time>2012-03-28T15:04:58Z</time>
      </trkpt>
      <trkpt lat="43.55529" lon="5.59934">
        <ele>429.7</ele>
        <time>2012-03-28T15:05:03Z</time>
      </trkpt>
      <trkpt lat="43.5553" lon="5.59945">
        <ele>432.2</ele>
        <time>2012-03-28T15:05:08Z</time>
      </trkpt>
      <trkpt lat="43.55531" lon="5.59955">
        <ele>434.2</ele>
        <time>2012-03-28T15:05:14Z</time>
      </trkpt>
      <trkpt lat="43.55534" lon="5.59965">
        <ele>437.1</ele>
        <time>2012-03-28T15:05:20Z</time>
      </trkpt>
      <trkpt lat="43.55537" lon="5.59975">
        <ele>435.5</ele>
        <time>2012-03-28T15:05:27Z</time>
      </trkpt>
      <trkpt lat="43.55538" lon="5.59988">
        <ele>431.2</ele>
        <time>2012-03-28T15:05:36Z</time>
      </trkpt>
      <trkpt lat="43.55537" lon="5.59999">
        <ele>424.3</ele>
        <time>2012-03-28T15:05:43Z</time>
      </trkpt>
      <trkpt lat="43.55537" lon="5.6001">
        <ele>424.7</ele>
        <time>2012-03-28T15:05:50Z</time>
      </trkpt>
      <trkpt lat="43.55537" lon="5.60022">
        <ele>428.2</ele>
        <time>2012-03-28T15:06:00Z</time>
      </trkpt>
      <trkpt lat="43.55537" lon="5.60034">
        <ele>428.2</ele>
        <time>2012-03-28T15:06:08Z</time>
      </trkpt>
      <trkpt lat="43.55538" lon="5.60045">
        <ele>424.2</ele>
        <time>2012-03-28T15:06:15Z</time>
      </trkpt>
      <trkpt lat="43.55539" lon="5.60055">
        <ele>422.6</ele>
        <time>2012-03-28T15:06:21Z</time>
      </trkpt>
      <trkpt lat="43.55541" lon="5.60066">
        <ele>431.8</ele>
        <time>2012-03-28T15:06:28Z</time>
      </trkpt>
      <trkpt lat="43.5554" lon="5.60077">
        <ele>433.2</ele>
        <time>2012-03-28T15:06:35Z</time>
      </trkpt>
      <trkpt lat="43.55535" lon="5.60087">
        <ele>430.3</ele>
        <time>2012-03-28T15:06:42Z</time>
      </trkpt>
      <trkpt lat="43.5553" lon="5.60098">
        <ele>437.6</ele>
        <time>2012-03-28T15:06:51Z</time>
      </trkpt>
      <trkpt lat="43.55528" lon="5.60108">
        <ele>438</ele>
        <time>2012-03-28T15:07:00Z</time>
      </trkpt>
      <trkpt lat="43.55525" lon="5.60119">
        <ele>435.2</ele>
        <time>2012-03-28T15:07:06Z</time>
      </trkpt>
      <trkpt lat="43.55526" lon="5.60131">
        <ele>433.5</ele>
        <time>2012-03-28T15:07:13Z</time>
      </trkpt>
      <trkpt lat="43.55529" lon="5.60141">
        <ele>438.3</ele>
        <time>2012-03-28T15:07:21Z</time>
      </trkpt>
      <trkpt lat="43.55531" lon="5.60152">
        <ele>441.2</ele>
        <time>2012-03-28T15:07:28Z</time>
      </trkpt>
      <trkpt lat="43.5553" lon="5.60163">
        <ele>437.6</ele>
        <time>2012-03-28T15:07:33Z</time>
      </trkpt>
      <trkpt lat="43.5553" lon="5.60175">
        <ele>432.2</ele>
        <time>2012-03-28T15:07:39Z</time>
      </trkpt>
      <trkpt lat="43.55529" lon="5.60187">
        <ele>426.7</ele>
        <time>2012-03-28T15:07:46Z</time>
      </trkpt>
      <trkpt lat="43.55529" lon="5.602">
        <ele>421.5</ele>
        <time>2012-03-28T15:07:53Z</time>
      </trkpt>
      <trkpt lat="43.55528" lon="5.60211">
        <ele>419.7</ele>
        <time>2012-03-28T15:07:59Z</time>
      </trkpt>
      <trkpt lat="43.55529" lon="5.60222">
        <ele>421.5</ele>
        <time>2012-03-28T15:08:05Z</time>
      </trkpt>
      <trkpt lat="43.55531" lon="5.60234">
        <ele>425.2</ele>
        <time>2012-03-28T15:08:13Z</time>
      </trkpt>
      <trkpt lat="43.55533" lon="5.60245">
        <ele>428.7</ele>
        <time>2012-03-28T15:08:21Z</time>
      </trkpt>
      <trkpt lat="43.55533" lon="5.60257">
        <ele>429.3</ele>
        <time>2012-03-28T15:08:29Z</time>
      </trkpt>
      <trkpt lat="43.55531" lon="5.60268">
        <ele>427.5</ele>
        <time>2012-03-28T15:08:35Z</time>
      </trkpt>
      <trkpt lat="43.5553" lon="5.6028">
        <ele>427.2</ele>
        <time>2012-03-28T15:08:41Z</time>
      </trkpt>
      <trkpt lat="43.5553" lon="5.60292">
        <ele>427.2</ele>
        <time>2012-03-28T15:08:46Z</time>
      </trkpt>
      <trkpt lat="43.55529" lon="5.60305">
        <ele>428.8</ele>
        <time>2012-03-28T15:08:53Z</time>
      </trkpt>
      <trkpt lat="43.55524" lon="5.60314">
        <ele>431.2</ele>
        <time>2012-03-28T15:09:00Z</time>
      </trkpt>
      <trkpt lat="43.55521" lon="5.60324">
        <ele>428.5</ele>
        <time>2012-03-28T15:09:07Z</time>
      </trkpt>
      <trkpt lat="43.55517" lon="5.60334">
        <ele>428.8</ele>
        <time>2012-03-28T15:09:15Z</time>
      </trkpt>
      <trkpt lat="43.55514" lon="5.60344">
        <ele>435.1</ele>
        <time>2012-03-28T15:09:23Z</time>
      </trkpt>
      <trkpt lat="43.55509" lon="5.60353">
        <ele>439.2</ele>
        <time>2012-03-28T15:09:30Z</time>
      </trkpt>
      <trkpt lat="43.55505" lon="5.60362">
        <ele>441.6</ele>
        <time>2012-03-28T15:09:34Z</time>
      </trkpt>
      <trkpt lat="43.55501" lon="5.60372">
        <ele>437.1</ele>
        <time>2012-03-28T15:09:41Z</time>
      </trkpt>
      <trkpt lat="43.555" lon="5.60382">
        <ele>428.7</ele>
        <time>2012-03-28T15:09:46Z</time>
      </trkpt>
      <trkpt lat="43.55502" lon="5.60394">
        <ele>424.7</ele>
        <time>2012-03-28T15:09:52Z</time>
      </trkpt>
      <trkpt lat="43.55498" lon="5.60403">
        <ele>419.8</ele>
        <time>2012-03-28T15:09:58Z</time>
      </trkpt>
      <trkpt lat="43.555" lon="5.60415">
        <ele>425.5</ele>
        <time>2012-03-28T15:10:04Z</time>
      </trkpt>
      <trkpt lat="43.55502" lon="5.60426">
        <ele>428.2</ele>
        <time>2012-03-28T15:10:09Z</time>
      </trkpt>
      <trkpt lat="43.55502" lon="5.60437">
        <ele>424.2</ele>
        <time>2012-03-28T15:10:14Z</time>
      </trkpt>
      <trkpt lat="43.55502" lon="5.60449">
        <ele>419.2</ele>
        <time>2012-03-28T15:10:21Z</time>
      </trkpt>
      <trkpt lat="43.55503" lon="5.60462">
        <ele>412.3</ele>
        <time>2012-03-28T15:10:29Z</time>
      </trkpt>
      <trkpt lat="43.55506" lon="5.60473">
        <ele>411</ele>
        <time>2012-03-28T15:10:38Z</time>
      </trkpt>
      <trkpt lat="43.55509" lon="5.60484">
        <ele>413.3</ele>
        <time>2012-03-28T15:10:45Z</time>
      </trkpt>
      <trkpt lat="43.5551" lon="5.60496">
        <ele>417.2</ele>
        <time>2012-03-28T15:10:52Z</time>
      </trkpt>
      <trkpt lat="43.55506" lon="5.60507">
        <ele>418.7</ele>
        <time>2012-03-28T15:10:59Z</time>
      </trkpt>
      <trkpt lat="43.55503" lon="5.60517">
        <ele>419.6</ele>
        <time>2012-03-28T15:11:04Z</time>
      </trkpt>
      <trkpt lat="43.55503" lon="5.60517">
        <ele>419.6</ele>
        <time>2012-03-28T15:11:04Z</time>
      </trkpt>
    </trkseg>
  </trk>
</gpx>